PWSweather.com
Personal Weather Stations
Station Observations
ALLANTONFL
Allanton, Panama City, FL 32404

AllantonPanama City, FL 32404

Lat: 30.036, Lon: -85.48284060000003

Elevation: 11

Station Type: Acurite 5in1

High Low Average
Temperature 54.3°F12.4°C 39.2°F4.0°C 47.0°F8.3°C
Dew Point 46.4°F8.0°C 36.2°F2.3°C 41.7°F5.4°C
Winds 10.9 mph 17.5 kmh Calm Calm 3.0 mph SW4.8 kmh SW
Wind Gusts 10.9 mph17.5 kmh -- 5.0 mph8.0 kmh
Humidity 89% 67% 82%
Pressure 30.41 in1029.8 mb 30.28 in1025.4 mb -
Precipitation 0.00 in0.0 mm - -
Hour Temp Dew Point Humidity Winds Wind Gusts Pressure Precip Precip Rate Daily Precip Total
12:00 AM 43.5°F6.4°C 39.9°F4.4°C 87% 3.2 mph WNW5.1 kmh WNW 7.3 mph11.7 kmh 30.28 in1025.4 mb 0.00 in0.0 mm 0.00 in0.0 mm 0.00 in0.0 mm
12:01 AM 43.5°F6.4°C 39.9°F4.4°C 87% 2.7 mph WNW4.3 kmh WNW 7.3 mph11.7 kmh 30.28 in1025.4 mb 0.00 in0.0 mm 0.00 in0.0 mm 0.00 in0.0 mm
12:02 AM 43.5°F6.4°C 39.9°F4.4°C 87% 2.2 mph WNW3.5 kmh WNW 5.8 mph9.3 kmh 30.28 in1025.4 mb 0.00 in0.0 mm 0.00 in0.0 mm 0.00 in0.0 mm
12:03 AM 43.5°F6.4°C 39.6°F4.2°C 86% 2.7 mph WNW4.3 kmh WNW 5.8 mph9.3 kmh 30.28 in1025.4 mb 0.00 in0.0 mm 0.00 in0.0 mm 0.00 in0.0 mm
12:04 AM 43.5°F6.4°C 39.6°F4.2°C 86% 2.7 mph NNW4.3 kmh NNW 5.8 mph9.3 kmh 30.28 in1025.4 mb 0.00 in0.0 mm 0.00 in0.0 mm 0.00 in0.0 mm
12:05 AM 43.5°F6.4°C 39.6°F4.2°C 86% 2.2 mph N3.5 kmh N 5.8 mph9.3 kmh 30.28 in1025.4 mb 0.00 in0.0 mm 0.00 in0.0 mm 0.00 in0.0 mm
12:06 AM 43.5°F6.4°C 39.6°F4.2°C 86% 2.7 mph NW4.3 kmh NW 5.8 mph9.3 kmh 30.28 in1025.4 mb 0.00 in0.0 mm 0.00 in0.0 mm 0.00 in0.0 mm
12:07 AM 43.5°F6.4°C 39.6°F4.2°C 86% 1.1 mph NNE1.8 kmh NNE 5.8 mph9.3 kmh 30.28 in1025.4 mb 0.00 in0.0 mm 0.00 in0.0 mm 0.00 in0.0 mm
12:08 AM 43.3°F6.3°C 39.4°F4.1°C 86% 1.1 mph NNE1.8 kmh NNE 5.8 mph9.3 kmh 30.28 in1025.4 mb 0.00 in0.0 mm 0.00 in0.0 mm 0.00 in0.0 mm
12:09 AM 43.3°F6.3°C 39.4°F4.1°C 86% 1.1 mph NNW1.8 kmh NNW 4.7 mph7.6 kmh 30.28 in1025.4 mb 0.00 in0.0 mm 0.00 in0.0 mm 0.00 in0.0 mm
12:10 AM 43.3°F6.3°C 39.4°F4.1°C 86% Calm Calm 4.7 mph7.6 kmh 30.28 in1025.4 mb 0.00 in0.0 mm 0.00 in0.0 mm 0.00 in0.0 mm
12:11 AM 43.2°F6.2°C 39.3°F4.1°C 86% 1.7 mph NNW2.7 kmh NNW 4.2 mph6.8 kmh 30.28 in1025.4 mb 0.00 in0.0 mm 0.00 in0.0 mm 0.00 in0.0 mm
12:12 AM 43.2°F6.2°C 39.3°F4.1°C 86% 2.2 mph N3.5 kmh N 4.2 mph6.8 kmh 30.28 in1025.4 mb 0.00 in0.0 mm 0.00 in0.0 mm 0.00 in0.0 mm
12:13 AM 43.2°F6.2°C 39.3°F4.1°C 86% 1.7 mph NNW2.7 kmh NNW 4.2 mph6.8 kmh 30.28 in1025.4 mb 0.00 in0.0 mm 0.00 in0.0 mm 0.00 in0.0 mm
12:14 AM 43.2°F6.2°C 39.3°F4.1°C 86% 4.2 mph NW6.8 kmh NW 4.2 mph6.8 kmh 30.28 in1025.4 mb 0.00 in0.0 mm 0.00 in0.0 mm 0.00 in0.0 mm
12:15 AM 43.5°F6.4°C 39.9°F4.4°C 87% 2.7 mph WNW4.3 kmh WNW 4.2 mph6.8 kmh 30.28 in1025.4 mb 0.00 in0.0 mm 0.00 in0.0 mm 0.00 in0.0 mm
12:16 AM 43.5°F6.4°C 39.9°F4.4°C 87% 1.7 mph N2.7 kmh N 4.2 mph6.8 kmh 30.28 in1025.4 mb 0.00 in0.0 mm 0.00 in0.0 mm 0.00 in0.0 mm
12:17 AM 43.5°F6.4°C 39.6°F4.2°C 86% 1.1 mph NNE1.8 kmh NNE 4.2 mph6.8 kmh 30.28 in1025.4 mb 0.00 in0.0 mm 0.00 in0.0 mm 0.00 in0.0 mm
12:18 AM 43.5°F6.4°C 39.6°F4.2°C 86% 1.1 mph NE1.8 kmh NE 4.2 mph6.8 kmh 30.28 in1025.4 mb 0.00 in0.0 mm 0.00 in0.0 mm 0.00 in0.0 mm
12:19 AM 43.3°F6.3°C 39.4°F4.1°C 86% 1.7 mph NW2.7 kmh NW 4.2 mph6.8 kmh 30.28 in1025.4 mb 0.00 in0.0 mm 0.00 in0.0 mm 0.00 in0.0 mm
12:20 AM 43.3°F6.3°C 39.4°F4.1°C 86% 1.7 mph NNW2.7 kmh NNW 4.2 mph6.8 kmh 30.28 in1025.4 mb 0.00 in0.0 mm 0.00 in0.0 mm 0.00 in0.0 mm
12:21 AM 43.3°F6.3°C 39.4°F4.1°C 86% 1.1 mph NNW1.8 kmh NNW 4.2 mph6.8 kmh 30.28 in1025.4 mb 0.00 in0.0 mm 0.00 in0.0 mm 0.00 in0.0 mm
12:22 AM 43.3°F6.3°C 39.4°F4.1°C 86% 2.7 mph NW4.3 kmh NW 4.2 mph6.8 kmh 30.28 in1025.4 mb 0.00 in0.0 mm 0.00 in0.0 mm 0.00 in0.0 mm
12:23 AM 43.3°F6.3°C 39.4°F4.1°C 86% 2.2 mph NNW3.5 kmh NNW 4.2 mph6.8 kmh 30.28 in1025.4 mb 0.00 in0.0 mm 0.00 in0.0 mm 0.00 in0.0 mm
12:24 AM 43.5°F6.4°C 39.6°F4.2°C 86% 1.7 mph NNW2.7 kmh NNW 3.7 mph6.0 kmh 30.28 in1025.4 mb 0.00 in0.0 mm 0.00 in0.0 mm 0.00 in0.0 mm
12:25 AM 43.5°F6.4°C 39.6°F4.2°C 86% 2.7 mph NNW4.3 kmh NNW 3.2 mph5.1 kmh 30.28 in1025.4 mb 0.00 in0.0 mm 0.00 in0.0 mm 0.00 in0.0 mm
12:26 AM 43.5°F6.4°C 39.6°F4.2°C 86% 2.7 mph NNW4.3 kmh NNW 3.2 mph5.1 kmh 30.28 in1025.4 mb 0.00 in0.0 mm 0.00 in0.0 mm 0.00 in0.0 mm
12:27 AM 43.5°F6.4°C 39.6°F4.2°C 86% 5.3 mph NW8.5 kmh NW 5.3 mph8.5 kmh 30.28 in1025.4 mb 0.00 in0.0 mm 0.00 in0.0 mm 0.00 in0.0 mm
12:28 AM 43.7°F6.5°C 40.1°F4.5°C 87% 2.7 mph WNW4.3 kmh WNW 5.3 mph8.5 kmh 30.28 in1025.4 mb 0.00 in0.0 mm 0.00 in0.0 mm 0.00 in0.0 mm
12:29 AM 43.7°F6.5°C 39.8°F4.3°C 86% 2.2 mph NW3.5 kmh NW 5.3 mph8.5 kmh 30.28 in1025.4 mb 0.00 in0.0 mm 0.00 in0.0 mm 0.00 in0.0 mm
12:30 AM 43.5°F6.4°C 39.6°F4.2°C 86% 2.2 mph NNW3.5 kmh NNW 5.3 mph8.5 kmh 30.28 in1025.4 mb 0.00 in0.0 mm 0.00 in0.0 mm 0.00 in0.0 mm
12:31 AM 43.5°F6.4°C 39.6°F4.2°C 86% 2.7 mph NNW4.3 kmh NNW 5.3 mph8.5 kmh 30.28 in1025.4 mb 0.00 in0.0 mm 0.00 in0.0 mm 0.00 in0.0 mm
12:32 AM 43.7°F6.5°C 39.8°F4.3°C 86% 1.7 mph NNW2.7 kmh NNW 5.3 mph8.5 kmh 30.28 in1025.4 mb 0.00 in0.0 mm 0.00 in0.0 mm 0.00 in0.0 mm
12:33 AM 43.7°F6.5°C 39.8°F4.3°C 86% 2.7 mph NW4.3 kmh NW 5.3 mph8.5 kmh 30.28 in1025.4 mb 0.00 in0.0 mm 0.00 in0.0 mm 0.00 in0.0 mm
12:34 AM 43.9°F6.6°C 40.3°F4.6°C 87% 2.2 mph NNW3.5 kmh NNW 5.3 mph8.5 kmh 30.28 in1025.4 mb 0.00 in0.0 mm 0.00 in0.0 mm 0.00 in0.0 mm
12:35 AM 43.9°F6.6°C 40.3°F4.6°C 87% 3.2 mph NW5.1 kmh NW 5.3 mph8.5 kmh 30.28 in1025.4 mb 0.00 in0.0 mm 0.00 in0.0 mm 0.00 in0.0 mm
12:36 AM 43.9°F6.6°C 40.0°F4.4°C 86% 4.2 mph NW6.8 kmh NW 5.3 mph8.5 kmh 30.28 in1025.4 mb 0.00 in0.0 mm 0.00 in0.0 mm 0.00 in0.0 mm
12:37 AM 44.1°F6.7°C 40.4°F4.7°C 87% 5.3 mph WNW8.5 kmh WNW 5.3 mph8.5 kmh 30.28 in1025.4 mb 0.00 in0.0 mm 0.00 in0.0 mm 0.00 in0.0 mm
12:38 AM 44.1°F6.7°C 40.4°F4.7°C 87% 1.1 mph NNW1.8 kmh NNW 5.3 mph8.5 kmh 30.28 in1025.4 mb 0.00 in0.0 mm 0.00 in0.0 mm 0.00 in0.0 mm
12:39 AM 43.9°F6.6°C 40.3°F4.6°C 87% 2.2 mph WNW3.5 kmh WNW 5.3 mph8.5 kmh 30.28 in1025.4 mb 0.00 in0.0 mm 0.00 in0.0 mm 0.00 in0.0 mm
12:40 AM 43.9°F6.6°C 40.3°F4.6°C 87% 4.2 mph WNW6.8 kmh WNW 5.3 mph8.5 kmh 30.28 in1025.4 mb 0.00 in0.0 mm 0.00 in0.0 mm 0.00 in0.0 mm
12:41 AM 43.9°F6.6°C 40.3°F4.6°C 87% 2.7 mph WNW4.3 kmh WNW 5.3 mph8.5 kmh 30.28 in1025.4 mb 0.00 in0.0 mm 0.00 in0.0 mm 0.00 in0.0 mm
12:42 AM 43.9°F6.6°C 40.0°F4.4°C 86% 1.7 mph NNW2.7 kmh NNW 5.3 mph8.5 kmh 30.28 in1025.4 mb 0.00 in0.0 mm 0.00 in0.0 mm 0.00 in0.0 mm
12:43 AM 43.7°F6.5°C 39.8°F4.3°C 86% 2.2 mph NNW3.5 kmh NNW 5.3 mph8.5 kmh 30.28 in1025.4 mb 0.00 in0.0 mm 0.00 in0.0 mm 0.00 in0.0 mm
12:44 AM 43.7°F6.5°C 39.8°F4.3°C 86% 3.7 mph NW6.0 kmh NW 5.3 mph8.5 kmh 30.28 in1025.4 mb 0.00 in0.0 mm 0.00 in0.0 mm 0.00 in0.0 mm
12:45 AM 44.1°F6.7°C 40.4°F4.7°C 87% 4.2 mph WNW6.8 kmh WNW 5.3 mph8.5 kmh 30.28 in1025.4 mb 0.00 in0.0 mm 0.00 in0.0 mm 0.00 in0.0 mm
12:46 AM 44.1°F6.7°C 40.4°F4.7°C 87% 3.2 mph NNW5.1 kmh NNW 5.3 mph8.5 kmh 30.28 in1025.4 mb 0.00 in0.0 mm 0.00 in0.0 mm 0.00 in0.0 mm
12:47 AM 44.1°F6.7°C 40.4°F4.7°C 87% 1.7 mph NNW2.7 kmh NNW 4.7 mph7.6 kmh 30.28 in1025.4 mb 0.00 in0.0 mm 0.00 in0.0 mm 0.00 in0.0 mm
12:48 AM 44.1°F6.7°C 40.4°F4.7°C 87% 5.8 mph WNW9.3 kmh WNW 5.8 mph9.3 kmh 30.28 in1025.4 mb 0.00 in0.0 mm 0.00 in0.0 mm 0.00 in0.0 mm
12:49 AM 44.1°F6.7°C 40.4°F4.7°C 87% 6.8 mph NW10.9 kmh NW 7.3 mph11.7 kmh 30.28 in1025.4 mb 0.00 in0.0 mm 0.00 in0.0 mm 0.00 in0.0 mm
12:50 AM 43.9°F6.6°C 40.0°F4.4°C 86% 5.3 mph NW8.5 kmh NW 7.3 mph11.7 kmh 30.28 in1025.4 mb 0.00 in0.0 mm 0.00 in0.0 mm 0.00 in0.0 mm
12:51 AM 44.1°F6.7°C 40.4°F4.7°C 87% 7.8 mph WNW12.6 kmh WNW 7.8 mph12.6 kmh 30.28 in1025.4 mb 0.00 in0.0 mm 0.00 in0.0 mm 0.00 in0.0 mm
12:52 AM 44.1°F6.7°C 40.4°F4.7°C 87% 4.7 mph WNW7.6 kmh WNW 7.8 mph12.6 kmh 30.28 in1025.4 mb 0.00 in0.0 mm 0.00 in0.0 mm 0.00 in0.0 mm
12:53 AM 44.1°F6.7°C 40.4°F4.7°C 87% 4.2 mph WNW6.8 kmh WNW 7.8 mph12.6 kmh 30.28 in1025.4 mb 0.00 in0.0 mm 0.00 in0.0 mm 0.00 in0.0 mm
12:54 AM 44.1°F6.7°C 40.4°F4.7°C 87% 5.8 mph WNW9.3 kmh WNW 7.8 mph12.6 kmh 30.28 in1025.4 mb 0.00 in0.0 mm 0.00 in0.0 mm 0.00 in0.0 mm
12:55 AM 44.2°F6.8°C 40.6°F4.8°C 87% 8.9 mph NW14.3 kmh NW 8.9 mph14.3 kmh 30.28 in1025.4 mb 0.00 in0.0 mm 0.00 in0.0 mm 0.00 in0.0 mm
12:56 AM 44.2°F6.8°C 40.6°F4.8°C 87% 6.8 mph NW10.9 kmh NW 8.9 mph14.3 kmh 30.28 in1025.4 mb 0.00 in0.0 mm 0.00 in0.0 mm 0.00 in0.0 mm
12:57 AM 44.2°F6.8°C 40.6°F4.8°C 87% 7.8 mph NNW12.6 kmh NNW 8.9 mph14.3 kmh 30.28 in1025.4 mb 0.00 in0.0 mm 0.00 in0.0 mm 0.00 in0.0 mm
12:58 AM 44.2°F6.8°C 40.6°F4.8°C 87% 4.2 mph NW6.8 kmh NW 8.9 mph14.3 kmh 30.28 in1025.4 mb 0.00 in0.0 mm 0.00 in0.0 mm 0.00 in0.0 mm
12:59 AM 44.2°F6.8°C 40.6°F4.8°C 87% 7.3 mph NW11.7 kmh NW 8.9 mph14.3 kmh 30.28 in1025.4 mb 0.00 in0.0 mm 0.00 in0.0 mm 0.00 in0.0 mm
01:00 AM 44.2°F6.8°C 40.6°F4.8°C 87% 4.7 mph NW7.6 kmh NW 8.9 mph14.3 kmh 30.28 in1025.4 mb 0.00 in0.0 mm 0.00 in0.0 mm 0.00 in0.0 mm
01:01 AM 44.2°F6.8°C 40.9°F4.9°C 88% 5.8 mph WNW9.3 kmh WNW 8.9 mph14.3 kmh 30.28 in1025.4 mb 0.00 in0.0 mm 0.00 in0.0 mm 0.00 in0.0 mm
01:02 AM 44.1°F6.7°C 40.1°F4.5°C 86% 5.3 mph WNW8.5 kmh WNW 8.9 mph14.3 kmh 30.28 in1025.4 mb 0.00 in0.0 mm 0.00 in0.0 mm 0.00 in0.0 mm
01:03 AM 44.1°F6.7°C 40.4°F4.7°C 87% 5.3 mph NNW8.5 kmh NNW 8.9 mph14.3 kmh 30.28 in1025.4 mb 0.00 in0.0 mm 0.00 in0.0 mm 0.00 in0.0 mm
01:04 AM 44.1°F6.7°C 40.4°F4.7°C 87% 4.7 mph NW7.6 kmh NW 8.9 mph14.3 kmh 30.28 in1025.4 mb 0.00 in0.0 mm 0.00 in0.0 mm 0.00 in0.0 mm
01:05 AM 44.1°F6.7°C 40.4°F4.7°C 87% 2.7 mph NW4.3 kmh NW 8.9 mph14.3 kmh 30.28 in1025.4 mb 0.00 in0.0 mm 0.00 in0.0 mm 0.00 in0.0 mm
01:06 AM 44.1°F6.7°C 40.4°F4.7°C 87% 3.2 mph NNW5.1 kmh NNW 8.3 mph13.4 kmh 30.28 in1025.4 mb 0.00 in0.0 mm 0.00 in0.0 mm 0.00 in0.0 mm
01:07 AM 43.9°F6.6°C 40.0°F4.4°C 86% 2.2 mph NNW3.5 kmh NNW 7.8 mph12.6 kmh 30.28 in1025.4 mb 0.00 in0.0 mm 0.00 in0.0 mm 0.00 in0.0 mm
01:08 AM 43.9°F6.6°C 40.0°F4.4°C 86% 3.2 mph NW5.1 kmh NW 7.3 mph11.7 kmh 30.28 in1025.4 mb 0.00 in0.0 mm 0.00 in0.0 mm 0.00 in0.0 mm
01:09 AM 44.1°F6.7°C 40.4°F4.7°C 87% 4.7 mph WNW7.6 kmh WNW 6.8 mph10.9 kmh 30.28 in1025.4 mb 0.00 in0.0 mm 0.00 in0.0 mm 0.00 in0.0 mm
01:10 AM 44.1°F6.7°C 40.4°F4.7°C 87% 3.7 mph W6.0 kmh W 6.8 mph10.9 kmh 30.28 in1025.4 mb 0.00 in0.0 mm 0.00 in0.0 mm 0.00 in0.0 mm
01:11 AM 44.1°F6.7°C 40.4°F4.7°C 87% 2.7 mph NW4.3 kmh NW 6.8 mph10.9 kmh 30.28 in1025.4 mb 0.00 in0.0 mm 0.00 in0.0 mm 0.00 in0.0 mm
01:12 AM 44.1°F6.7°C 40.4°F4.7°C 87% 4.2 mph NW6.8 kmh NW 6.8 mph10.9 kmh 30.28 in1025.4 mb 0.00 in0.0 mm 0.00 in0.0 mm 0.00 in0.0 mm
01:13 AM 44.1°F6.7°C 40.4°F4.7°C 87% 5.8 mph WNW9.3 kmh WNW 6.8 mph10.9 kmh 30.28 in1025.4 mb 0.00 in0.0 mm 0.00 in0.0 mm 0.00 in0.0 mm
01:14 AM 44.1°F6.7°C 40.4°F4.7°C 87% 6.8 mph NNW10.9 kmh NNW 6.8 mph10.9 kmh 30.28 in1025.4 mb 0.00 in0.0 mm 0.00 in0.0 mm 0.00 in0.0 mm
01:15 AM 44.1°F6.7°C 40.4°F4.7°C 87% 6.3 mph NW10.1 kmh NW 6.8 mph10.9 kmh 30.28 in1025.4 mb 0.00 in0.0 mm 0.00 in0.0 mm 0.00 in0.0 mm
01:16 AM 44.1°F6.7°C 40.4°F4.7°C 87% 6.8 mph NNW10.9 kmh NNW 6.8 mph10.9 kmh 30.28 in1025.4 mb 0.00 in0.0 mm 0.00 in0.0 mm 0.00 in0.0 mm
01:17 AM 44.1°F6.7°C 40.4°F4.7°C 87% 7.3 mph WNW11.7 kmh WNW 7.3 mph11.7 kmh 30.28 in1025.4 mb 0.00 in0.0 mm 0.00 in0.0 mm 0.00 in0.0 mm
01:18 AM 44.2°F6.8°C 40.6°F4.8°C 87% 5.8 mph WNW9.3 kmh WNW 7.3 mph11.7 kmh 30.28 in1025.4 mb 0.00 in0.0 mm 0.00 in0.0 mm 0.00 in0.0 mm
01:19 AM 44.1°F6.7°C 40.4°F4.7°C 87% 7.8 mph W12.6 kmh W 7.8 mph12.6 kmh 30.28 in1025.4 mb 0.00 in0.0 mm 0.00 in0.0 mm 0.00 in0.0 mm
01:20 AM 44.1°F6.7°C 40.4°F4.7°C 87% 3.7 mph WNW6.0 kmh WNW 7.8 mph12.6 kmh 30.28 in1025.4 mb 0.00 in0.0 mm 0.00 in0.0 mm 0.00 in0.0 mm
01:21 AM 44.1°F6.7°C 40.1°F4.5°C 86% 5.8 mph WNW9.3 kmh WNW 7.8 mph12.6 kmh 30.28 in1025.4 mb 0.00 in0.0 mm 0.00 in0.0 mm 0.00 in0.0 mm
01:22 AM 44.1°F6.7°C 40.1°F4.5°C 86% 4.2 mph WNW6.8 kmh WNW 7.8 mph12.6 kmh 30.28 in1025.4 mb 0.00 in0.0 mm 0.00 in0.0 mm 0.00 in0.0 mm
01:23 AM 44.2°F6.8°C 40.9°F4.9°C 88% 7.8 mph WNW12.6 kmh WNW 7.8 mph12.6 kmh 30.28 in1025.4 mb 0.00 in0.0 mm 0.00 in0.0 mm 0.00 in0.0 mm
01:24 AM 44.2°F6.8°C 40.6°F4.8°C 87% 4.7 mph WNW7.6 kmh WNW 7.8 mph12.6 kmh 30.28 in1025.4 mb 0.00 in0.0 mm 0.00 in0.0 mm 0.00 in0.0 mm
01:25 AM 44.2°F6.8°C 40.6°F4.8°C 87% 5.3 mph WNW8.5 kmh WNW 7.8 mph12.6 kmh 30.28 in1025.4 mb 0.00 in0.0 mm 0.00 in0.0 mm 0.00 in0.0 mm
01:26 AM 44.2°F6.8°C 40.3°F4.6°C 86% 6.3 mph WNW10.1 kmh WNW 7.8 mph12.6 kmh 30.28 in1025.4 mb 0.00 in0.0 mm 0.00 in0.0 mm 0.00 in0.0 mm
01:27 AM 44.2°F6.8°C 40.3°F4.6°C 86% 7.3 mph NW11.7 kmh NW 7.8 mph12.6 kmh 30.28 in1025.4 mb 0.00 in0.0 mm 0.00 in0.0 mm 0.00 in0.0 mm
01:28 AM 44.4°F6.9°C 40.8°F4.9°C 87% 7.8 mph NW12.6 kmh NW 7.8 mph12.6 kmh 30.29 in1025.7 mb 0.00 in0.0 mm 0.00 in0.0 mm 0.00 in0.0 mm
01:29 AM 44.4°F6.9°C 40.8°F4.9°C 87% 5.3 mph NW8.5 kmh NW 7.8 mph12.6 kmh 30.29 in1025.7 mb 0.00 in0.0 mm 0.00 in0.0 mm 0.00 in0.0 mm
01:30 AM 44.2°F6.8°C 40.6°F4.8°C 87% 6.3 mph NW10.1 kmh NW 8.3 mph13.4 kmh 30.29 in1025.7 mb 0.00 in0.0 mm 0.00 in0.0 mm 0.00 in0.0 mm
01:31 AM 44.1°F6.7°C 40.1°F4.5°C 86% 6.8 mph NNW10.9 kmh NNW 8.3 mph13.4 kmh 30.29 in1025.7 mb 0.00 in0.0 mm 0.00 in0.0 mm 0.00 in0.0 mm
01:32 AM 44.1°F6.7°C 40.1°F4.5°C 86% 5.3 mph NNW8.5 kmh NNW 8.3 mph13.4 kmh 30.29 in1025.7 mb 0.00 in0.0 mm 0.00 in0.0 mm 0.00 in0.0 mm
01:33 AM 44.1°F6.7°C 40.1°F4.5°C 86% 6.8 mph NW10.9 kmh NW 8.3 mph13.4 kmh 30.29 in1025.7 mb 0.00 in0.0 mm 0.00 in0.0 mm 0.00 in0.0 mm
01:34 AM 44.1°F6.7°C 40.1°F4.5°C 86% 3.7 mph NNW6.0 kmh NNW 8.3 mph13.4 kmh 30.29 in1025.7 mb 0.00 in0.0 mm 0.00 in0.0 mm 0.00 in0.0 mm
01:35 AM 44.1°F6.7°C 40.1°F4.5°C 86% 3.7 mph NNW6.0 kmh NNW 8.3 mph13.4 kmh 30.29 in1025.7 mb 0.00 in0.0 mm 0.00 in0.0 mm 0.00 in0.0 mm
01:36 AM 44.1°F6.7°C 40.1°F4.5°C 86% 3.7 mph NNW6.0 kmh NNW 8.3 mph13.4 kmh 30.29 in1025.7 mb 0.00 in0.0 mm 0.00 in0.0 mm 0.00 in0.0 mm
01:37 AM 43.9°F6.6°C 40.0°F4.4°C 86% 5.3 mph WNW8.5 kmh WNW 8.3 mph13.4 kmh 30.29 in1025.7 mb 0.00 in0.0 mm 0.00 in0.0 mm 0.00 in0.0 mm
01:38 AM 44.1°F6.7°C 40.1°F4.5°C 86% 4.7 mph NW7.6 kmh NW 8.3 mph13.4 kmh 30.29 in1025.7 mb 0.00 in0.0 mm 0.00 in0.0 mm 0.00 in0.0 mm
01:39 AM 43.9°F6.6°C 40.0°F4.4°C 86% 3.2 mph NW5.1 kmh NW 8.3 mph13.4 kmh 30.29 in1025.7 mb 0.00 in0.0 mm 0.00 in0.0 mm 0.00 in0.0 mm
01:40 AM 43.9°F6.6°C 40.3°F4.6°C 87% 6.3 mph NW10.1 kmh NW 7.3 mph11.7 kmh 30.29 in1025.7 mb 0.00 in0.0 mm 0.00 in0.0 mm 0.00 in0.0 mm
01:41 AM 43.9°F6.6°C 40.0°F4.4°C 86% 4.7 mph NNW7.6 kmh NNW 7.3 mph11.7 kmh 30.29 in1025.7 mb 0.00 in0.0 mm 0.00 in0.0 mm 0.00 in0.0 mm
01:42 AM 43.9°F6.6°C 40.0°F4.4°C 86% 4.2 mph NNW6.8 kmh NNW 7.3 mph11.7 kmh 30.29 in1025.7 mb 0.00 in0.0 mm 0.00 in0.0 mm 0.00 in0.0 mm
01:43 AM 44.1°F6.7°C 40.1°F4.5°C 86% 2.7 mph WNW4.3 kmh WNW 7.3 mph11.7 kmh 30.29 in1025.7 mb 0.00 in0.0 mm 0.00 in0.0 mm 0.00 in0.0 mm
01:44 AM 44.1°F6.7°C 40.1°F4.5°C 86% 6.3 mph WNW10.1 kmh WNW 6.3 mph10.1 kmh 30.29 in1025.7 mb 0.00 in0.0 mm 0.00 in0.0 mm 0.00 in0.0 mm
01:45 AM 44.2°F6.8°C 40.6°F4.8°C 87% 6.3 mph NW10.1 kmh NW 6.3 mph10.1 kmh 30.29 in1025.7 mb 0.00 in0.0 mm 0.00 in0.0 mm 0.00 in0.0 mm
01:46 AM 44.2°F6.8°C 40.6°F4.8°C 87% 8.3 mph NW13.4 kmh NW 8.3 mph13.4 kmh 30.29 in1025.7 mb 0.00 in0.0 mm 0.00 in0.0 mm 0.00 in0.0 mm
01:47 AM 44.2°F6.8°C 40.6°F4.8°C 87% 5.8 mph WNW9.3 kmh WNW 8.3 mph13.4 kmh 30.29 in1025.7 mb 0.00 in0.0 mm 0.00 in0.0 mm 0.00 in0.0 mm
01:48 AM 44.1°F6.7°C 40.1°F4.5°C 86% 3.7 mph WNW6.0 kmh WNW 8.3 mph13.4 kmh 30.29 in1025.7 mb 0.00 in0.0 mm 0.00 in0.0 mm 0.00 in0.0 mm
01:49 AM 44.1°F6.7°C 40.1°F4.5°C 86% 5.3 mph WNW8.5 kmh WNW 8.3 mph13.4 kmh 30.29 in1025.7 mb 0.00 in0.0 mm 0.00 in0.0 mm 0.00 in0.0 mm
01:50 AM 44.1°F6.7°C 40.1°F4.5°C 86% 6.3 mph NW10.1 kmh NW 8.3 mph13.4 kmh 30.29 in1025.7 mb 0.00 in0.0 mm 0.00 in0.0 mm 0.00 in0.0 mm
01:51 AM 44.2°F6.8°C 40.6°F4.8°C 87% 6.8 mph WNW10.9 kmh WNW 8.3 mph13.4 kmh 30.29 in1025.7 mb 0.00 in0.0 mm 0.00 in0.0 mm 0.00 in0.0 mm
01:52 AM 44.2°F6.8°C 40.3°F4.6°C 86% 8.3 mph NW13.4 kmh NW 8.3 mph13.4 kmh 30.29 in1025.7 mb 0.00 in0.0 mm 0.00 in0.0 mm 0.00 in0.0 mm
01:53 AM 44.2°F6.8°C 40.3°F4.6°C 86% 5.8 mph NW9.3 kmh NW 8.3 mph13.4 kmh 30.29 in1025.7 mb 0.00 in0.0 mm 0.00 in0.0 mm 0.00 in0.0 mm
01:54 AM 44.1°F6.7°C 40.1°F4.5°C 86% 3.7 mph N6.0 kmh N 8.3 mph13.4 kmh 30.29 in1025.7 mb 0.00 in0.0 mm 0.00 in0.0 mm 0.00 in0.0 mm
01:55 AM 44.1°F6.7°C 40.1°F4.5°C 86% 2.7 mph NNW4.3 kmh NNW 8.3 mph13.4 kmh 30.29 in1025.7 mb 0.00 in0.0 mm 0.00 in0.0 mm 0.00 in0.0 mm
01:56 AM 44.1°F6.7°C 40.1°F4.5°C 86% 2.2 mph NNW3.5 kmh NNW 8.3 mph13.4 kmh 30.29 in1025.7 mb 0.00 in0.0 mm 0.00 in0.0 mm 0.00 in0.0 mm
01:57 AM 43.9°F6.6°C 40.0°F4.4°C 86% 5.3 mph NNW8.5 kmh NNW 8.3 mph13.4 kmh 30.29 in1025.7 mb 0.00 in0.0 mm 0.00 in0.0 mm 0.00 in0.0 mm
01:58 AM 43.9°F6.6°C 39.7°F4.3°C 85% 2.7 mph NNW4.3 kmh NNW 8.3 mph13.4 kmh 30.29 in1025.7 mb 0.00 in0.0 mm 0.00 in0.0 mm 0.00 in0.0 mm
01:59 AM 43.9°F6.6°C 40.0°F4.4°C 86% 4.2 mph NNW6.8 kmh NNW 8.3 mph13.4 kmh 30.29 in1025.7 mb 0.00 in0.0 mm 0.00 in0.0 mm 0.00 in0.0 mm
02:00 AM 44.1°F6.7°C 40.4°F4.7°C 87% 4.2 mph W6.8 kmh W 8.3 mph13.4 kmh 30.29 in1025.7 mb 0.00 in0.0 mm 0.00 in0.0 mm 0.00 in0.0 mm
02:01 AM 44.2°F6.8°C 40.6°F4.8°C 87% 4.2 mph WNW6.8 kmh WNW 8.3 mph13.4 kmh 30.29 in1025.7 mb 0.00 in0.0 mm 0.00 in0.0 mm 0.00 in0.0 mm
02:02 AM 44.2°F6.8°C 40.6°F4.8°C 87% 5.3 mph WNW8.5 kmh WNW 8.3 mph13.4 kmh 30.29 in1025.7 mb 0.00 in0.0 mm 0.00 in0.0 mm 0.00 in0.0 mm
02:03 AM 44.2°F6.8°C 40.6°F4.8°C 87% 7.3 mph NW11.7 kmh NW 7.3 mph11.7 kmh 30.29 in1025.7 mb 0.00 in0.0 mm 0.00 in0.0 mm 0.00 in0.0 mm
02:04 AM 44.2°F6.8°C 40.6°F4.8°C 87% 4.2 mph NW6.8 kmh NW 7.3 mph11.7 kmh 30.29 in1025.7 mb 0.00 in0.0 mm 0.00 in0.0 mm 0.00 in0.0 mm
02:05 AM 44.2°F6.8°C 40.3°F4.6°C 86% 5.3 mph NNW8.5 kmh NNW 7.3 mph11.7 kmh 30.29 in1025.7 mb 0.00 in0.0 mm 0.00 in0.0 mm 0.00 in0.0 mm
02:06 AM 44.2°F6.8°C 40.0°F4.4°C 85% 3.2 mph NNW5.1 kmh NNW 7.3 mph11.7 kmh 30.29 in1025.7 mb 0.00 in0.0 mm 0.00 in0.0 mm 0.00 in0.0 mm
02:07 AM 44.1°F6.7°C 39.8°F4.3°C 85% 2.7 mph NNW4.3 kmh NNW 7.3 mph11.7 kmh 30.29 in1025.7 mb 0.00 in0.0 mm 0.00 in0.0 mm 0.00 in0.0 mm
02:08 AM 44.1°F6.7°C 39.8°F4.3°C 85% 1.7 mph NNW2.7 kmh NNW 7.3 mph11.7 kmh 30.29 in1025.7 mb 0.00 in0.0 mm 0.00 in0.0 mm 0.00 in0.0 mm
02:09 AM 44.1°F6.7°C 39.8°F4.3°C 85% 6.8 mph NW10.9 kmh NW 7.3 mph11.7 kmh 30.29 in1025.7 mb 0.00 in0.0 mm 0.00 in0.0 mm 0.00 in0.0 mm
02:10 AM 44.2°F6.8°C 40.3°F4.6°C 86% 6.3 mph WNW10.1 kmh WNW 7.3 mph11.7 kmh 30.29 in1025.7 mb 0.00 in0.0 mm 0.00 in0.0 mm 0.00 in0.0 mm
02:11 AM 44.4°F6.9°C 40.8°F4.9°C 87% 4.7 mph NW7.6 kmh NW 7.3 mph11.7 kmh 30.29 in1025.7 mb 0.00 in0.0 mm 0.00 in0.0 mm 0.00 in0.0 mm
02:12 AM 44.4°F6.9°C 40.8°F4.9°C 87% 4.7 mph NW7.6 kmh NW 7.3 mph11.7 kmh 30.29 in1025.7 mb 0.00 in0.0 mm 0.00 in0.0 mm 0.00 in0.0 mm
02:13 AM 44.4°F6.9°C 40.5°F4.7°C 86% 3.2 mph NW5.1 kmh NW 7.3 mph11.7 kmh 30.29 in1025.7 mb 0.00 in0.0 mm 0.00 in0.0 mm 0.00 in0.0 mm
02:14 AM 44.4°F6.9°C 40.5°F4.7°C 86% 3.7 mph WNW6.0 kmh WNW 7.3 mph11.7 kmh 30.29 in1025.7 mb 0.00 in0.0 mm 0.00 in0.0 mm 0.00 in0.0 mm
02:15 AM 44.2°F6.8°C 40.3°F4.6°C 86% 1.7 mph NW2.7 kmh NW 7.3 mph11.7 kmh 30.29 in1025.7 mb 0.00 in0.0 mm 0.00 in0.0 mm 0.00 in0.0 mm
02:16 AM 44.1°F6.7°C 39.8°F4.3°C 85% 1.7 mph NW2.7 kmh NW 7.3 mph11.7 kmh 30.29 in1025.7 mb 0.00 in0.0 mm 0.00 in0.0 mm 0.00 in0.0 mm
02:17 AM 44.1°F6.7°C 39.8°F4.3°C 85% 3.2 mph NW5.1 kmh NW 7.3 mph11.7 kmh 30.29 in1025.7 mb 0.00 in0.0 mm 0.00 in0.0 mm 0.00 in0.0 mm
02:18 AM 44.1°F6.7°C 39.8°F4.3°C 85% 5.3 mph WNW8.5 kmh WNW 7.3 mph11.7 kmh 30.29 in1025.7 mb 0.00 in0.0 mm 0.00 in0.0 mm 0.00 in0.0 mm
02:19 AM 44.1°F6.7°C 39.8°F4.3°C 85% 5.3 mph WNW8.5 kmh WNW 7.3 mph11.7 kmh 30.29 in1025.7 mb 0.00 in0.0 mm 0.00 in0.0 mm 0.00 in0.0 mm
02:20 AM 44.1°F6.7°C 39.8°F4.3°C 85% 6.3 mph WNW10.1 kmh WNW 7.8 mph12.6 kmh 30.29 in1025.7 mb 0.00 in0.0 mm 0.00 in0.0 mm 0.00 in0.0 mm
02:21 AM 44.2°F6.8°C 40.3°F4.6°C 86% 6.8 mph NW10.9 kmh NW 8.3 mph13.4 kmh 30.29 in1025.7 mb 0.00 in0.0 mm 0.00 in0.0 mm 0.00 in0.0 mm
02:22 AM 44.2°F6.8°C 40.3°F4.6°C 86% 8.3 mph NW13.4 kmh NW 8.3 mph13.4 kmh 30.29 in1025.7 mb 0.00 in0.0 mm 0.00 in0.0 mm 0.00 in0.0 mm
02:23 AM 44.2°F6.8°C 40.0°F4.4°C 85% 1.7 mph NNW2.7 kmh NNW 8.3 mph13.4 kmh 30.29 in1025.7 mb 0.00 in0.0 mm 0.00 in0.0 mm 0.00 in0.0 mm
02:24 AM 44.2°F6.8°C 40.0°F4.4°C 85% 4.7 mph NNW7.6 kmh NNW 8.3 mph13.4 kmh 30.29 in1025.7 mb 0.00 in0.0 mm 0.00 in0.0 mm 0.00 in0.0 mm
02:25 AM 44.1°F6.7°C 39.8°F4.3°C 85% 3.2 mph NNW5.1 kmh NNW 8.3 mph13.4 kmh 30.29 in1025.7 mb 0.00 in0.0 mm 0.00 in0.0 mm 0.00 in0.0 mm
02:26 AM 44.1°F6.7°C 39.8°F4.3°C 85% 3.2 mph NNW5.1 kmh NNW 8.3 mph13.4 kmh 30.29 in1025.7 mb 0.00 in0.0 mm 0.00 in0.0 mm 0.00 in0.0 mm
02:27 AM 44.1°F6.7°C 39.8°F4.3°C 85% 2.2 mph NW3.5 kmh NW 8.3 mph13.4 kmh 30.29 in1025.7 mb 0.00 in0.0 mm 0.00 in0.0 mm 0.00 in0.0 mm
02:28 AM 44.1°F6.7°C 39.8°F4.3°C 85% 2.2 mph NNW3.5 kmh NNW 8.3 mph13.4 kmh 30.29 in1025.7 mb 0.00 in0.0 mm 0.00 in0.0 mm 0.00 in0.0 mm
02:29 AM 43.9°F6.6°C 39.7°F4.3°C 85% 2.2 mph N3.5 kmh N 8.3 mph13.4 kmh 30.29 in1025.7 mb 0.00 in0.0 mm 0.00 in0.0 mm 0.00 in0.0 mm
02:30 AM 43.9°F6.6°C 39.7°F4.3°C 85% 5.3 mph NNW8.5 kmh NNW 8.3 mph13.4 kmh 30.29 in1025.7 mb 0.00 in0.0 mm 0.00 in0.0 mm 0.00 in0.0 mm
02:31 AM 43.9°F6.6°C 39.7°F4.3°C 85% 2.2 mph NNW3.5 kmh NNW 8.3 mph13.4 kmh 30.29 in1025.7 mb 0.00 in0.0 mm 0.00 in0.0 mm 0.00 in0.0 mm
02:32 AM 43.7°F6.5°C 39.2°F4.0°C 84% 3.2 mph NNW5.1 kmh NNW 8.3 mph13.4 kmh 30.29 in1025.7 mb 0.00 in0.0 mm 0.00 in0.0 mm 0.00 in0.0 mm
02:33 AM 43.7°F6.5°C 39.2°F4.0°C 84% 3.7 mph NW6.0 kmh NW 5.8 mph9.3 kmh 30.29 in1025.7 mb 0.00 in0.0 mm 0.00 in0.0 mm 0.00 in0.0 mm
02:34 AM 43.7°F6.5°C 39.2°F4.0°C 84% 3.2 mph NNW5.1 kmh NNW 5.8 mph9.3 kmh 30.29 in1025.7 mb 0.00 in0.0 mm 0.00 in0.0 mm 0.00 in0.0 mm
02:35 AM 43.7°F6.5°C 39.2°F4.0°C 84% 1.7 mph N2.7 kmh N 5.8 mph9.3 kmh 30.29 in1025.7 mb 0.00 in0.0 mm 0.00 in0.0 mm 0.00 in0.0 mm
02:36 AM 43.5°F6.4°C 39.0°F3.9°C 84% 4.7 mph NW7.6 kmh NW 5.8 mph9.3 kmh 30.29 in1025.7 mb 0.00 in0.0 mm 0.00 in0.0 mm 0.00 in0.0 mm
02:37 AM 43.5°F6.4°C 39.0°F3.9°C 84% 4.7 mph NNW7.6 kmh NNW 5.3 mph8.5 kmh 30.29 in1025.7 mb 0.00 in0.0 mm 0.00 in0.0 mm 0.00 in0.0 mm
02:38 AM 43.5°F6.4°C 39.0°F3.9°C 84% 2.2 mph NNW3.5 kmh NNW 5.3 mph8.5 kmh 30.29 in1025.7 mb 0.00 in0.0 mm 0.00 in0.0 mm 0.00 in0.0 mm
02:39 AM 43.5°F6.4°C 39.0°F3.9°C 84% 2.2 mph N3.5 kmh N 5.3 mph8.5 kmh 30.29 in1025.7 mb 0.00 in0.0 mm 0.00 in0.0 mm 0.00 in0.0 mm
02:40 AM 43.5°F6.4°C 39.3°F4.1°C 85% 3.7 mph NW6.0 kmh NW 5.3 mph8.5 kmh 30.29 in1025.7 mb 0.00 in0.0 mm 0.00 in0.0 mm 0.00 in0.0 mm
02:41 AM 43.5°F6.4°C 39.0°F3.9°C 84% 4.7 mph NW7.6 kmh NW 4.7 mph7.6 kmh 30.29 in1025.7 mb 0.00 in0.0 mm 0.00 in0.0 mm 0.00 in0.0 mm
02:42 AM 43.5°F6.4°C 39.0°F3.9°C 84% 2.2 mph NNW3.5 kmh NNW 4.7 mph7.6 kmh 30.29 in1025.7 mb 0.00 in0.0 mm 0.00 in0.0 mm 0.00 in0.0 mm
02:43 AM 43.5°F6.4°C 39.0°F3.9°C 84% 2.7 mph NW4.3 kmh NW 4.7 mph7.6 kmh 30.29 in1025.7 mb 0.00 in0.0 mm 0.00 in0.0 mm 0.00 in0.0 mm
02:44 AM 43.5°F6.4°C 39.0°F3.9°C 84% 2.7 mph NNW4.3 kmh NNW 4.7 mph7.6 kmh 30.29 in1025.7 mb 0.00 in0.0 mm 0.00 in0.0 mm 0.00 in0.0 mm
02:45 AM 43.5°F6.4°C 39.3°F4.1°C 85% 5.8 mph NW9.3 kmh NW 5.8 mph9.3 kmh 30.29 in1025.7 mb 0.00 in0.0 mm 0.00 in0.0 mm 0.00 in0.0 mm
02:46 AM 43.5°F6.4°C 39.3°F4.1°C 85% 2.2 mph NNW3.5 kmh NNW 5.8 mph9.3 kmh 30.29 in1025.7 mb 0.00 in0.0 mm 0.00 in0.0 mm 0.00 in0.0 mm
02:47 AM 43.5°F6.4°C 39.3°F4.1°C 85% 1.7 mph N2.7 kmh N 5.8 mph9.3 kmh 30.29 in1025.7 mb 0.00 in0.0 mm 0.00 in0.0 mm 0.00 in0.0 mm
02:48 AM 43.5°F6.4°C 39.0°F3.9°C 84% 3.2 mph NW5.1 kmh NW 5.8 mph9.3 kmh 30.29 in1025.7 mb 0.00 in0.0 mm 0.00 in0.0 mm 0.00 in0.0 mm
02:49 AM 43.5°F6.4°C 39.3°F4.1°C 85% 4.2 mph NNW6.8 kmh NNW 5.8 mph9.3 kmh 30.29 in1025.7 mb 0.00 in0.0 mm 0.00 in0.0 mm 0.00 in0.0 mm
02:50 AM 43.7°F6.5°C 39.8°F4.3°C 86% 4.7 mph NNW7.6 kmh NNW 5.8 mph9.3 kmh 30.29 in1025.7 mb 0.00 in0.0 mm 0.00 in0.0 mm 0.00 in0.0 mm
02:51 AM 43.9°F6.6°C 40.0°F4.4°C 86% 4.2 mph WNW6.8 kmh WNW 5.8 mph9.3 kmh 30.30 in1026.1 mb 0.00 in0.0 mm 0.00 in0.0 mm 0.00 in0.0 mm
02:52 AM 43.9°F6.6°C 40.0°F4.4°C 86% 2.2 mph NW3.5 kmh NW 5.8 mph9.3 kmh 30.30 in1026.1 mb 0.00 in0.0 mm 0.00 in0.0 mm 0.00 in0.0 mm
02:53 AM 43.9°F6.6°C 40.0°F4.4°C 86% 3.7 mph NW6.0 kmh NW 5.8 mph9.3 kmh 30.30 in1026.1 mb 0.00 in0.0 mm 0.00 in0.0 mm 0.00 in0.0 mm
02:54 AM 43.9°F6.6°C 40.0°F4.4°C 86% 4.7 mph WNW7.6 kmh WNW 5.8 mph9.3 kmh 30.30 in1026.1 mb 0.00 in0.0 mm 0.00 in0.0 mm 0.00 in0.0 mm
02:55 AM 43.9°F6.6°C 40.0°F4.4°C 86% 6.8 mph WNW10.9 kmh WNW 6.8 mph10.9 kmh 30.30 in1026.1 mb 0.00 in0.0 mm 0.00 in0.0 mm 0.00 in0.0 mm
02:56 AM 44.1°F6.7°C 40.1°F4.5°C 86% 6.8 mph WNW10.9 kmh WNW 6.8 mph10.9 kmh 30.30 in1026.1 mb 0.00 in0.0 mm 0.00 in0.0 mm 0.00 in0.0 mm
02:57 AM 44.1°F6.7°C 40.1°F4.5°C 86% 5.3 mph NW8.5 kmh NW 7.3 mph11.7 kmh 30.30 in1026.1 mb 0.00 in0.0 mm 0.00 in0.0 mm 0.00 in0.0 mm
02:58 AM 44.1°F6.7°C 40.1°F4.5°C 86% 9.4 mph NW15.1 kmh NW 9.4 mph15.1 kmh 30.30 in1026.1 mb 0.00 in0.0 mm 0.00 in0.0 mm 0.00 in0.0 mm
02:59 AM 43.9°F6.6°C 39.7°F4.3°C 85% 4.2 mph NNW6.8 kmh NNW 9.4 mph15.1 kmh 30.30 in1026.1 mb 0.00 in0.0 mm 0.00 in0.0 mm 0.00 in0.0 mm
03:00 AM 43.9°F6.6°C 40.0°F4.4°C 86% 4.7 mph WNW7.6 kmh WNW 9.4 mph15.1 kmh 30.30 in1026.1 mb 0.00 in0.0 mm 0.00 in0.0 mm 0.00 in0.0 mm
03:01 AM 43.9°F6.6°C 40.0°F4.4°C 86% 4.2 mph NW6.8 kmh NW 9.4 mph15.1 kmh 30.30 in1026.1 mb 0.00 in0.0 mm 0.00 in0.0 mm 0.00 in0.0 mm
03:02 AM 43.9°F6.6°C 39.7°F4.3°C 85% 1.7 mph NW2.7 kmh NW 9.4 mph15.1 kmh 30.30 in1026.1 mb 0.00 in0.0 mm 0.00 in0.0 mm 0.00 in0.0 mm
03:03 AM 43.9°F6.6°C 40.0°F4.4°C 86% 8.9 mph WNW14.3 kmh WNW 9.4 mph15.1 kmh 30.30 in1026.1 mb 0.00 in0.0 mm 0.00 in0.0 mm 0.00 in0.0 mm
03:04 AM 43.9°F6.6°C 40.0°F4.4°C 86% 8.9 mph NW14.3 kmh NW 9.4 mph15.1 kmh 30.30 in1026.1 mb 0.00 in0.0 mm 0.00 in0.0 mm 0.00 in0.0 mm
03:05 AM 43.9°F6.6°C 40.0°F4.4°C 86% 7.3 mph WNW11.7 kmh WNW 10.9 mph17.5 kmh 30.30 in1026.1 mb 0.00 in0.0 mm 0.00 in0.0 mm 0.00 in0.0 mm
03:06 AM 43.9°F6.6°C 40.0°F4.4°C 86% 7.8 mph NNW12.6 kmh NNW 10.9 mph17.5 kmh 30.30 in1026.1 mb 0.00 in0.0 mm 0.00 in0.0 mm 0.00 in0.0 mm
03:07 AM 43.9°F6.6°C 40.0°F4.4°C 86% 5.3 mph WNW8.5 kmh WNW 10.9 mph17.5 kmh 30.30 in1026.1 mb 0.00 in0.0 mm 0.00 in0.0 mm 0.00 in0.0 mm
03:08 AM 43.7°F6.5°C 39.8°F4.3°C 86% 4.7 mph NNW7.6 kmh NNW 10.9 mph17.5 kmh 30.30 in1026.1 mb 0.00 in0.0 mm 0.00 in0.0 mm 0.00 in0.0 mm
03:09 AM 43.7°F6.5°C 39.8°F4.3°C 86% 5.8 mph NNW9.3 kmh NNW 10.9 mph17.5 kmh 30.30 in1026.1 mb 0.00 in0.0 mm 0.00 in0.0 mm 0.00 in0.0 mm
03:10 AM 43.5°F6.4°C 39.6°F4.2°C 86% 2.7 mph NNW4.3 kmh NNW 10.9 mph17.5 kmh 30.30 in1026.1 mb 0.00 in0.0 mm 0.00 in0.0 mm 0.00 in0.0 mm
03:11 AM 43.5°F6.4°C 39.3°F4.1°C 85% 5.3 mph NNW8.5 kmh NNW 10.9 mph17.5 kmh 30.30 in1026.1 mb 0.00 in0.0 mm 0.00 in0.0 mm 0.00 in0.0 mm
03:12 AM 43.5°F6.4°C 39.3°F4.1°C 85% 2.7 mph NW4.3 kmh NW 10.9 mph17.5 kmh 30.30 in1026.1 mb 0.00 in0.0 mm 0.00 in0.0 mm 0.00 in0.0 mm
03:13 AM 43.3°F6.3°C 39.1°F3.9°C 85% 2.2 mph NW3.5 kmh NW 10.9 mph17.5 kmh 30.30 in1026.1 mb 0.00 in0.0 mm 0.00 in0.0 mm 0.00 in0.0 mm
03:14 AM 43.3°F6.3°C 39.1°F3.9°C 85% 3.2 mph NNW5.1 kmh NNW 10.9 mph17.5 kmh 30.30 in1026.1 mb 0.00 in0.0 mm 0.00 in0.0 mm 0.00 in0.0 mm
03:15 AM 43.3°F6.3°C 39.1°F3.9°C 85% 2.7 mph NW4.3 kmh NW 8.9 mph14.3 kmh 30.30 in1026.1 mb 0.00 in0.0 mm 0.00 in0.0 mm 0.00 in0.0 mm
03:16 AM 43.2°F6.2°C 39.0°F3.9°C 85% 2.2 mph W3.5 kmh W 8.9 mph14.3 kmh 30.30 in1026.1 mb 0.00 in0.0 mm 0.00 in0.0 mm 0.00 in0.0 mm
03:17 AM 43.2°F6.2°C 39.0°F3.9°C 85% 4.7 mph NNW7.6 kmh NNW 8.3 mph13.4 kmh 30.30 in1026.1 mb 0.00 in0.0 mm 0.00 in0.0 mm 0.00 in0.0 mm
03:18 AM 43.2°F6.2°C 39.3°F4.1°C 86% 2.7 mph NNE4.3 kmh NNE 8.3 mph13.4 kmh 30.30 in1026.1 mb 0.00 in0.0 mm 0.00 in0.0 mm 0.00 in0.0 mm
03:19 AM 43.2°F6.2°C 39.3°F4.1°C 86% 5.8 mph NW9.3 kmh NW 7.8 mph12.6 kmh 30.30 in1026.1 mb 0.00 in0.0 mm 0.00 in0.0 mm 0.00 in0.0 mm
03:20 AM 43.3°F6.3°C 39.4°F4.1°C 86% 6.8 mph W10.9 kmh W 7.8 mph12.6 kmh 30.30 in1026.1 mb 0.00 in0.0 mm 0.00 in0.0 mm 0.00 in0.0 mm
03:21 AM 43.2°F6.2°C 39.3°F4.1°C 86% 2.7 mph NNW4.3 kmh NNW 7.8 mph12.6 kmh 30.30 in1026.1 mb 0.00 in0.0 mm 0.00 in0.0 mm 0.00 in0.0 mm
03:22 AM 43.2°F6.2°C 39.3°F4.1°C 86% 2.2 mph NNW3.5 kmh NNW 7.8 mph12.6 kmh 30.30 in1026.1 mb 0.00 in0.0 mm 0.00 in0.0 mm 0.00 in0.0 mm
03:23 AM 43.2°F6.2°C 39.3°F4.1°C 86% 6.3 mph NNW10.1 kmh NNW 7.8 mph12.6 kmh 30.30 in1026.1 mb 0.00 in0.0 mm 0.00 in0.0 mm 0.00 in0.0 mm
03:24 AM 43.2°F6.2°C 39.3°F4.1°C 86% 5.8 mph NNW9.3 kmh NNW 7.8 mph12.6 kmh 30.30 in1026.1 mb 0.00 in0.0 mm 0.00 in0.0 mm 0.00 in0.0 mm
03:25 AM 43.5°F6.4°C 39.6°F4.2°C 86% 2.2 mph NNW3.5 kmh NNW 9.9 mph15.9 kmh 30.30 in1026.1 mb 0.00 in0.0 mm 0.00 in0.0 mm 0.00 in0.0 mm
03:26 AM 43.5°F6.4°C 39.6°F4.2°C 86% 1.7 mph NE2.7 kmh NE 9.9 mph15.9 kmh 30.30 in1026.1 mb 0.00 in0.0 mm 0.00 in0.0 mm 0.00 in0.0 mm
03:27 AM 43.3°F6.3°C 39.4°F4.1°C 86% 2.7 mph NNW4.3 kmh NNW 9.9 mph15.9 kmh 30.30 in1026.1 mb 0.00 in0.0 mm 0.00 in0.0 mm 0.00 in0.0 mm
03:28 AM 43.2°F6.2°C 39.0°F3.9°C 85% 5.8 mph NNW9.3 kmh NNW 9.9 mph15.9 kmh 30.30 in1026.1 mb 0.00 in0.0 mm 0.00 in0.0 mm 0.00 in0.0 mm
03:29 AM 43.2°F6.2°C 39.3°F4.1°C 86% 4.2 mph NW6.8 kmh NW 9.9 mph15.9 kmh 30.30 in1026.1 mb 0.00 in0.0 mm 0.00 in0.0 mm 0.00 in0.0 mm
03:30 AM 43.3°F6.3°C 39.4°F4.1°C 86% 4.7 mph NNW7.6 kmh NNW 9.9 mph15.9 kmh 30.30 in1026.1 mb 0.00 in0.0 mm 0.00 in0.0 mm 0.00 in0.0 mm
03:31 AM 43.2°F6.2°C 39.3°F4.1°C 86% 4.2 mph NNW6.8 kmh NNW 9.9 mph15.9 kmh 30.30 in1026.1 mb 0.00 in0.0 mm 0.00 in0.0 mm 0.00 in0.0 mm
03:32 AM 43.2°F6.2°C 39.3°F4.1°C 86% 6.8 mph WNW10.9 kmh WNW 9.9 mph15.9 kmh 30.30 in1026.1 mb 0.00 in0.0 mm 0.00 in0.0 mm 0.00 in0.0 mm
03:33 AM 43.3°F6.3°C 39.4°F4.1°C 86% 10.9 mph N17.5 kmh N 10.9 mph17.5 kmh 30.30 in1026.1 mb 0.00 in0.0 mm 0.00 in0.0 mm 0.00 in0.0 mm
03:34 AM 43.5°F6.4°C 39.9°F4.4°C 87% 10.4 mph WNW16.7 kmh WNW 10.9 mph17.5 kmh 30.30 in1026.1 mb 0.00 in0.0 mm 0.00 in0.0 mm 0.00 in0.0 mm
03:35 AM 43.5°F6.4°C 39.6°F4.2°C 86% 5.3 mph NNW8.5 kmh NNW 10.9 mph17.5 kmh 30.30 in1026.1 mb 0.00 in0.0 mm 0.00 in0.0 mm 0.00 in0.0 mm
03:36 AM 43.3°F6.3°C 39.4°F4.1°C 86% 2.2 mph NW3.5 kmh NW 10.9 mph17.5 kmh 30.30 in1026.1 mb 0.00 in0.0 mm 0.00 in0.0 mm 0.00 in0.0 mm
03:37 AM 43.3°F6.3°C 39.4°F4.1°C 86% 2.2 mph NNW3.5 kmh NNW 10.9 mph17.5 kmh 30.30 in1026.1 mb 0.00 in0.0 mm 0.00 in0.0 mm 0.00 in0.0 mm
03:38 AM 43.2°F6.2°C 39.3°F4.1°C 86% 4.2 mph WNW6.8 kmh WNW 10.9 mph17.5 kmh 30.30 in1026.1 mb 0.00 in0.0 mm 0.00 in0.0 mm 0.00 in0.0 mm
03:39 AM 43.3°F6.3°C 39.4°F4.1°C 86% 1.7 mph NNE2.7 kmh NNE 10.9 mph17.5 kmh 30.30 in1026.1 mb 0.00 in0.0 mm 0.00 in0.0 mm 0.00 in0.0 mm
03:40 AM 43.2°F6.2°C 39.3°F4.1°C 86% 2.2 mph NNW3.5 kmh NNW 10.9 mph17.5 kmh 30.30 in1026.1 mb 0.00 in0.0 mm 0.00 in0.0 mm 0.00 in0.0 mm
03:41 AM 43.2°F6.2°C 39.3°F4.1°C 86% 4.7 mph WNW7.6 kmh WNW 10.9 mph17.5 kmh 30.30 in1026.1 mb 0.00 in0.0 mm 0.00 in0.0 mm 0.00 in0.0 mm
03:42 AM 43.2°F6.2°C 39.3°F4.1°C 86% 3.2 mph NW5.1 kmh NW 10.9 mph17.5 kmh 30.30 in1026.1 mb 0.00 in0.0 mm 0.00 in0.0 mm 0.00 in0.0 mm
03:43 AM 43.2°F6.2°C 39.3°F4.1°C 86% 6.8 mph NW10.9 kmh NW 10.9 mph17.5 kmh 30.30 in1026.1 mb 0.00 in0.0 mm 0.00 in0.0 mm 0.00 in0.0 mm
03:44 AM 43.3°F6.3°C 39.4°F4.1°C 86% 3.7 mph WNW6.0 kmh WNW 7.8 mph12.6 kmh 30.30 in1026.1 mb 0.00 in0.0 mm 0.00 in0.0 mm 0.00 in0.0 mm
03:46 AM 43.5°F6.4°C 39.9°F4.4°C 87% 4.2 mph NW6.8 kmh NW 7.8 mph12.6 kmh 30.30 in1026.1 mb 0.00 in0.0 mm 0.00 in0.0 mm 0.00 in0.0 mm
03:47 AM 43.5°F6.4°C 39.9°F4.4°C 87% 3.7 mph NW6.0 kmh NW 7.8 mph12.6 kmh 30.30 in1026.1 mb 0.00 in0.0 mm 0.00 in0.0 mm 0.00 in0.0 mm
03:48 AM 43.5°F6.4°C 39.9°F4.4°C 87% 2.7 mph NNW4.3 kmh NNW 7.8 mph12.6 kmh 30.30 in1026.1 mb 0.00 in0.0 mm 0.00 in0.0 mm 0.00 in0.0 mm
03:49 AM 43.3°F6.3°C 39.4°F4.1°C 86% 5.3 mph N8.5 kmh N 7.8 mph12.6 kmh 30.30 in1026.1 mb 0.00 in0.0 mm 0.00 in0.0 mm 0.00 in0.0 mm
03:50 AM 43.3°F6.3°C 39.4°F4.1°C 86% 3.2 mph NNW5.1 kmh NNW 7.8 mph12.6 kmh 30.30 in1026.1 mb 0.00 in0.0 mm 0.00 in0.0 mm 0.00 in0.0 mm
03:51 AM 43.3°F6.3°C 39.4°F4.1°C 86% 6.8 mph NW10.9 kmh NW 7.8 mph12.6 kmh 30.30 in1026.1 mb 0.00 in0.0 mm 0.00 in0.0 mm 0.00 in0.0 mm
03:52 AM 43.3°F6.3°C 39.4°F4.1°C 86% 4.2 mph NNW6.8 kmh NNW 7.8 mph12.6 kmh 30.30 in1026.1 mb 0.00 in0.0 mm 0.00 in0.0 mm 0.00 in0.0 mm
03:53 AM 43.3°F6.3°C 39.4°F4.1°C 86% 2.7 mph NNW4.3 kmh NNW 7.8 mph12.6 kmh 30.30 in1026.1 mb 0.00 in0.0 mm 0.00 in0.0 mm 0.00 in0.0 mm
03:54 AM 43.3°F6.3°C 39.4°F4.1°C 86% 6.3 mph NW10.1 kmh NW 6.8 mph10.9 kmh 30.30 in1026.1 mb 0.00 in0.0 mm 0.00 in0.0 mm 0.00 in0.0 mm
03:55 AM 43.3°F6.3°C 39.4°F4.1°C 86% 3.2 mph NNW5.1 kmh NNW 6.8 mph10.9 kmh 30.30 in1026.1 mb 0.00 in0.0 mm 0.00 in0.0 mm 0.00 in0.0 mm
03:56 AM 43.5°F6.4°C 39.6°F4.2°C 86% 1.7 mph NNE2.7 kmh NNE 6.8 mph10.9 kmh 30.30 in1026.1 mb 0.00 in0.0 mm 0.00 in0.0 mm 0.00 in0.0 mm
03:57 AM 43.5°F6.4°C 39.6°F4.2°C 86% 1.7 mph NNE2.7 kmh NNE 6.8 mph10.9 kmh 30.30 in1026.1 mb 0.00 in0.0 mm 0.00 in0.0 mm 0.00 in0.0 mm
03:58 AM 43.3°F6.3°C 39.4°F4.1°C 86% 4.2 mph NNW6.8 kmh NNW 6.8 mph10.9 kmh 30.30 in1026.1 mb 0.00 in0.0 mm 0.00 in0.0 mm 0.00 in0.0 mm
03:59 AM 43.3°F6.3°C 39.4°F4.1°C 86% 3.7 mph WNW6.0 kmh WNW 6.8 mph10.9 kmh 30.30 in1026.1 mb 0.00 in0.0 mm 0.00 in0.0 mm 0.00 in0.0 mm
04:00 AM 43.3°F6.3°C 39.4°F4.1°C 86% 4.2 mph N6.8 kmh N 6.8 mph10.9 kmh 30.30 in1026.1 mb 0.00 in0.0 mm 0.00 in0.0 mm 0.00 in0.0 mm
04:01 AM 43.3°F6.3°C 39.4°F4.1°C 86% 2.2 mph WNW3.5 kmh WNW 6.8 mph10.9 kmh 30.30 in1026.1 mb 0.00 in0.0 mm 0.00 in0.0 mm 0.00 in0.0 mm
04:02 AM 43.3°F6.3°C 39.4°F4.1°C 86% 2.7 mph NNW4.3 kmh NNW 6.8 mph10.9 kmh 30.30 in1026.1 mb 0.00 in0.0 mm 0.00 in0.0 mm 0.00 in0.0 mm
04:03 AM 43.3°F6.3°C 39.4°F4.1°C 86% 2.7 mph N4.3 kmh N 6.8 mph10.9 kmh 30.30 in1026.1 mb 0.00 in0.0 mm 0.00 in0.0 mm 0.00 in0.0 mm
04:04 AM 43.2°F6.2°C 39.3°F4.1°C 86% 2.2 mph NNW3.5 kmh NNW 6.8 mph10.9 kmh 30.30 in1026.1 mb 0.00 in0.0 mm 0.00 in0.0 mm 0.00 in0.0 mm
04:05 AM 43.2°F6.2°C 39.3°F4.1°C 86% 2.7 mph NNW4.3 kmh NNW 6.8 mph10.9 kmh 30.30 in1026.1 mb 0.00 in0.0 mm 0.00 in0.0 mm 0.00 in0.0 mm
04:06 AM 43.2°F6.2°C 39.3°F4.1°C 86% 2.7 mph NNW4.3 kmh NNW 6.3 mph10.1 kmh 30.30 in1026.1 mb 0.00 in0.0 mm 0.00 in0.0 mm 0.00 in0.0 mm
04:07 AM 43.2°F6.2°C 39.3°F4.1°C 86% 5.8 mph NW9.3 kmh NW 6.8 mph10.9 kmh 30.30 in1026.1 mb 0.00 in0.0 mm 0.00 in0.0 mm 0.00 in0.0 mm
04:08 AM 43.3°F6.3°C 39.4°F4.1°C 86% 2.2 mph NNW3.5 kmh NNW 6.8 mph10.9 kmh 30.30 in1026.1 mb 0.00 in0.0 mm 0.00 in0.0 mm 0.00 in0.0 mm
04:09 AM 43.3°F6.3°C 39.4°F4.1°C 86% 2.2 mph NE3.5 kmh NE 6.8 mph10.9 kmh 30.30 in1026.1 mb 0.00 in0.0 mm 0.00 in0.0 mm 0.00 in0.0 mm
04:10 AM 43.2°F6.2°C 39.3°F4.1°C 86% 5.8 mph NNW9.3 kmh NNW 6.8 mph10.9 kmh 30.30 in1026.1 mb 0.00 in0.0 mm 0.00 in0.0 mm 0.00 in0.0 mm
04:11 AM 43.2°F6.2°C 39.3°F4.1°C 86% 4.2 mph NNW6.8 kmh NNW 6.8 mph10.9 kmh 30.30 in1026.1 mb 0.00 in0.0 mm 0.00 in0.0 mm 0.00 in0.0 mm
04:12 AM 43.2°F6.2°C 39.3°F4.1°C 86% 1.7 mph N2.7 kmh N 6.8 mph10.9 kmh 30.30 in1026.1 mb 0.00 in0.0 mm 0.00 in0.0 mm 0.00 in0.0 mm
04:13 AM 43.2°F6.2°C 39.3°F4.1°C 86% 4.2 mph WNW6.8 kmh WNW 6.8 mph10.9 kmh 30.30 in1026.1 mb 0.00 in0.0 mm 0.00 in0.0 mm 0.00 in0.0 mm
04:14 AM 43.2°F6.2°C 39.3°F4.1°C 86% 6.8 mph NNW10.9 kmh NNW 6.8 mph10.9 kmh 30.30 in1026.1 mb 0.00 in0.0 mm 0.00 in0.0 mm 0.00 in0.0 mm
04:15 AM 43.3°F6.3°C 39.4°F4.1°C 86% 5.3 mph NW8.5 kmh NW 6.8 mph10.9 kmh 30.30 in1026.1 mb 0.00 in0.0 mm 0.00 in0.0 mm 0.00 in0.0 mm
04:16 AM 43.7°F6.5°C 40.1°F4.5°C 87% 2.7 mph NNW4.3 kmh NNW 6.8 mph10.9 kmh 30.30 in1026.1 mb 0.00 in0.0 mm 0.00 in0.0 mm 0.00 in0.0 mm
04:17 AM 43.5°F6.4°C 39.9°F4.4°C 87% 1.1 mph NNW1.8 kmh NNW 6.8 mph10.9 kmh 30.30 in1026.1 mb 0.00 in0.0 mm 0.00 in0.0 mm 0.00 in0.0 mm
04:18 AM 43.3°F6.3°C 39.4°F4.1°C 86% 1.7 mph NNW2.7 kmh NNW 6.8 mph10.9 kmh 30.30 in1026.1 mb 0.00 in0.0 mm 0.00 in0.0 mm 0.00 in0.0 mm
04:19 AM 43.3°F6.3°C 39.4°F4.1°C 86% 1.7 mph NNE2.7 kmh NNE 6.8 mph10.9 kmh 30.30 in1026.1 mb 0.00 in0.0 mm 0.00 in0.0 mm 0.00 in0.0 mm
04:20 AM 43.2°F6.2°C 39.3°F4.1°C 86% 1.7 mph NNW2.7 kmh NNW 6.8 mph10.9 kmh 30.30 in1026.1 mb 0.00 in0.0 mm 0.00 in0.0 mm 0.00 in0.0 mm
04:21 AM 43.2°F6.2°C 39.3°F4.1°C 86% 6.3 mph WNW10.1 kmh WNW 6.8 mph10.9 kmh 30.30 in1026.1 mb 0.00 in0.0 mm 0.00 in0.0 mm 0.00 in0.0 mm
04:22 AM 43.3°F6.3°C 39.7°F4.3°C 87% 5.3 mph NNW8.5 kmh NNW 6.8 mph10.9 kmh 30.30 in1026.1 mb 0.00 in0.0 mm 0.00 in0.0 mm 0.00 in0.0 mm
04:23 AM 43.5°F6.4°C 39.6°F4.2°C 86% 3.7 mph NNW6.0 kmh NNW 6.8 mph10.9 kmh 30.30 in1026.1 mb 0.00 in0.0 mm 0.00 in0.0 mm 0.00 in0.0 mm
04:24 AM 43.3°F6.3°C 39.4°F4.1°C 86% 2.7 mph NNW4.3 kmh NNW 6.8 mph10.9 kmh 30.30 in1026.1 mb 0.00 in0.0 mm 0.00 in0.0 mm 0.00 in0.0 mm
04:25 AM 43.3°F6.3°C 39.4°F4.1°C 86% 6.8 mph NW10.9 kmh NW 6.8 mph10.9 kmh 30.30 in1026.1 mb 0.00 in0.0 mm 0.00 in0.0 mm 0.00 in0.0 mm
04:26 AM 43.5°F6.4°C 39.9°F4.4°C 87% 1.7 mph N2.7 kmh N 6.8 mph10.9 kmh 30.30 in1026.1 mb 0.00 in0.0 mm 0.00 in0.0 mm 0.00 in0.0 mm
04:27 AM 43.5°F6.4°C 39.9°F4.4°C 87% 4.7 mph NNW7.6 kmh NNW 6.8 mph10.9 kmh 30.31 in1026.4 mb 0.00 in0.0 mm 0.00 in0.0 mm 0.00 in0.0 mm
04:28 AM 43.3°F6.3°C 39.7°F4.3°C 87% 7.8 mph NW12.6 kmh NW 7.8 mph12.6 kmh 30.31 in1026.4 mb 0.00 in0.0 mm 0.00 in0.0 mm 0.00 in0.0 mm
04:29 AM 43.3°F6.3°C 39.7°F4.3°C 87% 6.8 mph NW10.9 kmh NW 9.4 mph15.1 kmh 30.31 in1026.4 mb 0.00 in0.0 mm 0.00 in0.0 mm 0.00 in0.0 mm
04:30 AM 43.3°F6.3°C 39.4°F4.1°C 86% 2.2 mph NNW3.5 kmh NNW 9.4 mph15.1 kmh 30.31 in1026.4 mb 0.00 in0.0 mm 0.00 in0.0 mm 0.00 in0.0 mm
04:31 AM 43.2°F6.2°C 39.0°F3.9°C 85% 3.2 mph NW5.1 kmh NW 9.4 mph15.1 kmh 30.31 in1026.4 mb 0.00 in0.0 mm 0.00 in0.0 mm 0.00 in0.0 mm
04:32 AM 43.2°F6.2°C 39.0°F3.9°C 85% 4.2 mph NNW6.8 kmh NNW 9.4 mph15.1 kmh 30.31 in1026.4 mb 0.00 in0.0 mm 0.00 in0.0 mm 0.00 in0.0 mm
04:33 AM 43.2°F6.2°C 39.3°F4.1°C 86% 3.2 mph NNW5.1 kmh NNW 9.4 mph15.1 kmh 30.31 in1026.4 mb 0.00 in0.0 mm 0.00 in0.0 mm 0.00 in0.0 mm
04:34 AM 43.2°F6.2°C 39.3°F4.1°C 86% 3.7 mph NW6.0 kmh NW 9.4 mph15.1 kmh 30.31 in1026.4 mb 0.00 in0.0 mm 0.00 in0.0 mm 0.00 in0.0 mm
04:35 AM 43.2°F6.2°C 39.3°F4.1°C 86% 2.2 mph NNW3.5 kmh NNW 9.4 mph15.1 kmh 30.31 in1026.4 mb 0.00 in0.0 mm 0.00 in0.0 mm 0.00 in0.0 mm
04:36 AM 43.2°F6.2°C 39.3°F4.1°C 86% 1.1 mph NNE1.8 kmh NNE 9.4 mph15.1 kmh 30.31 in1026.4 mb 0.00 in0.0 mm 0.00 in0.0 mm 0.00 in0.0 mm
04:37 AM 43.2°F6.2°C 39.3°F4.1°C 86% 1.1 mph NNW1.8 kmh NNW 9.4 mph15.1 kmh 30.31 in1026.4 mb 0.00 in0.0 mm 0.00 in0.0 mm 0.00 in0.0 mm
04:38 AM 43.2°F6.2°C 39.3°F4.1°C 86% 1.7 mph N2.7 kmh N 9.4 mph15.1 kmh 30.31 in1026.4 mb 0.00 in0.0 mm 0.00 in0.0 mm 0.00 in0.0 mm
04:39 AM 43.0°F6.1°C 39.1°F3.9°C 86% 4.2 mph NNW6.8 kmh NNW 6.3 mph10.1 kmh 30.31 in1026.4 mb 0.00 in0.0 mm 0.00 in0.0 mm 0.00 in0.0 mm
04:40 AM 43.0°F6.1°C 39.1°F3.9°C 86% 5.8 mph NW9.3 kmh NW 5.8 mph9.3 kmh 30.31 in1026.4 mb 0.00 in0.0 mm 0.00 in0.0 mm 0.00 in0.0 mm
04:41 AM 43.0°F6.1°C 39.1°F3.9°C 86% 2.2 mph NNW3.5 kmh NNW 5.8 mph9.3 kmh 30.31 in1026.4 mb 0.00 in0.0 mm 0.00 in0.0 mm 0.00 in0.0 mm
04:42 AM 43.0°F6.1°C 39.1°F3.9°C 86% 2.7 mph NW4.3 kmh NW 5.8 mph9.3 kmh 30.31 in1026.4 mb 0.00 in0.0 mm 0.00 in0.0 mm 0.00 in0.0 mm
04:43 AM 43.0°F6.1°C 39.1°F3.9°C 86% 6.8 mph NW10.9 kmh NW 6.8 mph10.9 kmh 30.31 in1026.4 mb 0.00 in0.0 mm 0.00 in0.0 mm 0.00 in0.0 mm
04:44 AM 43.0°F6.1°C 39.1°F3.9°C 86% 2.2 mph NW3.5 kmh NW 6.8 mph10.9 kmh 30.31 in1026.4 mb 0.00 in0.0 mm 0.00 in0.0 mm 0.00 in0.0 mm
04:45 AM 43.0°F6.1°C 39.1°F3.9°C 86% 2.7 mph NE4.3 kmh NE 6.8 mph10.9 kmh 30.31 in1026.4 mb 0.00 in0.0 mm 0.00 in0.0 mm 0.00 in0.0 mm
04:46 AM 42.8°F6.0°C 38.9°F3.8°C 86% 1.7 mph NNE2.7 kmh NNE 6.8 mph10.9 kmh 30.31 in1026.4 mb 0.00 in0.0 mm 0.00 in0.0 mm 0.00 in0.0 mm
04:47 AM 42.8°F6.0°C 38.9°F3.8°C 86% 1.7 mph N2.7 kmh N 6.8 mph10.9 kmh 30.31 in1026.4 mb 0.00 in0.0 mm 0.00 in0.0 mm 0.00 in0.0 mm
04:48 AM 42.8°F6.0°C 38.9°F3.8°C 86% 1.7 mph NNW2.7 kmh NNW 6.8 mph10.9 kmh 30.31 in1026.4 mb 0.00 in0.0 mm 0.00 in0.0 mm 0.00 in0.0 mm
04:49 AM 42.8°F6.0°C 38.9°F3.8°C 86% 1.7 mph ENE2.7 kmh ENE 6.8 mph10.9 kmh 30.31 in1026.4 mb 0.00 in0.0 mm 0.00 in0.0 mm 0.00 in0.0 mm
04:50 AM 42.8°F6.0°C 38.9°F3.8°C 86% 1.7 mph N2.7 kmh N 6.8 mph10.9 kmh 30.31 in1026.4 mb 0.00 in0.0 mm 0.00 in0.0 mm 0.00 in0.0 mm
04:51 AM 42.8°F6.0°C 38.9°F3.8°C 86% 2.2 mph ESE3.5 kmh ESE 6.8 mph10.9 kmh 30.31 in1026.4 mb 0.00 in0.0 mm 0.00 in0.0 mm 0.00 in0.0 mm
04:52 AM 42.8°F6.0°C 38.9°F3.8°C 86% 1.7 mph N2.7 kmh N 6.8 mph10.9 kmh 30.32 in1026.8 mb 0.00 in0.0 mm 0.00 in0.0 mm 0.00 in0.0 mm
04:53 AM 42.8°F6.0°C 38.9°F3.8°C 86% 1.1 mph NE1.8 kmh NE 6.8 mph10.9 kmh 30.32 in1026.8 mb 0.00 in0.0 mm 0.00 in0.0 mm 0.00 in0.0 mm
04:54 AM 42.8°F6.0°C 38.9°F3.8°C 86% 1.1 mph N1.8 kmh N 3.7 mph6.0 kmh 30.32 in1026.8 mb 0.00 in0.0 mm 0.00 in0.0 mm 0.00 in0.0 mm
04:55 AM 42.8°F6.0°C 38.9°F3.8°C 86% 1.1 mph NNE1.8 kmh NNE 3.7 mph6.0 kmh 30.32 in1026.8 mb 0.00 in0.0 mm 0.00 in0.0 mm 0.00 in0.0 mm
04:56 AM 42.8°F6.0°C 38.9°F3.8°C 86% 1.7 mph NNE2.7 kmh NNE 3.7 mph6.0 kmh 30.32 in1026.8 mb 0.00 in0.0 mm 0.00 in0.0 mm 0.00 in0.0 mm
04:57 AM 42.8°F6.0°C 38.9°F3.8°C 86% 1.7 mph NNW2.7 kmh NNW 3.7 mph6.0 kmh 30.32 in1026.8 mb 0.00 in0.0 mm 0.00 in0.0 mm 0.00 in0.0 mm
04:58 AM 42.8°F6.0°C 38.9°F3.8°C 86% 1.7 mph NW2.7 kmh NW 3.7 mph6.0 kmh 30.32 in1026.8 mb 0.00 in0.0 mm 0.00 in0.0 mm 0.00 in0.0 mm
04:59 AM 42.8°F6.0°C 38.9°F3.8°C 86% 1.1 mph NNW1.8 kmh NNW 3.7 mph6.0 kmh 30.32 in1026.8 mb 0.00 in0.0 mm 0.00 in0.0 mm 0.00 in0.0 mm
05:00 AM 42.8°F6.0°C 38.9°F3.8°C 86% 2.2 mph NW3.5 kmh NW 3.7 mph6.0 kmh 30.32 in1026.8 mb 0.00 in0.0 mm 0.00 in0.0 mm 0.00 in0.0 mm
05:01 AM 42.8°F6.0°C 38.9°F3.8°C 86% 1.7 mph NNE2.7 kmh NNE 3.7 mph6.0 kmh 30.32 in1026.8 mb 0.00 in0.0 mm 0.00 in0.0 mm 0.00 in0.0 mm
05:02 AM 42.8°F6.0°C 38.9°F3.8°C 86% 1.1 mph NNE1.8 kmh NNE 2.7 mph4.3 kmh 30.32 in1026.8 mb 0.00 in0.0 mm 0.00 in0.0 mm 0.00 in0.0 mm
05:03 AM 43.0°F6.1°C 39.4°F4.1°C 87% 3.7 mph NW6.0 kmh NW 6.8 mph10.9 kmh 30.32 in1026.8 mb 0.00 in0.0 mm 0.00 in0.0 mm 0.00 in0.0 mm
05:04 AM 43.0°F6.1°C 39.4°F4.1°C 87% 2.7 mph ENE4.3 kmh ENE 6.8 mph10.9 kmh 30.32 in1026.8 mb 0.00 in0.0 mm 0.00 in0.0 mm 0.00 in0.0 mm
05:05 AM 42.8°F6.0°C 38.9°F3.8°C 86% 3.2 mph NW5.1 kmh NW 6.8 mph10.9 kmh 30.32 in1026.8 mb 0.00 in0.0 mm 0.00 in0.0 mm 0.00 in0.0 mm
05:06 AM 42.8°F6.0°C 38.9°F3.8°C 86% 2.2 mph NNW3.5 kmh NNW 6.8 mph10.9 kmh 30.32 in1026.8 mb 0.00 in0.0 mm 0.00 in0.0 mm 0.00 in0.0 mm
05:07 AM 42.8°F6.0°C 38.9°F3.8°C 86% 1.1 mph NNW1.8 kmh NNW 6.8 mph10.9 kmh 30.32 in1026.8 mb 0.00 in0.0 mm 0.00 in0.0 mm 0.00 in0.0 mm
05:08 AM 42.8°F6.0°C 38.9°F3.8°C 86% 1.1 mph NNE1.8 kmh NNE 6.8 mph10.9 kmh 30.32 in1026.8 mb 0.00 in0.0 mm 0.00 in0.0 mm 0.00 in0.0 mm
05:09 AM 42.8°F6.0°C 38.9°F3.8°C 86% 2.7 mph N4.3 kmh N 6.8 mph10.9 kmh 30.32 in1026.8 mb 0.00 in0.0 mm 0.00 in0.0 mm 0.00 in0.0 mm
05:10 AM 43.0°F6.1°C 39.4°F4.1°C 87% 1.7 mph NNE2.7 kmh NNE 6.8 mph10.9 kmh 30.32 in1026.8 mb 0.00 in0.0 mm 0.00 in0.0 mm 0.00 in0.0 mm
05:11 AM 42.8°F6.0°C 39.2°F4.0°C 87% Calm Calm 6.8 mph10.9 kmh 30.32 in1026.8 mb 0.00 in0.0 mm 0.00 in0.0 mm 0.00 in0.0 mm
05:12 AM 42.8°F6.0°C 39.2°F4.0°C 87% Calm Calm 6.8 mph10.9 kmh 30.32 in1026.8 mb 0.00 in0.0 mm 0.00 in0.0 mm 0.00 in0.0 mm
05:13 AM 42.8°F6.0°C 39.2°F4.0°C 87% 1.1 mph NNE1.8 kmh NNE 3.7 mph6.0 kmh 30.32 in1026.8 mb 0.00 in0.0 mm 0.00 in0.0 mm 0.00 in0.0 mm
05:14 AM 42.8°F6.0°C 39.2°F4.0°C 87% 1.1 mph NE1.8 kmh NE 3.7 mph6.0 kmh 30.32 in1026.8 mb 0.00 in0.0 mm 0.00 in0.0 mm 0.00 in0.0 mm
05:15 AM 42.8°F6.0°C 39.2°F4.0°C 87% 1.1 mph NNE1.8 kmh NNE 3.7 mph6.0 kmh 30.32 in1026.8 mb 0.00 in0.0 mm 0.00 in0.0 mm 0.00 in0.0 mm
05:16 AM 42.8°F6.0°C 39.2°F4.0°C 87% 1.7 mph N2.7 kmh N 3.7 mph6.0 kmh 30.32 in1026.8 mb 0.00 in0.0 mm 0.00 in0.0 mm 0.00 in0.0 mm
05:17 AM 42.8°F6.0°C 39.2°F4.0°C 87% 1.1 mph NNW1.8 kmh NNW 3.7 mph6.0 kmh 30.32 in1026.8 mb 0.00 in0.0 mm 0.00 in0.0 mm 0.00 in0.0 mm
05:18 AM 42.8°F6.0°C 39.2°F4.0°C 87% 1.7 mph NNW2.7 kmh NNW 3.7 mph6.0 kmh 30.32 in1026.8 mb 0.00 in0.0 mm 0.00 in0.0 mm 0.00 in0.0 mm
05:19 AM 42.8°F6.0°C 39.2°F4.0°C 87% 1.1 mph NNW1.8 kmh NNW 3.7 mph6.0 kmh 30.32 in1026.8 mb 0.00 in0.0 mm 0.00 in0.0 mm 0.00 in0.0 mm
05:20 AM 42.8°F6.0°C 39.2°F4.0°C 87% 1.7 mph ENE2.7 kmh ENE 2.7 mph4.3 kmh 30.32 in1026.8 mb 0.00 in0.0 mm 0.00 in0.0 mm 0.00 in0.0 mm
05:21 AM 42.8°F6.0°C 39.2°F4.0°C 87% 1.1 mph NNE1.8 kmh NNE 1.7 mph2.7 kmh 30.32 in1026.8 mb 0.00 in0.0 mm 0.00 in0.0 mm 0.00 in0.0 mm
05:22 AM 42.8°F6.0°C 39.2°F4.0°C 87% 1.1 mph NW1.8 kmh NW 1.7 mph2.7 kmh 30.32 in1026.8 mb 0.00 in0.0 mm 0.00 in0.0 mm 0.00 in0.0 mm
05:23 AM 42.8°F6.0°C 39.2°F4.0°C 87% 3.2 mph NW5.1 kmh NW 6.3 mph10.1 kmh 30.32 in1026.8 mb 0.00 in0.0 mm 0.00 in0.0 mm 0.00 in0.0 mm
05:24 AM 42.8°F6.0°C 39.2°F4.0°C 87% 2.2 mph NNW3.5 kmh NNW 6.3 mph10.1 kmh 30.32 in1026.8 mb 0.00 in0.0 mm 0.00 in0.0 mm 0.00 in0.0 mm
05:25 AM 42.8°F6.0°C 39.2°F4.0°C 87% 5.3 mph NNW8.5 kmh NNW 6.3 mph10.1 kmh 30.32 in1026.8 mb 0.00 in0.0 mm 0.00 in0.0 mm 0.00 in0.0 mm
05:26 AM 42.8°F6.0°C 39.2°F4.0°C 87% 2.7 mph NW4.3 kmh NW 6.3 mph10.1 kmh 30.32 in1026.8 mb 0.00 in0.0 mm 0.00 in0.0 mm 0.00 in0.0 mm
05:27 AM 42.8°F6.0°C 39.2°F4.0°C 87% 3.7 mph NNW6.0 kmh NNW 6.3 mph10.1 kmh 30.33 in1027.1 mb 0.00 in0.0 mm 0.00 in0.0 mm 0.00 in0.0 mm
05:28 AM 42.8°F6.0°C 39.2°F4.0°C 87% 2.7 mph NNW4.3 kmh NNW 6.3 mph10.1 kmh 30.33 in1027.1 mb 0.00 in0.0 mm 0.00 in0.0 mm 0.00 in0.0 mm
05:29 AM 42.8°F6.0°C 39.2°F4.0°C 87% 1.7 mph NNW2.7 kmh NNW 6.3 mph10.1 kmh 30.33 in1027.1 mb 0.00 in0.0 mm 0.00 in0.0 mm 0.00 in0.0 mm
05:30 AM 42.8°F6.0°C 39.2°F4.0°C 87% 2.2 mph NNW3.5 kmh NNW 6.3 mph10.1 kmh 30.33 in1027.1 mb 0.00 in0.0 mm 0.00 in0.0 mm 0.00 in0.0 mm
05:31 AM 42.8°F6.0°C 39.2°F4.0°C 87% 1.7 mph NNE2.7 kmh NNE 6.3 mph10.1 kmh 30.33 in1027.1 mb 0.00 in0.0 mm 0.00 in0.0 mm 0.00 in0.0 mm
05:32 AM 42.8°F6.0°C 38.9°F3.8°C 86% 1.7 mph NNE2.7 kmh NNE 6.3 mph10.1 kmh 30.33 in1027.1 mb 0.00 in0.0 mm 0.00 in0.0 mm 0.00 in0.0 mm
05:33 AM 42.8°F6.0°C 38.9°F3.8°C 86% 1.7 mph NNE2.7 kmh NNE 5.8 mph9.3 kmh 30.33 in1027.1 mb 0.00 in0.0 mm 0.00 in0.0 mm 0.00 in0.0 mm
05:34 AM 42.8°F6.0°C 38.9°F3.8°C 86% 1.7 mph NNW2.7 kmh NNW 5.8 mph9.3 kmh 30.33 in1027.1 mb 0.00 in0.0 mm 0.00 in0.0 mm 0.00 in0.0 mm
05:35 AM 42.8°F6.0°C 38.9°F3.8°C 86% 1.7 mph NNE2.7 kmh NNE 5.8 mph9.3 kmh 30.33 in1027.1 mb 0.00 in0.0 mm 0.00 in0.0 mm 0.00 in0.0 mm
05:36 AM 42.8°F6.0°C 38.9°F3.8°C 86% 1.1 mph NNE1.8 kmh NNE 5.8 mph9.3 kmh 30.33 in1027.1 mb 0.00 in0.0 mm 0.00 in0.0 mm 0.00 in0.0 mm
05:37 AM 42.8°F6.0°C 38.9°F3.8°C 86% 1.1 mph NW1.8 kmh NW 3.7 mph6.0 kmh 30.33 in1027.1 mb 0.00 in0.0 mm 0.00 in0.0 mm 0.00 in0.0 mm
05:38 AM 42.8°F6.0°C 38.9°F3.8°C 86% 1.1 mph NNE1.8 kmh NNE 3.7 mph6.0 kmh 30.33 in1027.1 mb 0.00 in0.0 mm 0.00 in0.0 mm 0.00 in0.0 mm
05:39 AM 42.8°F6.0°C 38.9°F3.8°C 86% 1.1 mph NNE1.8 kmh NNE 2.7 mph4.3 kmh 30.33 in1027.1 mb 0.00 in0.0 mm 0.00 in0.0 mm 0.00 in0.0 mm
05:40 AM 42.8°F6.0°C 38.9°F3.8°C 86% Calm Calm 2.7 mph4.3 kmh 30.33 in1027.1 mb 0.00 in0.0 mm 0.00 in0.0 mm 0.00 in0.0 mm
05:41 AM 42.8°F6.0°C 38.9°F3.8°C 86% 1.7 mph NNW2.7 kmh NNW 2.2 mph3.5 kmh 30.33 in1027.1 mb 0.00 in0.0 mm 0.00 in0.0 mm 0.00 in0.0 mm
05:42 AM 42.8°F6.0°C 38.9°F3.8°C 86% 1.1 mph N1.8 kmh N 2.2 mph3.5 kmh 30.33 in1027.1 mb 0.00 in0.0 mm 0.00 in0.0 mm 0.00 in0.0 mm
05:43 AM 42.8°F6.0°C 38.9°F3.8°C 86% 1.7 mph NNE2.7 kmh NNE 2.2 mph3.5 kmh 30.33 in1027.1 mb 0.00 in0.0 mm 0.00 in0.0 mm 0.00 in0.0 mm
05:44 AM 42.8°F6.0°C 38.9°F3.8°C 86% 1.7 mph NNE2.7 kmh NNE 2.2 mph3.5 kmh 30.33 in1027.1 mb 0.00 in0.0 mm 0.00 in0.0 mm 0.00 in0.0 mm
05:45 AM 42.8°F6.0°C 38.9°F3.8°C 86% 1.1 mph NNE1.8 kmh NNE 2.2 mph3.5 kmh 30.33 in1027.1 mb 0.00 in0.0 mm 0.00 in0.0 mm 0.00 in0.0 mm
05:46 AM 42.8°F6.0°C 38.9°F3.8°C 86% Calm Calm 1.7 mph2.7 kmh 30.33 in1027.1 mb 0.00 in0.0 mm 0.00 in0.0 mm 0.00 in0.0 mm
05:47 AM 42.8°F6.0°C 38.9°F3.8°C 86% Calm Calm 1.7 mph2.7 kmh 30.33 in1027.1 mb 0.00 in0.0 mm 0.00 in0.0 mm 0.00 in0.0 mm
05:48 AM 42.8°F6.0°C 38.9°F3.8°C 86% Calm Calm 1.7 mph2.7 kmh 30.33 in1027.1 mb 0.00 in0.0 mm 0.00 in0.0 mm 0.00 in0.0 mm
05:49 AM 42.8°F6.0°C 38.9°F3.8°C 86% Calm Calm 1.7 mph2.7 kmh 30.33 in1027.1 mb 0.00 in0.0 mm 0.00 in0.0 mm 0.00 in0.0 mm
05:50 AM 42.8°F6.0°C 38.9°F3.8°C 86% 1.1 mph NNE1.8 kmh NNE 1.7 mph2.7 kmh 30.33 in1027.1 mb 0.00 in0.0 mm 0.00 in0.0 mm 0.00 in0.0 mm
05:51 AM 42.6°F5.9°C 38.7°F3.7°C 86% Calm Calm 1.7 mph2.7 kmh 30.34 in1027.4 mb 0.00 in0.0 mm 0.00 in0.0 mm 0.00 in0.0 mm
05:52 AM 42.6°F5.9°C 38.7°F3.7°C 86% 1.7 mph N2.7 kmh N 1.7 mph2.7 kmh 30.34 in1027.4 mb 0.00 in0.0 mm 0.00 in0.0 mm 0.00 in0.0 mm
05:53 AM 42.6°F5.9°C 38.7°F3.7°C 86% 1.1 mph NNE1.8 kmh NNE 1.7 mph2.7 kmh 30.34 in1027.4 mb 0.00 in0.0 mm 0.00 in0.0 mm 0.00 in0.0 mm
05:54 AM 42.6°F5.9°C 38.7°F3.7°C 86% 1.7 mph NE2.7 kmh NE 1.7 mph2.7 kmh 30.34 in1027.4 mb 0.00 in0.0 mm 0.00 in0.0 mm 0.00 in0.0 mm
05:55 AM 42.6°F5.9°C 38.7°F3.7°C 86% 1.1 mph N1.8 kmh N 1.7 mph2.7 kmh 30.34 in1027.4 mb 0.00 in0.0 mm 0.00 in0.0 mm 0.00 in0.0 mm
05:56 AM 42.6°F5.9°C 38.7°F3.7°C 86% 1.7 mph NNE2.7 kmh NNE 2.7 mph4.3 kmh 30.34 in1027.4 mb 0.00 in0.0 mm 0.00 in0.0 mm 0.00 in0.0 mm
05:57 AM 42.6°F5.9°C 38.7°F3.7°C 86% 2.7 mph NW4.3 kmh NW 3.2 mph5.1 kmh 30.34 in1027.4 mb 0.00 in0.0 mm 0.00 in0.0 mm 0.00 in0.0 mm
05:58 AM 42.6°F5.9°C 38.7°F3.7°C 86% 1.7 mph NNE2.7 kmh NNE 3.2 mph5.1 kmh 30.34 in1027.4 mb 0.00 in0.0 mm 0.00 in0.0 mm 0.00 in0.0 mm
05:59 AM 42.6°F5.9°C 38.7°F3.7°C 86% 2.2 mph N3.5 kmh N 3.2 mph5.1 kmh 30.34 in1027.4 mb 0.00 in0.0 mm 0.00 in0.0 mm 0.00 in0.0 mm
06:00 AM 42.6°F5.9°C 38.7°F3.7°C 86% 1.7 mph NW2.7 kmh NW 3.2 mph5.1 kmh 30.34 in1027.4 mb 0.00 in0.0 mm 0.00 in0.0 mm 0.00 in0.0 mm
06:01 AM 42.6°F5.9°C 38.7°F3.7°C 86% 2.2 mph NW3.5 kmh NW 3.2 mph5.1 kmh 30.34 in1027.4 mb 0.00 in0.0 mm 0.00 in0.0 mm 0.00 in0.0 mm
06:02 AM 42.6°F5.9°C 38.7°F3.7°C 86% 2.2 mph WNW3.5 kmh WNW 3.2 mph5.1 kmh 30.34 in1027.4 mb 0.00 in0.0 mm 0.00 in0.0 mm 0.00 in0.0 mm
06:03 AM 42.6°F5.9°C 38.7°F3.7°C 86% 1.7 mph NNW2.7 kmh NNW 3.2 mph5.1 kmh 30.34 in1027.4 mb 0.00 in0.0 mm 0.00 in0.0 mm 0.00 in0.0 mm
06:04 AM 42.6°F5.9°C 38.7°F3.7°C 86% 2.7 mph NNW4.3 kmh NNW 3.2 mph5.1 kmh 30.35 in1027.8 mb 0.00 in0.0 mm 0.00 in0.0 mm 0.00 in0.0 mm
06:05 AM 42.6°F5.9°C 38.7°F3.7°C 86% 1.7 mph NNW2.7 kmh NNW 3.2 mph5.1 kmh 30.35 in1027.8 mb 0.00 in0.0 mm 0.00 in0.0 mm 0.00 in0.0 mm
06:06 AM 42.6°F5.9°C 38.7°F3.7°C 86% 2.2 mph NW3.5 kmh NW 3.2 mph5.1 kmh 30.35 in1027.8 mb 0.00 in0.0 mm 0.00 in0.0 mm 0.00 in0.0 mm
06:07 AM 42.6°F5.9°C 39.0°F3.9°C 87% 1.7 mph N2.7 kmh N 2.7 mph4.3 kmh 30.35 in1027.8 mb 0.00 in0.0 mm 0.00 in0.0 mm 0.00 in0.0 mm
06:08 AM 42.6°F5.9°C 39.0°F3.9°C 87% Calm Calm 2.7 mph4.3 kmh 30.35 in1027.8 mb 0.00 in0.0 mm 0.00 in0.0 mm 0.00 in0.0 mm
06:09 AM 42.6°F5.9°C 39.0°F3.9°C 87% 1.1 mph N1.8 kmh N 2.7 mph4.3 kmh 30.35 in1027.8 mb 0.00 in0.0 mm 0.00 in0.0 mm 0.00 in0.0 mm
06:10 AM 42.6°F5.9°C 39.0°F3.9°C 87% 2.2 mph NNW3.5 kmh NNW 2.7 mph4.3 kmh 30.35 in1027.8 mb 0.00 in0.0 mm 0.00 in0.0 mm 0.00 in0.0 mm
06:11 AM 42.6°F5.9°C 39.0°F3.9°C 87% 2.7 mph NNW4.3 kmh NNW 2.7 mph4.3 kmh 30.35 in1027.8 mb 0.00 in0.0 mm 0.00 in0.0 mm 0.00 in0.0 mm
06:12 AM 42.6°F5.9°C 39.0°F3.9°C 87% 1.1 mph NNE1.8 kmh NNE 2.7 mph4.3 kmh 30.35 in1027.8 mb 0.00 in0.0 mm 0.00 in0.0 mm 0.00 in0.0 mm
06:13 AM 42.6°F5.9°C 39.0°F3.9°C 87% 1.1 mph NNW1.8 kmh NNW 2.7 mph4.3 kmh 30.35 in1027.8 mb 0.00 in0.0 mm 0.00 in0.0 mm 0.00 in0.0 mm
06:14 AM 42.6°F5.9°C 39.0°F3.9°C 87% 1.1 mph NNE1.8 kmh NNE 2.7 mph4.3 kmh 30.35 in1027.8 mb 0.00 in0.0 mm 0.00 in0.0 mm 0.00 in0.0 mm
06:15 AM 42.6°F5.9°C 39.0°F3.9°C 87% 1.1 mph ENE1.8 kmh ENE 2.7 mph4.3 kmh 30.35 in1027.8 mb 0.00 in0.0 mm 0.00 in0.0 mm 0.00 in0.0 mm
06:16 AM 42.6°F5.9°C 39.0°F3.9°C 87% Calm Calm 2.7 mph4.3 kmh 30.35 in1027.8 mb 0.00 in0.0 mm 0.00 in0.0 mm 0.00 in0.0 mm
06:17 AM 42.6°F5.9°C 39.0°F3.9°C 87% Calm Calm 2.7 mph4.3 kmh 30.35 in1027.8 mb 0.00 in0.0 mm 0.00 in0.0 mm 0.00 in0.0 mm
06:18 AM 42.6°F5.9°C 39.0°F3.9°C 87% Calm Calm 2.7 mph4.3 kmh 30.35 in1027.8 mb 0.00 in0.0 mm 0.00 in0.0 mm 0.00 in0.0 mm
06:19 AM 42.6°F5.9°C 39.0°F3.9°C 87% 1.1 mph NNE1.8 kmh NNE 2.7 mph4.3 kmh 30.35 in1027.8 mb 0.00 in0.0 mm 0.00 in0.0 mm 0.00 in0.0 mm
06:20 AM 42.6°F5.9°C 39.0°F3.9°C 87% 2.7 mph N4.3 kmh N 2.7 mph4.3 kmh 30.35 in1027.8 mb 0.00 in0.0 mm 0.00 in0.0 mm 0.00 in0.0 mm
06:21 AM 42.6°F5.9°C 39.0°F3.9°C 87% 1.1 mph N1.8 kmh N 2.7 mph4.3 kmh 30.35 in1027.8 mb 0.00 in0.0 mm 0.00 in0.0 mm 0.00 in0.0 mm
06:22 AM 42.6°F5.9°C 39.0°F3.9°C 87% 1.1 mph NW1.8 kmh NW 2.7 mph4.3 kmh 30.35 in1027.8 mb 0.00 in0.0 mm 0.00 in0.0 mm 0.00 in0.0 mm
06:23 AM 42.6°F5.9°C 39.0°F3.9°C 87% Calm Calm 2.7 mph4.3 kmh 30.35 in1027.8 mb 0.00 in0.0 mm 0.00 in0.0 mm 0.00 in0.0 mm
06:24 AM 42.6°F5.9°C 39.0°F3.9°C 87% Calm Calm 2.7 mph4.3 kmh 30.35 in1027.8 mb 0.00 in0.0 mm 0.00 in0.0 mm 0.00 in0.0 mm
06:25 AM 42.6°F5.9°C 39.0°F3.9°C 87% Calm Calm 2.7 mph4.3 kmh 30.35 in1027.8 mb 0.00 in0.0 mm 0.00 in0.0 mm 0.00 in0.0 mm
06:26 AM 42.6°F5.9°C 39.0°F3.9°C 87% 1.1 mph N1.8 kmh N 2.7 mph4.3 kmh 30.35 in1027.8 mb 0.00 in0.0 mm 0.00 in0.0 mm 0.00 in0.0 mm
06:27 AM 42.6°F5.9°C 39.0°F3.9°C 87% 1.1 mph NE1.8 kmh NE 2.7 mph4.3 kmh 30.34 in1027.4 mb 0.00 in0.0 mm 0.00 in0.0 mm 0.00 in0.0 mm
06:28 AM 42.6°F5.9°C 39.0°F3.9°C 87% 1.1 mph ENE1.8 kmh ENE 2.7 mph4.3 kmh 30.34 in1027.4 mb 0.00 in0.0 mm 0.00 in0.0 mm 0.00 in0.0 mm
06:29 AM 42.6°F5.9°C 39.0°F3.9°C 87% 1.1 mph NNE1.8 kmh NNE 2.7 mph4.3 kmh 30.34 in1027.4 mb 0.00 in0.0 mm 0.00 in0.0 mm 0.00 in0.0 mm
06:30 AM 42.6°F5.9°C 39.0°F3.9°C 87% Calm Calm 2.2 mph3.5 kmh 30.34 in1027.4 mb 0.00 in0.0 mm 0.00 in0.0 mm 0.00 in0.0 mm
06:31 AM 42.6°F5.9°C 39.0°F3.9°C 87% 1.1 mph NNE1.8 kmh NNE 2.2 mph3.5 kmh 30.34 in1027.4 mb 0.00 in0.0 mm 0.00 in0.0 mm 0.00 in0.0 mm
06:32 AM 42.6°F5.9°C 39.0°F3.9°C 87% Calm Calm 2.2 mph3.5 kmh 30.34 in1027.4 mb 0.00 in0.0 mm 0.00 in0.0 mm 0.00 in0.0 mm
06:33 AM 42.6°F5.9°C 39.0°F3.9°C 87% Calm Calm 2.2 mph3.5 kmh 30.34 in1027.4 mb 0.00 in0.0 mm 0.00 in0.0 mm 0.00 in0.0 mm
06:34 AM 42.6°F5.9°C 39.0°F3.9°C 87% 1.1 mph NNE1.8 kmh NNE 2.2 mph3.5 kmh 30.34 in1027.4 mb 0.00 in0.0 mm 0.00 in0.0 mm 0.00 in0.0 mm
06:35 AM 42.6°F5.9°C 39.0°F3.9°C 87% 1.7 mph NW2.7 kmh NW 2.2 mph3.5 kmh 30.34 in1027.4 mb 0.00 in0.0 mm 0.00 in0.0 mm 0.00 in0.0 mm
06:36 AM 42.6°F5.9°C 39.0°F3.9°C 87% 1.7 mph NNE2.7 kmh NNE 2.2 mph3.5 kmh 30.34 in1027.4 mb 0.00 in0.0 mm 0.00 in0.0 mm 0.00 in0.0 mm
06:37 AM 42.6°F5.9°C 39.0°F3.9°C 87% 1.7 mph NNW2.7 kmh NNW 1.7 mph2.7 kmh 30.34 in1027.4 mb 0.00 in0.0 mm 0.00 in0.0 mm 0.00 in0.0 mm
06:38 AM 42.4°F5.8°C 38.8°F3.8°C 87% 1.7 mph N2.7 kmh N 1.7 mph2.7 kmh 30.34 in1027.4 mb 0.00 in0.0 mm 0.00 in0.0 mm 0.00 in0.0 mm
06:39 AM 42.4°F5.8°C 38.8°F3.8°C 87% Calm Calm 1.7 mph2.7 kmh 30.34 in1027.4 mb 0.00 in0.0 mm 0.00 in0.0 mm 0.00 in0.0 mm
06:40 AM 42.4°F5.8°C 38.8°F3.8°C 87% 1.1 mph NNE1.8 kmh NNE 1.7 mph2.7 kmh 30.34 in1027.4 mb 0.00 in0.0 mm 0.00 in0.0 mm 0.00 in0.0 mm
06:41 AM 42.4°F5.8°C 38.8°F3.8°C 87% 1.1 mph N1.8 kmh N 1.7 mph2.7 kmh 30.34 in1027.4 mb 0.00 in0.0 mm 0.00 in0.0 mm 0.00 in0.0 mm
06:42 AM 42.4°F5.8°C 38.8°F3.8°C 87% 1.7 mph NNW2.7 kmh NNW 1.7 mph2.7 kmh 30.34 in1027.4 mb 0.00 in0.0 mm 0.00 in0.0 mm 0.00 in0.0 mm
06:43 AM 42.4°F5.8°C 38.8°F3.8°C 87% 1.1 mph NW1.8 kmh NW 2.7 mph4.3 kmh 30.34 in1027.4 mb 0.00 in0.0 mm 0.00 in0.0 mm 0.00 in0.0 mm
06:44 AM 42.4°F5.8°C 38.8°F3.8°C 87% 2.7 mph NNE4.3 kmh NNE 2.7 mph4.3 kmh 30.34 in1027.4 mb 0.00 in0.0 mm 0.00 in0.0 mm 0.00 in0.0 mm
06:45 AM 42.4°F5.8°C 38.8°F3.8°C 87% 1.7 mph NNE2.7 kmh NNE 2.7 mph4.3 kmh 30.34 in1027.4 mb 0.00 in0.0 mm 0.00 in0.0 mm 0.00 in0.0 mm
06:46 AM 42.4°F5.8°C 38.8°F3.8°C 87% 1.1 mph NNE1.8 kmh NNE 2.7 mph4.3 kmh 30.34 in1027.4 mb 0.00 in0.0 mm 0.00 in0.0 mm 0.00 in0.0 mm
06:47 AM 42.4°F5.8°C 38.8°F3.8°C 87% 1.7 mph N2.7 kmh N 2.7 mph4.3 kmh 30.34 in1027.4 mb 0.00 in0.0 mm 0.00 in0.0 mm 0.00 in0.0 mm
06:48 AM 42.4°F5.8°C 38.8°F3.8°C 87% Calm Calm 2.7 mph4.3 kmh 30.34 in1027.4 mb 0.00 in0.0 mm 0.00 in0.0 mm 0.00 in0.0 mm
06:49 AM 42.4°F5.8°C 38.8°F3.8°C 87% 1.1 mph N1.8 kmh N 2.7 mph4.3 kmh 30.34 in1027.4 mb 0.00 in0.0 mm 0.00 in0.0 mm 0.00 in0.0 mm
06:50 AM 42.4°F5.8°C 38.8°F3.8°C 87% 1.7 mph NNE2.7 kmh NNE 2.7 mph4.3 kmh 30.34 in1027.4 mb 0.00 in0.0 mm 0.00 in0.0 mm 0.00 in0.0 mm
06:51 AM 42.4°F5.8°C 38.8°F3.8°C 87% 1.1 mph E1.8 kmh E 2.7 mph4.3 kmh 30.36 in1028.1 mb 0.00 in0.0 mm 0.00 in0.0 mm 0.00 in0.0 mm
06:52 AM 42.4°F5.8°C 38.8°F3.8°C 87% 1.1 mph NE1.8 kmh NE 2.7 mph4.3 kmh 30.36 in1028.1 mb 0.00 in0.0 mm 0.00 in0.0 mm 0.00 in0.0 mm
06:53 AM 42.4°F5.8°C 38.8°F3.8°C 87% Calm Calm 2.7 mph4.3 kmh 30.36 in1028.1 mb 0.00 in0.0 mm 0.00 in0.0 mm 0.00 in0.0 mm
06:54 AM 42.4°F5.8°C 38.8°F3.8°C 87% 1.1 mph ENE1.8 kmh ENE 2.7 mph4.3 kmh 30.36 in1028.1 mb 0.00 in0.0 mm 0.00 in0.0 mm 0.00 in0.0 mm
06:55 AM 42.4°F5.8°C 38.8°F3.8°C 87% 1.7 mph NNE2.7 kmh NNE 1.7 mph2.7 kmh 30.36 in1028.1 mb 0.00 in0.0 mm 0.00 in0.0 mm 0.00 in0.0 mm
06:56 AM 42.4°F5.8°C 38.8°F3.8°C 87% 1.1 mph NNE1.8 kmh NNE 1.7 mph2.7 kmh 30.36 in1028.1 mb 0.00 in0.0 mm 0.00 in0.0 mm 0.00 in0.0 mm
06:57 AM 42.4°F5.8°C 38.8°F3.8°C 87% 1.7 mph NNE2.7 kmh NNE 1.7 mph2.7 kmh 30.36 in1028.1 mb 0.00 in0.0 mm 0.00 in0.0 mm 0.00 in0.0 mm
06:58 AM 42.4°F5.8°C 38.8°F3.8°C 87% 1.1 mph E1.8 kmh E 1.7 mph2.7 kmh 30.36 in1028.1 mb 0.00 in0.0 mm 0.00 in0.0 mm 0.00 in0.0 mm
06:59 AM 42.4°F5.8°C 38.8°F3.8°C 87% 1.1 mph NE1.8 kmh NE 1.7 mph2.7 kmh 30.36 in1028.1 mb 0.00 in0.0 mm 0.00 in0.0 mm 0.00 in0.0 mm
07:00 AM 42.4°F5.8°C 38.8°F3.8°C 87% 1.7 mph NNW2.7 kmh NNW 1.7 mph2.7 kmh 30.36 in1028.1 mb 0.00 in0.0 mm 0.00 in0.0 mm 0.00 in0.0 mm
07:01 AM 42.4°F5.8°C 38.8°F3.8°C 87% 1.1 mph NE1.8 kmh NE 1.7 mph2.7 kmh 30.36 in1028.1 mb 0.00 in0.0 mm 0.00 in0.0 mm 0.00 in0.0 mm
07:02 AM 42.4°F5.8°C 38.8°F3.8°C 87% Calm Calm 1.7 mph2.7 kmh 30.36 in1028.1 mb 0.00 in0.0 mm 0.00 in0.0 mm 0.00 in0.0 mm
07:03 AM 42.4°F5.8°C 38.8°F3.8°C 87% Calm Calm 1.7 mph2.7 kmh 30.36 in1028.1 mb 0.00 in0.0 mm 0.00 in0.0 mm 0.00 in0.0 mm
07:04 AM 42.4°F5.8°C 38.8°F3.8°C 87% Calm Calm 1.7 mph2.7 kmh 30.36 in1028.1 mb 0.00 in0.0 mm 0.00 in0.0 mm 0.00 in0.0 mm
07:05 AM 42.4°F5.8°C 38.8°F3.8°C 87% Calm Calm 1.7 mph2.7 kmh 30.36 in1028.1 mb 0.00 in0.0 mm 0.00 in0.0 mm 0.00 in0.0 mm
07:06 AM 42.4°F5.8°C 38.8°F3.8°C 87% 1.1 mph NE1.8 kmh NE 1.7 mph2.7 kmh 30.36 in1028.1 mb 0.00 in0.0 mm 0.00 in0.0 mm 0.00 in0.0 mm
07:07 AM 42.4°F5.8°C 38.8°F3.8°C 87% 1.1 mph NE1.8 kmh NE 1.7 mph2.7 kmh 30.36 in1028.1 mb 0.00 in0.0 mm 0.00 in0.0 mm 0.00 in0.0 mm
07:08 AM 42.4°F5.8°C 38.8°F3.8°C 87% Calm Calm 1.7 mph2.7 kmh 30.36 in1028.1 mb 0.00 in0.0 mm 0.00 in0.0 mm 0.00 in0.0 mm
07:09 AM 42.6°F5.9°C 39.0°F3.9°C 87% 1.1 mph NNE1.8 kmh NNE 1.7 mph2.7 kmh 30.36 in1028.1 mb 0.00 in0.0 mm 0.00 in0.0 mm 0.00 in0.0 mm
07:10 AM 42.6°F5.9°C 39.0°F3.9°C 87% 1.1 mph NNE1.8 kmh NNE 1.1 mph1.8 kmh 30.36 in1028.1 mb 0.00 in0.0 mm 0.00 in0.0 mm 0.00 in0.0 mm
07:11 AM 42.6°F5.9°C 39.0°F3.9°C 87% 1.1 mph NNE1.8 kmh NNE 1.7 mph2.7 kmh 30.36 in1028.1 mb 0.00 in0.0 mm 0.00 in0.0 mm 0.00 in0.0 mm
07:12 AM 42.6°F5.9°C 39.0°F3.9°C 87% Calm Calm 1.7 mph2.7 kmh 30.36 in1028.1 mb 0.00 in0.0 mm 0.00 in0.0 mm 0.00 in0.0 mm
07:13 AM 42.6°F5.9°C 39.0°F3.9°C 87% Calm Calm 1.7 mph2.7 kmh 30.36 in1028.1 mb 0.00 in0.0 mm 0.00 in0.0 mm 0.00 in0.0 mm
07:14 AM 42.6°F5.9°C 39.0°F3.9°C 87% Calm Calm 1.7 mph2.7 kmh 30.36 in1028.1 mb 0.00 in0.0 mm 0.00 in0.0 mm 0.00 in0.0 mm
07:15 AM 42.6°F5.9°C 39.0°F3.9°C 87% Calm Calm 1.7 mph2.7 kmh 30.36 in1028.1 mb 0.00 in0.0 mm 0.00 in0.0 mm 0.00 in0.0 mm
07:16 AM 42.6°F5.9°C 39.0°F3.9°C 87% 1.1 mph NE1.8 kmh NE 1.7 mph2.7 kmh 30.36 in1028.1 mb 0.00 in0.0 mm 0.00 in0.0 mm 0.00 in0.0 mm
07:17 AM 42.6°F5.9°C 39.0°F3.9°C 87% 1.1 mph NNE1.8 kmh NNE 1.7 mph2.7 kmh 30.36 in1028.1 mb 0.00 in0.0 mm 0.00 in0.0 mm 0.00 in0.0 mm
07:18 AM 42.8°F6.0°C 39.2°F4.0°C 87% 1.7 mph NNE2.7 kmh NNE 1.7 mph2.7 kmh 30.36 in1028.1 mb 0.00 in0.0 mm 0.00 in0.0 mm 0.00 in0.0 mm
07:19 AM 42.8°F6.0°C 39.2°F4.0°C 87% Calm Calm 1.7 mph2.7 kmh 30.36 in1028.1 mb 0.00 in0.0 mm 0.00 in0.0 mm 0.00 in0.0 mm
07:20 AM 42.8°F6.0°C 39.2°F4.0°C 87% Calm Calm 1.7 mph2.7 kmh 30.36 in1028.1 mb 0.00 in0.0 mm 0.00 in0.0 mm 0.00 in0.0 mm
07:21 AM 43.0°F6.1°C 39.4°F4.1°C 87% Calm Calm 1.7 mph2.7 kmh 30.36 in1028.1 mb 0.00 in0.0 mm 0.00 in0.0 mm 0.00 in0.0 mm
07:22 AM 43.0°F6.1°C 39.4°F4.1°C 87% Calm Calm 1.7 mph2.7 kmh 30.36 in1028.1 mb 0.00 in0.0 mm 0.00 in0.0 mm 0.00 in0.0 mm
07:23 AM 43.0°F6.1°C 39.4°F4.1°C 87% Calm Calm 1.7 mph2.7 kmh 30.36 in1028.1 mb 0.00 in0.0 mm 0.00 in0.0 mm 0.00 in0.0 mm
07:24 AM 43.0°F6.1°C 39.4°F4.1°C 87% Calm Calm 1.7 mph2.7 kmh 30.36 in1028.1 mb 0.00 in0.0 mm 0.00 in0.0 mm 0.00 in0.0 mm
07:25 AM 43.0°F6.1°C 39.4°F4.1°C 87% Calm Calm 1.7 mph2.7 kmh 30.36 in1028.1 mb 0.00 in0.0 mm 0.00 in0.0 mm 0.00 in0.0 mm
07:26 AM 43.2°F6.2°C 39.6°F4.2°C 87% Calm Calm 1.7 mph2.7 kmh 30.36 in1028.1 mb 0.00 in0.0 mm 0.00 in0.0 mm 0.00 in0.0 mm
07:27 AM 43.2°F6.2°C 39.6°F4.2°C 87% Calm Calm 1.7 mph2.7 kmh 30.36 in1028.1 mb 0.00 in0.0 mm 0.00 in0.0 mm 0.00 in0.0 mm
07:28 AM 43.2°F6.2°C 39.6°F4.2°C 87% 1.1 mph NNE1.8 kmh NNE 1.7 mph2.7 kmh 30.36 in1028.1 mb 0.00 in0.0 mm 0.00 in0.0 mm 0.00 in0.0 mm
07:29 AM 43.2°F6.2°C 39.3°F4.1°C 86% 1.1 mph ENE1.8 kmh ENE 1.7 mph2.7 kmh 30.36 in1028.1 mb 0.00 in0.0 mm 0.00 in0.0 mm 0.00 in0.0 mm
07:30 AM 43.3°F6.3°C 39.4°F4.1°C 86% Calm Calm 1.7 mph2.7 kmh 30.36 in1028.1 mb 0.00 in0.0 mm 0.00 in0.0 mm 0.00 in0.0 mm
07:31 AM 43.3°F6.3°C 39.4°F4.1°C 86% Calm Calm 1.7 mph2.7 kmh 30.36 in1028.1 mb 0.00 in0.0 mm 0.00 in0.0 mm 0.00 in0.0 mm
07:32 AM 43.3°F6.3°C 39.4°F4.1°C 86% Calm Calm 1.7 mph2.7 kmh 30.36 in1028.1 mb 0.00 in0.0 mm 0.00 in0.0 mm 0.00 in0.0 mm
07:33 AM 43.5°F6.4°C 39.6°F4.2°C 86% 1.7 mph NNE2.7 kmh NNE 1.7 mph2.7 kmh 30.36 in1028.1 mb 0.00 in0.0 mm 0.00 in0.0 mm 0.00 in0.0 mm
07:34 AM 43.5°F6.4°C 39.6°F4.2°C 86% Calm Calm 1.7 mph2.7 kmh 30.36 in1028.1 mb 0.00 in0.0 mm 0.00 in0.0 mm 0.00 in0.0 mm
07:35 AM 43.5°F6.4°C 39.6°F4.2°C 86% Calm Calm 1.7 mph2.7 kmh 30.36 in1028.1 mb 0.00 in0.0 mm 0.00 in0.0 mm 0.00 in0.0 mm
07:36 AM 43.5°F6.4°C 39.6°F4.2°C 86% Calm Calm 1.7 mph2.7 kmh 30.36 in1028.1 mb 0.00 in0.0 mm 0.00 in0.0 mm 0.00 in0.0 mm
07:37 AM 43.5°F6.4°C 39.6°F4.2°C 86% 1.1 mph WNW1.8 kmh WNW 1.7 mph2.7 kmh 30.36 in1028.1 mb 0.00 in0.0 mm 0.00 in0.0 mm 0.00 in0.0 mm
07:38 AM 43.7°F6.5°C 39.8°F4.3°C 86% 2.7 mph NNW4.3 kmh NNW 2.7 mph4.3 kmh 30.36 in1028.1 mb 0.00 in0.0 mm 0.00 in0.0 mm 0.00 in0.0 mm
07:39 AM 43.7°F6.5°C 39.8°F4.3°C 86% Calm Calm 2.7 mph4.3 kmh 30.37 in1028.4 mb 0.00 in0.0 mm 0.00 in0.0 mm 0.00 in0.0 mm
07:40 AM 43.7°F6.5°C 39.8°F4.3°C 86% Calm Calm 2.7 mph4.3 kmh 30.37 in1028.4 mb 0.00 in0.0 mm 0.00 in0.0 mm 0.00 in0.0 mm
07:41 AM 43.7°F6.5°C 39.8°F4.3°C 86% 1.1 mph NNW1.8 kmh NNW 2.7 mph4.3 kmh 30.37 in1028.4 mb 0.00 in0.0 mm 0.00 in0.0 mm 0.00 in0.0 mm
07:42 AM 43.7°F6.5°C 39.8°F4.3°C 86% 1.7 mph NNW2.7 kmh NNW 2.7 mph4.3 kmh 30.37 in1028.4 mb 0.00 in0.0 mm 0.00 in0.0 mm 0.00 in0.0 mm
07:43 AM 43.7°F6.5°C 39.8°F4.3°C 86% 1.1 mph NE1.8 kmh NE 2.7 mph4.3 kmh 30.37 in1028.4 mb 0.00 in0.0 mm 0.00 in0.0 mm 0.00 in0.0 mm
07:44 AM 43.7°F6.5°C 39.8°F4.3°C 86% 1.1 mph NNW1.8 kmh NNW 2.7 mph4.3 kmh 30.37 in1028.4 mb 0.00 in0.0 mm 0.00 in0.0 mm 0.00 in0.0 mm
07:45 AM 43.7°F6.5°C 39.8°F4.3°C 86% 1.7 mph NNW2.7 kmh NNW 2.7 mph4.3 kmh 30.37 in1028.4 mb 0.00 in0.0 mm 0.00 in0.0 mm 0.00 in0.0 mm
07:46 AM 43.7°F6.5°C 39.8°F4.3°C 86% 4.2 mph NNW6.8 kmh NNW 4.2 mph6.8 kmh 30.37 in1028.4 mb 0.00 in0.0 mm 0.00 in0.0 mm 0.00 in0.0 mm
07:47 AM 43.7°F6.5°C 39.8°F4.3°C 86% 1.1 mph NNE1.8 kmh NNE 4.2 mph6.8 kmh 30.37 in1028.4 mb 0.00 in0.0 mm 0.00 in0.0 mm 0.00 in0.0 mm
07:48 AM 43.7°F6.5°C 39.8°F4.3°C 86% 1.7 mph NNW2.7 kmh NNW 4.2 mph6.8 kmh 30.37 in1028.4 mb 0.00 in0.0 mm 0.00 in0.0 mm 0.00 in0.0 mm
07:49 AM 43.7°F6.5°C 39.8°F4.3°C 86% 2.2 mph NNW3.5 kmh NNW 4.2 mph6.8 kmh 30.37 in1028.4 mb 0.00 in0.0 mm 0.00 in0.0 mm 0.00 in0.0 mm
07:50 AM 43.7°F6.5°C 39.8°F4.3°C 86% 1.7 mph NNW2.7 kmh NNW 4.2 mph6.8 kmh 30.37 in1028.4 mb 0.00 in0.0 mm 0.00 in0.0 mm 0.00 in0.0 mm
07:51 AM 43.7°F6.5°C 39.8°F4.3°C 86% Calm Calm 4.2 mph6.8 kmh 30.39 in1029.1 mb 0.00 in0.0 mm 0.00 in0.0 mm 0.00 in0.0 mm
07:52 AM 43.7°F6.5°C 39.8°F4.3°C 86% 2.2 mph N3.5 kmh N 4.2 mph6.8 kmh 30.39 in1029.1 mb 0.00 in0.0 mm 0.00 in0.0 mm 0.00 in0.0 mm
07:53 AM 43.7°F6.5°C 39.5°F4.2°C 85% 1.7 mph NNW2.7 kmh NNW 4.2 mph6.8 kmh 30.39 in1029.1 mb 0.00 in0.0 mm 0.00 in0.0 mm 0.00 in0.0 mm
07:54 AM 43.7°F6.5°C 39.5°F4.2°C 85% 1.7 mph NNE2.7 kmh NNE 4.2 mph6.8 kmh 30.39 in1029.1 mb 0.00 in0.0 mm 0.00 in0.0 mm 0.00 in0.0 mm
07:55 AM 43.7°F6.5°C 39.5°F4.2°C 85% 1.1 mph NNE1.8 kmh NNE 4.2 mph6.8 kmh 30.39 in1029.1 mb 0.00 in0.0 mm 0.00 in0.0 mm 0.00 in0.0 mm
07:56 AM 43.7°F6.5°C 39.5°F4.2°C 85% 2.2 mph NNE3.5 kmh NNE 2.7 mph4.3 kmh 30.39 in1029.1 mb 0.00 in0.0 mm 0.00 in0.0 mm 0.00 in0.0 mm
07:57 AM 43.7°F6.5°C 39.5°F4.2°C 85% 1.1 mph N1.8 kmh N 2.7 mph4.3 kmh 30.39 in1029.1 mb 0.00 in0.0 mm 0.00 in0.0 mm 0.00 in0.0 mm
07:58 AM 43.9°F6.6°C 39.7°F4.3°C 85% 1.7 mph N2.7 kmh N 2.7 mph4.3 kmh 30.39 in1029.1 mb 0.00 in0.0 mm 0.00 in0.0 mm 0.00 in0.0 mm
07:59 AM 43.9°F6.6°C 39.7°F4.3°C 85% 1.1 mph NW1.8 kmh NW 2.7 mph4.3 kmh 30.39 in1029.1 mb 0.00 in0.0 mm 0.00 in0.0 mm 0.00 in0.0 mm
08:00 AM 43.9°F6.6°C 39.7°F4.3°C 85% 1.7 mph N2.7 kmh N 2.2 mph3.5 kmh 30.39 in1029.1 mb 0.00 in0.0 mm 0.00 in0.0 mm 0.00 in0.0 mm
08:01 AM 44.1°F6.7°C 39.8°F4.3°C 85% 1.1 mph NNE1.8 kmh NNE 2.2 mph3.5 kmh 30.39 in1029.1 mb 0.00 in0.0 mm 0.00 in0.0 mm 0.00 in0.0 mm
08:02 AM 44.1°F6.7°C 39.8°F4.3°C 85% 1.1 mph NNE1.8 kmh NNE 2.2 mph3.5 kmh 30.39 in1029.1 mb 0.00 in0.0 mm 0.00 in0.0 mm 0.00 in0.0 mm
08:03 AM 44.1°F6.7°C 39.8°F4.3°C 85% Calm Calm 2.2 mph3.5 kmh 30.39 in1029.1 mb 0.00 in0.0 mm 0.00 in0.0 mm 0.00 in0.0 mm
08:04 AM 44.2°F6.8°C 40.0°F4.4°C 85% 1.1 mph NNE1.8 kmh NNE 2.2 mph3.5 kmh 30.38 in1028.8 mb 0.00 in0.0 mm 0.00 in0.0 mm 0.00 in0.0 mm
08:05 AM 44.2°F6.8°C 40.0°F4.4°C 85% 1.1 mph N1.8 kmh N 2.2 mph3.5 kmh 30.38 in1028.8 mb 0.00 in0.0 mm 0.00 in0.0 mm 0.00 in0.0 mm
08:06 AM 44.2°F6.8°C 39.7°F4.3°C 84% 1.1 mph N1.8 kmh N 2.2 mph3.5 kmh 30.38 in1028.8 mb 0.00 in0.0 mm 0.00 in0.0 mm 0.00 in0.0 mm
08:07 AM 44.2°F6.8°C 39.7°F4.3°C 84% 1.1 mph NNE1.8 kmh NNE 1.7 mph2.7 kmh 30.38 in1028.8 mb 0.00 in0.0 mm 0.00 in0.0 mm 0.00 in0.0 mm
08:08 AM 44.4°F6.9°C 39.9°F4.4°C 84% 1.7 mph N2.7 kmh N 1.7 mph2.7 kmh 30.38 in1028.8 mb 0.00 in0.0 mm 0.00 in0.0 mm 0.00 in0.0 mm
08:09 AM 44.4°F6.9°C 39.6°F4.2°C 83% 1.1 mph N1.8 kmh N 2.2 mph3.5 kmh 30.38 in1028.8 mb 0.00 in0.0 mm 0.00 in0.0 mm 0.00 in0.0 mm
08:10 AM 44.4°F6.9°C 39.6°F4.2°C 83% 2.2 mph NNE3.5 kmh NNE 2.2 mph3.5 kmh 30.38 in1028.8 mb 0.00 in0.0 mm 0.00 in0.0 mm 0.00 in0.0 mm
08:11 AM 44.4°F6.9°C 39.6°F4.2°C 83% 1.7 mph NNE2.7 kmh NNE 2.7 mph4.3 kmh 30.38 in1028.8 mb 0.00 in0.0 mm 0.00 in0.0 mm 0.00 in0.0 mm
08:12 AM 44.4°F6.9°C 39.6°F4.2°C 83% 1.1 mph NNE1.8 kmh NNE 2.7 mph4.3 kmh 30.38 in1028.8 mb 0.00 in0.0 mm 0.00 in0.0 mm 0.00 in0.0 mm
08:13 AM 44.4°F6.9°C 39.6°F4.2°C 83% 1.7 mph NNW2.7 kmh NNW 2.7 mph4.3 kmh 30.38 in1028.8 mb 0.00 in0.0 mm 0.00 in0.0 mm 0.00 in0.0 mm
08:14 AM 44.4°F6.9°C 39.6°F4.2°C 83% 1.1 mph NNE1.8 kmh NNE 2.7 mph4.3 kmh 30.38 in1028.8 mb 0.00 in0.0 mm 0.00 in0.0 mm 0.00 in0.0 mm
08:15 AM 44.6°F7.0°C 39.8°F4.3°C 83% 1.1 mph NNW1.8 kmh NNW 2.7 mph4.3 kmh 30.38 in1028.8 mb 0.00 in0.0 mm 0.00 in0.0 mm 0.00 in0.0 mm
08:16 AM 44.6°F7.0°C 39.8°F4.3°C 83% 1.7 mph NW2.7 kmh NW 2.7 mph4.3 kmh 30.39 in1029.1 mb 0.00 in0.0 mm 0.00 in0.0 mm 0.00 in0.0 mm
08:17 AM 44.6°F7.0°C 39.8°F4.3°C 83% 3.2 mph NNE5.1 kmh NNE 3.2 mph5.1 kmh 30.39 in1029.1 mb 0.00 in0.0 mm 0.00 in0.0 mm 0.00 in0.0 mm
08:18 AM 44.6°F7.0°C 39.8°F4.3°C 83% 1.7 mph N2.7 kmh N 3.2 mph5.1 kmh 30.39 in1029.1 mb 0.00 in0.0 mm 0.00 in0.0 mm 0.00 in0.0 mm
08:19 AM 44.6°F7.0°C 39.8°F4.3°C 83% 1.1 mph N1.8 kmh N 3.2 mph5.1 kmh 30.39 in1029.1 mb 0.00 in0.0 mm 0.00 in0.0 mm 0.00 in0.0 mm
08:20 AM 44.8°F7.1°C 39.9°F4.4°C 83% 1.1 mph NE1.8 kmh NE 3.2 mph5.1 kmh 30.39 in1029.1 mb 0.00 in0.0 mm 0.00 in0.0 mm 0.00 in0.0 mm
08:21 AM 45.0°F7.2°C 40.1°F4.5°C 83% 1.1 mph NNW1.8 kmh NNW 3.2 mph5.1 kmh 30.39 in1029.1 mb 0.00 in0.0 mm 0.00 in0.0 mm 0.00 in0.0 mm
08:22 AM 45.0°F7.2°C 40.1°F4.5°C 83% 1.7 mph NE2.7 kmh NE 3.2 mph5.1 kmh 30.39 in1029.1 mb 0.00 in0.0 mm 0.00 in0.0 mm 0.00 in0.0 mm
08:23 AM 45.0°F7.2°C 40.1°F4.5°C 83% 1.7 mph NNE2.7 kmh NNE 3.2 mph5.1 kmh 30.39 in1029.1 mb 0.00 in0.0 mm 0.00 in0.0 mm 0.00 in0.0 mm
08:24 AM 45.0°F7.2°C 40.1°F4.5°C 83% 1.1 mph NNE1.8 kmh NNE 3.2 mph5.1 kmh 30.39 in1029.1 mb 0.00 in0.0 mm 0.00 in0.0 mm 0.00 in0.0 mm
08:25 AM 45.0°F7.2°C 40.1°F4.5°C 83% 1.7 mph ENE2.7 kmh ENE 3.2 mph5.1 kmh 30.39 in1029.1 mb 0.00 in0.0 mm 0.00 in0.0 mm 0.00 in0.0 mm
08:26 AM 45.0°F7.2°C 40.1°F4.5°C 83% 2.2 mph NNE3.5 kmh NNE 3.2 mph5.1 kmh 30.39 in1029.1 mb 0.00 in0.0 mm 0.00 in0.0 mm 0.00 in0.0 mm
08:27 AM 45.0°F7.2°C 40.1°F4.5°C 83% 1.1 mph NNW1.8 kmh NNW 2.7 mph4.3 kmh 30.39 in1029.1 mb 0.00 in0.0 mm 0.00 in0.0 mm 0.00 in0.0 mm
08:28 AM 45.0°F7.2°C 40.1°F4.5°C 83% 1.1 mph N1.8 kmh N 2.7 mph4.3 kmh 30.39 in1029.1 mb 0.00 in0.0 mm 0.00 in0.0 mm 0.00 in0.0 mm
08:29 AM 45.1°F7.3°C 40.3°F4.6°C 83% 1.1 mph NNE1.8 kmh NNE 2.2 mph3.5 kmh 30.39 in1029.1 mb 0.00 in0.0 mm 0.00 in0.0 mm 0.00 in0.0 mm
08:30 AM 45.1°F7.3°C 40.3°F4.6°C 83% 1.1 mph ESE1.8 kmh ESE 2.2 mph3.5 kmh 30.39 in1029.1 mb 0.00 in0.0 mm 0.00 in0.0 mm 0.00 in0.0 mm
08:31 AM 45.1°F7.3°C 40.3°F4.6°C 83% 1.1 mph ESE1.8 kmh ESE 2.2 mph3.5 kmh 30.39 in1029.1 mb 0.00 in0.0 mm 0.00 in0.0 mm 0.00 in0.0 mm
08:32 AM 45.1°F7.3°C 40.3°F4.6°C 83% 1.1 mph NNW1.8 kmh NNW 2.2 mph3.5 kmh 30.39 in1029.1 mb 0.00 in0.0 mm 0.00 in0.0 mm 0.00 in0.0 mm
08:33 AM 45.1°F7.3°C 40.3°F4.6°C 83% 1.7 mph NNW2.7 kmh NNW 2.7 mph4.3 kmh 30.39 in1029.1 mb 0.00 in0.0 mm 0.00 in0.0 mm 0.00 in0.0 mm
08:34 AM 45.3°F7.4°C 40.5°F4.7°C 83% 1.7 mph WNW2.7 kmh WNW 2.7 mph4.3 kmh 30.39 in1029.1 mb 0.00 in0.0 mm 0.00 in0.0 mm 0.00 in0.0 mm
08:35 AM 45.3°F7.4°C 40.5°F4.7°C 83% 1.1 mph NNE1.8 kmh NNE 2.7 mph4.3 kmh 30.39 in1029.1 mb 0.00 in0.0 mm 0.00 in0.0 mm 0.00 in0.0 mm
08:36 AM 45.5°F7.5°C 40.6°F4.8°C 83% 1.7 mph NNW2.7 kmh NNW 2.7 mph4.3 kmh 30.39 in1029.1 mb 0.00 in0.0 mm 0.00 in0.0 mm 0.00 in0.0 mm
08:37 AM 45.5°F7.5°C 40.6°F4.8°C 83% 1.1 mph N1.8 kmh N 2.7 mph4.3 kmh 30.39 in1029.1 mb 0.00 in0.0 mm 0.00 in0.0 mm 0.00 in0.0 mm
08:38 AM 45.7°F7.6°C 40.5°F4.7°C 82% 1.1 mph NNE1.8 kmh NNE 2.7 mph4.3 kmh 30.39 in1029.1 mb 0.00 in0.0 mm 0.00 in0.0 mm 0.00 in0.0 mm
08:39 AM 45.9°F7.7°C 40.7°F4.8°C 82% 1.1 mph NNE1.8 kmh NNE 2.7 mph4.3 kmh 30.39 in1029.1 mb 0.00 in0.0 mm 0.00 in0.0 mm 0.00 in0.0 mm
08:40 AM 45.9°F7.7°C 40.7°F4.8°C 82% 1.1 mph NNE1.8 kmh NNE 2.7 mph4.3 kmh 30.39 in1029.1 mb 0.00 in0.0 mm 0.00 in0.0 mm 0.00 in0.0 mm
08:41 AM 46.0°F7.8°C 40.9°F4.9°C 82% 2.2 mph NNW3.5 kmh NNW 2.7 mph4.3 kmh 30.39 in1029.1 mb 0.00 in0.0 mm 0.00 in0.0 mm 0.00 in0.0 mm
08:42 AM 46.0°F7.8°C 40.9°F4.9°C 82% 1.1 mph NNE1.8 kmh NNE 2.7 mph4.3 kmh 30.39 in1029.1 mb 0.00 in0.0 mm 0.00 in0.0 mm 0.00 in0.0 mm
08:43 AM 46.0°F7.8°C 40.9°F4.9°C 82% 1.7 mph NNW2.7 kmh NNW 2.7 mph4.3 kmh 30.39 in1029.1 mb 0.00 in0.0 mm 0.00 in0.0 mm 0.00 in0.0 mm
08:44 AM 46.0°F7.8°C 41.2°F5.1°C 83% 1.7 mph NW2.7 kmh NW 2.7 mph4.3 kmh 30.39 in1029.1 mb 0.00 in0.0 mm 0.00 in0.0 mm 0.00 in0.0 mm
08:45 AM 46.0°F7.8°C 41.2°F5.1°C 83% 3.7 mph NW6.0 kmh NW 3.7 mph6.0 kmh 30.39 in1029.1 mb 0.00 in0.0 mm 0.00 in0.0 mm 0.00 in0.0 mm
08:46 AM 45.9°F7.7°C 41.0°F5.0°C 83% 2.2 mph NW3.5 kmh NW 3.7 mph6.0 kmh 30.39 in1029.1 mb 0.00 in0.0 mm 0.00 in0.0 mm 0.00 in0.0 mm
08:47 AM 45.9°F7.7°C 41.0°F5.0°C 83% 2.2 mph N3.5 kmh N 3.7 mph6.0 kmh 30.39 in1029.1 mb 0.00 in0.0 mm 0.00 in0.0 mm 0.00 in0.0 mm
08:48 AM 45.9°F7.7°C 41.0°F5.0°C 83% 1.1 mph NNW1.8 kmh NNW 3.7 mph6.0 kmh 30.39 in1029.1 mb 0.00 in0.0 mm 0.00 in0.0 mm 0.00 in0.0 mm
08:49 AM 45.9°F7.7°C 41.0°F5.0°C 83% 2.2 mph NNW3.5 kmh NNW 3.7 mph6.0 kmh 30.39 in1029.1 mb 0.00 in0.0 mm 0.00 in0.0 mm 0.00 in0.0 mm
08:50 AM 45.9°F7.7°C 40.7°F4.8°C 82% 2.7 mph NW4.3 kmh NW 3.7 mph6.0 kmh 30.39 in1029.1 mb 0.00 in0.0 mm 0.00 in0.0 mm 0.00 in0.0 mm
08:51 AM 45.9°F7.7°C 40.7°F4.8°C 82% 1.1 mph NE1.8 kmh NE 3.7 mph6.0 kmh 30.39 in1029.1 mb 0.00 in0.0 mm 0.00 in0.0 mm 0.00 in0.0 mm
08:52 AM 45.9°F7.7°C 40.7°F4.8°C 82% 1.7 mph NNE2.7 kmh NNE 3.7 mph6.0 kmh 30.40 in1029.5 mb 0.00 in0.0 mm 0.00 in0.0 mm 0.00 in0.0 mm
08:53 AM 45.9°F7.7°C 40.7°F4.8°C 82% 1.7 mph WNW2.7 kmh WNW 3.7 mph6.0 kmh 30.40 in1029.5 mb 0.00 in0.0 mm 0.00 in0.0 mm 0.00 in0.0 mm
08:54 AM 45.9°F7.7°C 40.7°F4.8°C 82% 1.1 mph N1.8 kmh N 3.7 mph6.0 kmh 30.40 in1029.5 mb 0.00 in0.0 mm 0.00 in0.0 mm 0.00 in0.0 mm
08:55 AM 46.0°F7.8°C 40.9°F4.9°C 82% 2.7 mph NNW4.3 kmh NNW 3.2 mph5.1 kmh 30.40 in1029.5 mb 0.00 in0.0 mm 0.00 in0.0 mm 0.00 in0.0 mm
08:56 AM 46.0°F7.8°C 40.9°F4.9°C 82% 2.2 mph NW3.5 kmh NW 3.2 mph5.1 kmh 30.40 in1029.5 mb 0.00 in0.0 mm 0.00 in0.0 mm 0.00 in0.0 mm
08:57 AM 46.0°F7.8°C 40.5°F4.7°C 81% 1.7 mph NNW2.7 kmh NNW 2.7 mph4.3 kmh 30.40 in1029.5 mb 0.00 in0.0 mm 0.00 in0.0 mm 0.00 in0.0 mm
08:58 AM 46.0°F7.8°C 41.2°F5.1°C 83% 2.7 mph WNW4.3 kmh WNW 2.7 mph4.3 kmh 30.40 in1029.5 mb 0.00 in0.0 mm 0.00 in0.0 mm 0.00 in0.0 mm
08:59 AM 46.0°F7.8°C 41.2°F5.1°C 83% 2.7 mph NNW4.3 kmh NNW 2.7 mph4.3 kmh 30.40 in1029.5 mb 0.00 in0.0 mm 0.00 in0.0 mm 0.00 in0.0 mm
09:00 AM 45.7°F7.6°C 40.8°F4.9°C 83% 2.7 mph NNW4.3 kmh NNW 2.7 mph4.3 kmh 30.40 in1029.5 mb 0.00 in0.0 mm 0.00 in0.0 mm 0.00 in0.0 mm
09:01 AM 45.7°F7.6°C 41.1°F5.1°C 84% 3.2 mph NNW5.1 kmh NNW 4.2 mph6.8 kmh 30.40 in1029.5 mb 0.00 in0.0 mm 0.00 in0.0 mm 0.00 in0.0 mm
09:02 AM 45.7°F7.6°C 41.1°F5.1°C 84% 1.7 mph NNW2.7 kmh NNW 4.2 mph6.8 kmh 30.40 in1029.5 mb 0.00 in0.0 mm 0.00 in0.0 mm 0.00 in0.0 mm
09:03 AM 45.7°F7.6°C 41.1°F5.1°C 84% 2.7 mph NW4.3 kmh NW 4.2 mph6.8 kmh 30.40 in1029.5 mb 0.00 in0.0 mm 0.00 in0.0 mm 0.00 in0.0 mm
09:04 AM 45.5°F7.5°C 40.6°F4.8°C 83% 1.7 mph NW2.7 kmh NW 4.2 mph6.8 kmh 30.40 in1029.5 mb 0.00 in0.0 mm 0.00 in0.0 mm 0.00 in0.0 mm
09:05 AM 45.5°F7.5°C 40.6°F4.8°C 83% 2.7 mph WNW4.3 kmh WNW 4.2 mph6.8 kmh 30.40 in1029.5 mb 0.00 in0.0 mm 0.00 in0.0 mm 0.00 in0.0 mm
09:06 AM 46.0°F7.8°C 40.9°F4.9°C 82% 2.2 mph NW3.5 kmh NW 4.2 mph6.8 kmh 30.40 in1029.5 mb 0.00 in0.0 mm 0.00 in0.0 mm 0.00 in0.0 mm
09:07 AM 46.2°F7.9°C 41.0°F5.0°C 82% 2.2 mph WNW3.5 kmh WNW 4.2 mph6.8 kmh 30.40 in1029.5 mb 0.00 in0.0 mm 0.00 in0.0 mm 0.00 in0.0 mm
09:08 AM 46.9°F8.3°C 41.4°F5.2°C 81% 1.7 mph NW2.7 kmh NW 4.2 mph6.8 kmh 30.40 in1029.5 mb 0.00 in0.0 mm 0.00 in0.0 mm 0.00 in0.0 mm
09:09 AM 47.3°F8.5°C 41.8°F5.4°C 81% Calm Calm 4.2 mph6.8 kmh 30.40 in1029.5 mb 0.00 in0.0 mm 0.00 in0.0 mm 0.00 in0.0 mm
09:10 AM 47.5°F8.6°C 41.6°F5.3°C 80% 1.1 mph NNW1.8 kmh NNW 4.2 mph6.8 kmh 30.40 in1029.5 mb 0.00 in0.0 mm 0.00 in0.0 mm 0.00 in0.0 mm
09:11 AM 47.8°F8.8°C 41.6°F5.3°C 79% 3.2 mph NE5.1 kmh NE 3.7 mph6.0 kmh 30.40 in1029.5 mb 0.00 in0.0 mm 0.00 in0.0 mm 0.00 in0.0 mm
09:12 AM 47.7°F8.7°C 41.5°F5.3°C 79% 1.7 mph ESE2.7 kmh ESE 3.7 mph6.0 kmh 30.40 in1029.5 mb 0.00 in0.0 mm 0.00 in0.0 mm 0.00 in0.0 mm
09:13 AM 47.7°F8.7°C 41.5°F5.3°C 79% 1.7 mph NE2.7 kmh NE 3.7 mph6.0 kmh 30.40 in1029.5 mb 0.00 in0.0 mm 0.00 in0.0 mm 0.00 in0.0 mm
09:14 AM 47.7°F8.7°C 41.5°F5.3°C 79% 1.1 mph NNE1.8 kmh NNE 3.7 mph6.0 kmh 30.40 in1029.5 mb 0.00 in0.0 mm 0.00 in0.0 mm 0.00 in0.0 mm
09:15 AM 48.0°F8.9°C 41.5°F5.3°C 78% 2.7 mph NNE4.3 kmh NNE 3.7 mph6.0 kmh 30.40 in1029.5 mb 0.00 in0.0 mm 0.00 in0.0 mm 0.00 in0.0 mm
09:16 AM 48.0°F8.9°C 41.5°F5.3°C 78% 1.7 mph ESE2.7 kmh ESE 3.2 mph5.1 kmh 30.40 in1029.5 mb 0.00 in0.0 mm 0.00 in0.0 mm 0.00 in0.0 mm
09:17 AM 48.2°F9.0°C 41.7°F5.4°C 78% 1.1 mph NNW1.8 kmh NNW 3.2 mph5.1 kmh 30.40 in1029.5 mb 0.00 in0.0 mm 0.00 in0.0 mm 0.00 in0.0 mm
09:18 AM 48.4°F9.1°C 41.8°F5.4°C 78% 1.7 mph NNE2.7 kmh NNE 3.2 mph5.1 kmh 30.40 in1029.5 mb 0.00 in0.0 mm 0.00 in0.0 mm 0.00 in0.0 mm
09:19 AM 48.4°F9.1°C 41.8°F5.4°C 78% 2.2 mph NW3.5 kmh NW 3.2 mph5.1 kmh 30.40 in1029.5 mb 0.00 in0.0 mm 0.00 in0.0 mm 0.00 in0.0 mm
09:20 AM 48.4°F9.1°C 41.5°F5.3°C 77% 1.7 mph NNE2.7 kmh NNE 3.2 mph5.1 kmh 30.40 in1029.5 mb 0.00 in0.0 mm 0.00 in0.0 mm 0.00 in0.0 mm
09:21 AM 48.6°F9.2°C 42.0°F5.6°C 78% 1.1 mph N1.8 kmh N 3.2 mph5.1 kmh 30.40 in1029.5 mb 0.00 in0.0 mm 0.00 in0.0 mm 0.00 in0.0 mm
09:22 AM 48.6°F9.2°C 42.0°F5.6°C 78% 1.1 mph NNE1.8 kmh NNE 3.2 mph5.1 kmh 30.40 in1029.5 mb 0.00 in0.0 mm 0.00 in0.0 mm 0.00 in0.0 mm
09:23 AM 48.6°F9.2°C 42.3°F5.7°C 79% 1.7 mph NNW2.7 kmh NNW 3.2 mph5.1 kmh 30.40 in1029.5 mb 0.00 in0.0 mm 0.00 in0.0 mm 0.00 in0.0 mm
09:24 AM 48.4°F9.1°C 41.8°F5.4°C 78% Calm Calm 3.2 mph5.1 kmh 30.40 in1029.5 mb 0.00 in0.0 mm 0.00 in0.0 mm 0.00 in0.0 mm
09:25 AM 48.7°F9.3°C 42.5°F5.8°C 79% 2.2 mph NW3.5 kmh NW 2.7 mph4.3 kmh 30.40 in1029.5 mb 0.00 in0.0 mm 0.00 in0.0 mm 0.00 in0.0 mm
09:26 AM 48.6°F9.2°C 42.0°F5.6°C 78% 1.1 mph N1.8 kmh N 2.7 mph4.3 kmh 30.40 in1029.5 mb 0.00 in0.0 mm 0.00 in0.0 mm 0.00 in0.0 mm
09:27 AM 48.4°F9.1°C 41.8°F5.4°C 78% 1.7 mph NNW2.7 kmh NNW 2.7 mph4.3 kmh 30.40 in1029.5 mb 0.00 in0.0 mm 0.00 in0.0 mm 0.00 in0.0 mm
09:28 AM 48.0°F8.9°C 41.8°F5.4°C 79% 1.1 mph NNW1.8 kmh NNW 2.7 mph4.3 kmh 30.40 in1029.5 mb 0.00 in0.0 mm 0.00 in0.0 mm 0.00 in0.0 mm
09:29 AM 48.4°F9.1°C 42.2°F5.7°C 79% 1.1 mph ESE1.8 kmh ESE 2.7 mph4.3 kmh 30.40 in1029.5 mb 0.00 in0.0 mm 0.00 in0.0 mm 0.00 in0.0 mm
09:30 AM 48.7°F9.3°C 41.9°F5.5°C 77% 2.2 mph NE3.5 kmh NE 2.2 mph3.5 kmh 30.40 in1029.5 mb 0.00 in0.0 mm 0.00 in0.0 mm 0.00 in0.0 mm
09:31 AM 48.7°F9.3°C 41.9°F5.5°C 77% 2.7 mph NE4.3 kmh NE 2.7 mph4.3 kmh 30.40 in1029.5 mb 0.00 in0.0 mm 0.00 in0.0 mm 0.00 in0.0 mm
09:32 AM 48.7°F9.3°C 41.9°F5.5°C 77% Calm Calm 2.7 mph4.3 kmh 30.40 in1029.5 mb 0.00 in0.0 mm 0.00 in0.0 mm 0.00 in0.0 mm
09:33 AM 49.3°F9.6°C 42.4°F5.8°C 77% 1.7 mph NNW2.7 kmh NNW 2.7 mph4.3 kmh 30.40 in1029.5 mb 0.00 in0.0 mm 0.00 in0.0 mm 0.00 in0.0 mm
09:34 AM 49.5°F9.7°C 42.2°F5.7°C 76% 2.2 mph NW3.5 kmh NW 2.7 mph4.3 kmh 30.40 in1029.5 mb 0.00 in0.0 mm 0.00 in0.0 mm 0.00 in0.0 mm
09:35 AM 49.8°F9.9°C 42.9°F6.1°C 77% 3.7 mph WNW6.0 kmh WNW 3.7 mph6.0 kmh 30.40 in1029.5 mb 0.00 in0.0 mm 0.00 in0.0 mm 0.00 in0.0 mm
09:36 AM 49.8°F9.9°C 42.9°F6.1°C 77% 4.7 mph WNW7.6 kmh WNW 4.7 mph7.6 kmh 30.40 in1029.5 mb 0.00 in0.0 mm 0.00 in0.0 mm 0.00 in0.0 mm
09:37 AM 49.6°F9.8°C 42.7°F5.9°C 77% 2.2 mph NNW3.5 kmh NNW 4.7 mph7.6 kmh 30.40 in1029.5 mb 0.00 in0.0 mm 0.00 in0.0 mm 0.00 in0.0 mm
09:38 AM 48.9°F9.4°C 42.4°F5.8°C 78% 3.2 mph NW5.1 kmh NW 4.7 mph7.6 kmh 30.40 in1029.5 mb 0.00 in0.0 mm 0.00 in0.0 mm 0.00 in0.0 mm
09:39 AM 48.7°F9.3°C 42.2°F5.7°C 78% 2.2 mph NNW3.5 kmh NNW 4.7 mph7.6 kmh 30.41 in1029.8 mb 0.00 in0.0 mm 0.00 in0.0 mm 0.00 in0.0 mm
09:40 AM 48.4°F9.1°C 42.2°F5.7°C 79% 1.7 mph N2.7 kmh N 4.7 mph7.6 kmh 30.41 in1029.8 mb 0.00 in0.0 mm 0.00 in0.0 mm 0.00 in0.0 mm
09:41 AM 48.2°F9.0°C 42.3°F5.7°C 80% 1.7 mph NNW2.7 kmh NNW 4.7 mph7.6 kmh 30.41 in1029.8 mb 0.00 in0.0 mm 0.00 in0.0 mm 0.00 in0.0 mm
09:42 AM 48.0°F8.9°C 42.1°F5.6°C 80% 3.2 mph WNW5.1 kmh WNW 4.7 mph7.6 kmh 30.41 in1029.8 mb 0.00 in0.0 mm 0.00 in0.0 mm 0.00 in0.0 mm
09:43 AM 48.2°F9.0°C 42.6°F5.9°C 81% 5.3 mph WNW8.5 kmh WNW 5.3 mph8.5 kmh 30.41 in1029.8 mb 0.00 in0.0 mm 0.00 in0.0 mm 0.00 in0.0 mm
09:44 AM 48.4°F9.1°C 42.5°F5.8°C 80% 3.7 mph NW6.0 kmh NW 5.3 mph8.5 kmh 30.41 in1029.8 mb 0.00 in0.0 mm 0.00 in0.0 mm 0.00 in0.0 mm
09:45 AM 48.6°F9.2°C 42.7°F5.9°C 80% 5.8 mph WNW9.3 kmh WNW 5.8 mph9.3 kmh 30.41 in1029.8 mb 0.00 in0.0 mm 0.00 in0.0 mm 0.00 in0.0 mm
09:46 AM 48.4°F9.1°C 42.5°F5.8°C 80% 3.7 mph WNW6.0 kmh WNW 5.8 mph9.3 kmh 30.41 in1029.8 mb 0.00 in0.0 mm 0.00 in0.0 mm 0.00 in0.0 mm
09:47 AM 48.4°F9.1°C 42.5°F5.8°C 80% 4.7 mph W7.6 kmh W 5.8 mph9.3 kmh 30.41 in1029.8 mb 0.00 in0.0 mm 0.00 in0.0 mm 0.00 in0.0 mm
09:48 AM 48.6°F9.2°C 43.0°F6.1°C 81% 4.2 mph NW6.8 kmh NW 6.3 mph10.1 kmh 30.41 in1029.8 mb 0.00 in0.0 mm 0.00 in0.0 mm 0.00 in0.0 mm
09:49 AM 48.7°F9.3°C 43.2°F6.2°C 81% 3.7 mph NW6.0 kmh NW 6.3 mph10.1 kmh 30.41 in1029.8 mb 0.00 in0.0 mm 0.00 in0.0 mm 0.00 in0.0 mm
09:50 AM 48.9°F9.4°C 43.0°F6.1°C 80% 3.7 mph NNW6.0 kmh NNW 6.3 mph10.1 kmh 30.41 in1029.8 mb 0.00 in0.0 mm 0.00 in0.0 mm 0.00 in0.0 mm
09:51 AM 48.7°F9.3°C 42.9°F6.1°C 80% 4.2 mph WNW6.8 kmh WNW 6.3 mph10.1 kmh 30.41 in1029.8 mb 0.00 in0.0 mm 0.00 in0.0 mm 0.00 in0.0 mm
09:52 AM 48.6°F9.2°C 42.7°F5.9°C 80% 4.7 mph WNW7.6 kmh WNW 6.3 mph10.1 kmh 30.41 in1029.8 mb 0.00 in0.0 mm 0.00 in0.0 mm 0.00 in0.0 mm
09:53 AM 48.9°F9.4°C 43.0°F6.1°C 80% 5.8 mph WNW9.3 kmh WNW 6.8 mph10.9 kmh 30.41 in1029.8 mb 0.00 in0.0 mm 0.00 in0.0 mm 0.00 in0.0 mm
09:54 AM 48.9°F9.4°C 42.7°F5.9°C 79% 5.8 mph WNW9.3 kmh WNW 7.3 mph11.7 kmh 30.41 in1029.8 mb 0.00 in0.0 mm 0.00 in0.0 mm 0.00 in0.0 mm
09:55 AM 48.6°F9.2°C 42.3°F5.7°C 79% 5.8 mph WNW9.3 kmh WNW 7.3 mph11.7 kmh 30.41 in1029.8 mb 0.00 in0.0 mm 0.00 in0.0 mm 0.00 in0.0 mm
09:56 AM 48.0°F8.9°C 41.8°F5.4°C 79% 4.2 mph WNW6.8 kmh WNW 7.3 mph11.7 kmh 30.41 in1029.8 mb 0.00 in0.0 mm 0.00 in0.0 mm 0.00 in0.0 mm
09:57 AM 47.8°F8.8°C 42.0°F5.6°C 80% 2.7 mph NNW4.3 kmh NNW 7.3 mph11.7 kmh 30.41 in1029.8 mb 0.00 in0.0 mm 0.00 in0.0 mm 0.00 in0.0 mm
09:58 AM 47.7°F8.7°C 42.1°F5.6°C 81% 3.2 mph NW5.1 kmh NW 7.3 mph11.7 kmh 30.41 in1029.8 mb 0.00 in0.0 mm 0.00 in0.0 mm 0.00 in0.0 mm
09:59 AM 47.7°F8.7°C 42.1°F5.6°C 81% 3.7 mph NNW6.0 kmh NNW 7.3 mph11.7 kmh 30.41 in1029.8 mb 0.00 in0.0 mm 0.00 in0.0 mm 0.00 in0.0 mm
10:00 AM 48.2°F9.0°C 42.6°F5.9°C 81% 5.3 mph WNW8.5 kmh WNW 7.3 mph11.7 kmh 30.41 in1029.8 mb 0.00 in0.0 mm 0.00 in0.0 mm 0.00 in0.0 mm
10:01 AM 48.2°F9.0°C 42.6°F5.9°C 81% 3.7 mph NNW6.0 kmh NNW 7.3 mph11.7 kmh 30.41 in1029.8 mb 0.00 in0.0 mm 0.00 in0.0 mm 0.00 in0.0 mm
10:02 AM 48.2°F9.0°C 42.6°F5.9°C 81% 6.3 mph NW10.1 kmh NW 7.3 mph11.7 kmh 30.41 in1029.8 mb 0.00 in0.0 mm 0.00 in0.0 mm 0.00 in0.0 mm
10:03 AM 48.2°F9.0°C 42.6°F5.9°C 81% 4.7 mph W7.6 kmh W 7.3 mph11.7 kmh 30.41 in1029.8 mb 0.00 in0.0 mm 0.00 in0.0 mm 0.00 in0.0 mm
10:04 AM 48.0°F8.9°C 42.8°F6.0°C 82% 4.7 mph WNW7.6 kmh WNW 7.3 mph11.7 kmh 30.41 in1029.8 mb 0.00 in0.0 mm 0.00 in0.0 mm 0.00 in0.0 mm
10:05 AM 48.4°F9.1°C 43.1°F6.2°C 82% 5.8 mph WNW9.3 kmh WNW 6.3 mph10.1 kmh 30.41 in1029.8 mb 0.00 in0.0 mm 0.00 in0.0 mm 0.00 in0.0 mm
10:06 AM 48.6°F9.2°C 43.3°F6.3°C 82% 4.2 mph WNW6.8 kmh WNW 6.3 mph10.1 kmh 30.41 in1029.8 mb 0.00 in0.0 mm 0.00 in0.0 mm 0.00 in0.0 mm
10:07 AM 48.6°F9.2°C 43.0°F6.1°C 81% 4.2 mph NW6.8 kmh NW 6.3 mph10.1 kmh 30.41 in1029.8 mb 0.00 in0.0 mm 0.00 in0.0 mm 0.00 in0.0 mm
10:08 AM 49.1°F9.5°C 43.2°F6.2°C 80% 2.2 mph NNW3.5 kmh NNW 6.3 mph10.1 kmh 30.41 in1029.8 mb 0.00 in0.0 mm 0.00 in0.0 mm 0.00 in0.0 mm
10:09 AM 48.9°F9.4°C 43.0°F6.1°C 80% 3.7 mph WNW6.0 kmh WNW 6.3 mph10.1 kmh 30.41 in1029.8 mb 0.00 in0.0 mm 0.00 in0.0 mm 0.00 in0.0 mm
10:10 AM 48.7°F9.3°C 43.2°F6.2°C 81% 2.2 mph NW3.5 kmh NW 6.3 mph10.1 kmh 30.41 in1029.8 mb 0.00 in0.0 mm 0.00 in0.0 mm 0.00 in0.0 mm
10:11 AM 48.6°F9.2°C 43.0°F6.1°C 81% 6.3 mph NW10.1 kmh NW 6.3 mph10.1 kmh 30.41 in1029.8 mb 0.00 in0.0 mm 0.00 in0.0 mm 0.00 in0.0 mm
10:12 AM 48.6°F9.2°C 43.3°F6.3°C 82% 2.7 mph NNW4.3 kmh NNW 6.3 mph10.1 kmh 30.41 in1029.8 mb 0.00 in0.0 mm 0.00 in0.0 mm 0.00 in0.0 mm
10:13 AM 48.4°F9.1°C 43.5°F6.4°C 83% 4.7 mph NW7.6 kmh NW 6.3 mph10.1 kmh 30.41 in1029.8 mb 0.00 in0.0 mm 0.00 in0.0 mm 0.00 in0.0 mm
10:14 AM 48.0°F8.9°C 42.8°F6.0°C 82% 3.7 mph NW6.0 kmh NW 6.3 mph10.1 kmh 30.41 in1029.8 mb 0.00 in0.0 mm 0.00 in0.0 mm 0.00 in0.0 mm
10:15 AM 47.8°F8.8°C 42.3°F5.7°C 81% 2.7 mph WNW4.3 kmh WNW 6.3 mph10.1 kmh 30.41 in1029.8 mb 0.00 in0.0 mm 0.00 in0.0 mm 0.00 in0.0 mm
10:16 AM 47.8°F8.8°C 42.3°F5.7°C 81% 4.7 mph NW7.6 kmh NW 6.3 mph10.1 kmh 30.39 in1029.1 mb 0.00 in0.0 mm 0.00 in0.0 mm 0.00 in0.0 mm
10:17 AM 47.7°F8.7°C 42.1°F5.6°C 81% 2.7 mph WNW4.3 kmh WNW 6.3 mph10.1 kmh 30.39 in1029.1 mb 0.00 in0.0 mm 0.00 in0.0 mm 0.00 in0.0 mm
10:18 AM 47.8°F8.8°C 42.3°F5.7°C 81% 3.7 mph NNW6.0 kmh NNW 6.3 mph10.1 kmh 30.39 in1029.1 mb 0.00 in0.0 mm 0.00 in0.0 mm 0.00 in0.0 mm
10:19 AM 48.0°F8.9°C 42.8°F6.0°C 82% 2.7 mph NNW4.3 kmh NNW 6.3 mph10.1 kmh 30.39 in1029.1 mb 0.00 in0.0 mm 0.00 in0.0 mm 0.00 in0.0 mm
10:20 AM 48.2°F9.0°C 42.6°F5.9°C 81% 2.2 mph E3.5 kmh E 6.3 mph10.1 kmh 30.39 in1029.1 mb 0.00 in0.0 mm 0.00 in0.0 mm 0.00 in0.0 mm
10:21 AM 48.4°F9.1°C 42.8°F6.0°C 81% 2.7 mph NNW4.3 kmh NNW 5.8 mph9.3 kmh 30.39 in1029.1 mb 0.00 in0.0 mm 0.00 in0.0 mm 0.00 in0.0 mm
10:22 AM 48.4°F9.1°C 42.8°F6.0°C 81% 2.7 mph NW4.3 kmh NW 5.8 mph9.3 kmh 30.39 in1029.1 mb 0.00 in0.0 mm 0.00 in0.0 mm 0.00 in0.0 mm
10:23 AM 48.4°F9.1°C 42.8°F6.0°C 81% 2.7 mph NW4.3 kmh NW 5.8 mph9.3 kmh 30.39 in1029.1 mb 0.00 in0.0 mm 0.00 in0.0 mm 0.00 in0.0 mm
10:24 AM 48.2°F9.0°C 42.3°F5.7°C 80% 2.7 mph NW4.3 kmh NW 5.8 mph9.3 kmh 30.39 in1029.1 mb 0.00 in0.0 mm 0.00 in0.0 mm 0.00 in0.0 mm
10:25 AM 48.2°F9.0°C 42.3°F5.7°C 80% 2.2 mph W3.5 kmh W 5.8 mph9.3 kmh 30.39 in1029.1 mb 0.00 in0.0 mm 0.00 in0.0 mm 0.00 in0.0 mm
10:26 AM 48.2°F9.0°C 42.3°F5.7°C 80% 4.2 mph NW6.8 kmh NW 6.8 mph10.9 kmh 30.39 in1029.1 mb 0.00 in0.0 mm 0.00 in0.0 mm 0.00 in0.0 mm
10:27 AM 48.2°F9.0°C 42.6°F5.9°C 81% 3.2 mph NW5.1 kmh NW 6.8 mph10.9 kmh 30.39 in1029.1 mb 0.00 in0.0 mm 0.00 in0.0 mm 0.00 in0.0 mm
10:28 AM 48.0°F8.9°C 42.5°F5.8°C 81% 1.7 mph NNE2.7 kmh NNE 6.8 mph10.9 kmh 30.39 in1029.1 mb 0.00 in0.0 mm 0.00 in0.0 mm 0.00 in0.0 mm
10:29 AM 47.8°F8.8°C 41.6°F5.3°C 79% 1.1 mph NNE1.8 kmh NNE 6.8 mph10.9 kmh 30.39 in1029.1 mb 0.00 in0.0 mm 0.00 in0.0 mm 0.00 in0.0 mm
10:30 AM 47.8°F8.8°C 42.0°F5.6°C 80% 5.3 mph NNW8.5 kmh NNW 6.8 mph10.9 kmh 30.39 in1029.1 mb 0.00 in0.0 mm 0.00 in0.0 mm 0.00 in0.0 mm
10:31 AM 48.2°F9.0°C 43.0°F6.1°C 82% 2.7 mph NNW4.3 kmh NNW 6.8 mph10.9 kmh 30.39 in1029.1 mb 0.00 in0.0 mm 0.00 in0.0 mm 0.00 in0.0 mm
10:32 AM 48.2°F9.0°C 42.6°F5.9°C 81% 5.3 mph NNW8.5 kmh NNW 6.8 mph10.9 kmh 30.39 in1029.1 mb 0.00 in0.0 mm 0.00 in0.0 mm 0.00 in0.0 mm
10:33 AM 48.2°F9.0°C 42.6°F5.9°C 81% 7.3 mph NW11.7 kmh NW 7.3 mph11.7 kmh 30.39 in1029.1 mb 0.00 in0.0 mm 0.00 in0.0 mm 0.00 in0.0 mm
10:34 AM 48.0°F8.9°C 42.5°F5.8°C 81% 1.1 mph NNW1.8 kmh NNW 7.3 mph11.7 kmh 30.39 in1029.1 mb 0.00 in0.0 mm 0.00 in0.0 mm 0.00 in0.0 mm
10:35 AM 48.2°F9.0°C 42.0°F5.6°C 79% 3.7 mph NW6.0 kmh NW 7.3 mph11.7 kmh 30.39 in1029.1 mb 0.00 in0.0 mm 0.00 in0.0 mm 0.00 in0.0 mm
10:36 AM 48.2°F9.0°C 42.3°F5.7°C 80% 3.7 mph NW6.0 kmh NW 7.3 mph11.7 kmh 30.39 in1029.1 mb 0.00 in0.0 mm 0.00 in0.0 mm 0.00 in0.0 mm
10:37 AM 48.4°F9.1°C 42.8°F6.0°C 81% 1.7 mph N2.7 kmh N 7.3 mph11.7 kmh 30.39 in1029.1 mb 0.00 in0.0 mm 0.00 in0.0 mm 0.00 in0.0 mm
10:38 AM 48.6°F9.2°C 42.7°F5.9°C 80% 1.7 mph NNW2.7 kmh NNW 7.3 mph11.7 kmh 30.39 in1029.1 mb 0.00 in0.0 mm 0.00 in0.0 mm 0.00 in0.0 mm
10:39 AM 48.7°F9.3°C 42.5°F5.8°C 79% 3.2 mph NNW5.1 kmh NNW 7.3 mph11.7 kmh 30.39 in1029.1 mb 0.00 in0.0 mm 0.00 in0.0 mm 0.00 in0.0 mm
10:40 AM 48.7°F9.3°C 42.5°F5.8°C 79% 2.2 mph NW3.5 kmh NW 7.3 mph11.7 kmh 30.39 in1029.1 mb 0.00 in0.0 mm 0.00 in0.0 mm 0.00 in0.0 mm
10:41 AM 49.3°F9.6°C 43.0°F6.1°C 79% 1.1 mph NNE1.8 kmh NNE 7.3 mph11.7 kmh 30.39 in1029.1 mb 0.00 in0.0 mm 0.00 in0.0 mm 0.00 in0.0 mm
10:42 AM 49.8°F9.9°C 43.2°F6.2°C 78% 1.7 mph NNW2.7 kmh NNW 7.3 mph11.7 kmh 30.39 in1029.1 mb 0.00 in0.0 mm 0.00 in0.0 mm 0.00 in0.0 mm
10:43 AM 49.8°F9.9°C 42.6°F5.9°C 76% 3.7 mph NW6.0 kmh NW 7.3 mph11.7 kmh 30.39 in1029.1 mb 0.00 in0.0 mm 0.00 in0.0 mm 0.00 in0.0 mm
10:44 AM 50.2°F10.1°C 42.6°F5.9°C 75% 1.7 mph NW2.7 kmh NW 4.7 mph7.6 kmh 30.39 in1029.1 mb 0.00 in0.0 mm 0.00 in0.0 mm 0.00 in0.0 mm
10:45 AM 50.2°F10.1°C 42.9°F6.1°C 76% 6.8 mph WNW10.9 kmh WNW 6.8 mph10.9 kmh 30.39 in1029.1 mb 0.00 in0.0 mm 0.00 in0.0 mm 0.00 in0.0 mm
10:46 AM 50.2°F10.1°C 43.6°F6.4°C 78% 4.7 mph NW7.6 kmh NW 8.3 mph13.4 kmh 30.39 in1029.1 mb 0.00 in0.0 mm 0.00 in0.0 mm 0.00 in0.0 mm
10:47 AM 49.6°F9.8°C 43.1°F6.2°C 78% 5.3 mph NW8.5 kmh NW 8.3 mph13.4 kmh 30.39 in1029.1 mb 0.00 in0.0 mm 0.00 in0.0 mm 0.00 in0.0 mm
10:48 AM 49.5°F9.7°C 43.2°F6.2°C 79% 4.2 mph WNW6.8 kmh WNW 8.3 mph13.4 kmh 30.39 in1029.1 mb 0.00 in0.0 mm 0.00 in0.0 mm 0.00 in0.0 mm
10:49 AM 49.1°F9.5°C 43.2°F6.2°C 80% 4.2 mph WNW6.8 kmh WNW 8.3 mph13.4 kmh 30.39 in1029.1 mb 0.00 in0.0 mm 0.00 in0.0 mm 0.00 in0.0 mm
10:50 AM 49.1°F9.5°C 42.9°F6.1°C 79% 4.2 mph NW6.8 kmh NW 8.3 mph13.4 kmh 30.39 in1029.1 mb 0.00 in0.0 mm 0.00 in0.0 mm 0.00 in0.0 mm
10:51 AM 49.1°F9.5°C 43.2°F6.2°C 80% 3.7 mph NW6.0 kmh NW 8.3 mph13.4 kmh 30.38 in1028.8 mb 0.00 in0.0 mm 0.00 in0.0 mm 0.00 in0.0 mm
10:52 AM 48.4°F9.1°C 42.2°F5.7°C 79% 2.7 mph NW4.3 kmh NW 8.3 mph13.4 kmh 30.38 in1028.8 mb 0.00 in0.0 mm 0.00 in0.0 mm 0.00 in0.0 mm
10:53 AM 48.4°F9.1°C 42.5°F5.8°C 80% 5.3 mph WNW8.5 kmh WNW 8.3 mph13.4 kmh 30.38 in1028.8 mb 0.00 in0.0 mm 0.00 in0.0 mm 0.00 in0.0 mm
10:54 AM 48.4°F9.1°C 42.5°F5.8°C 80% 3.7 mph WNW6.0 kmh WNW 8.3 mph13.4 kmh 30.38 in1028.8 mb 0.00 in0.0 mm 0.00 in0.0 mm 0.00 in0.0 mm
10:55 AM 48.6°F9.2°C 43.0°F6.1°C 81% 3.7 mph W6.0 kmh W 8.3 mph13.4 kmh 30.38 in1028.8 mb 0.00 in0.0 mm 0.00 in0.0 mm 0.00 in0.0 mm
10:56 AM 48.2°F9.0°C 42.0°F5.6°C 79% Calm Calm 6.3 mph10.1 kmh 30.38 in1028.8 mb 0.00 in0.0 mm 0.00 in0.0 mm 0.00 in0.0 mm
10:57 AM 48.4°F9.1°C 42.2°F5.7°C 79% Calm Calm 6.3 mph10.1 kmh 30.38 in1028.8 mb 0.00 in0.0 mm 0.00 in0.0 mm 0.00 in0.0 mm
10:58 AM 48.9°F9.4°C 43.0°F6.1°C 80% 2.2 mph NW3.5 kmh NW 6.3 mph10.1 kmh 30.38 in1028.8 mb 0.00 in0.0 mm 0.00 in0.0 mm 0.00 in0.0 mm
10:59 AM 49.6°F9.8°C 42.7°F5.9°C 77% 1.7 mph N2.7 kmh N 5.3 mph8.5 kmh 30.38 in1028.8 mb 0.00 in0.0 mm 0.00 in0.0 mm 0.00 in0.0 mm
11:00 AM 49.8°F9.9°C 42.9°F6.1°C 77% 1.7 mph NNW2.7 kmh NNW 5.3 mph8.5 kmh 30.38 in1028.8 mb 0.00 in0.0 mm 0.00 in0.0 mm 0.00 in0.0 mm
11:01 AM 50.0°F10.0°C 42.7°F5.9°C 76% 2.7 mph NW4.3 kmh NW 5.3 mph8.5 kmh 30.38 in1028.8 mb 0.00 in0.0 mm 0.00 in0.0 mm 0.00 in0.0 mm
11:02 AM 50.4°F10.2°C 42.7°F5.9°C 75% 2.7 mph WNW4.3 kmh WNW 5.3 mph8.5 kmh 30.38 in1028.8 mb 0.00 in0.0 mm 0.00 in0.0 mm 0.00 in0.0 mm
11:03 AM 50.4°F10.2°C 42.7°F5.9°C 75% 2.2 mph WNW3.5 kmh WNW 5.3 mph8.5 kmh 30.37 in1028.4 mb 0.00 in0.0 mm 0.00 in0.0 mm 0.00 in0.0 mm
11:04 AM 50.5°F10.3°C 43.3°F6.3°C 76% 3.7 mph W6.0 kmh W 4.2 mph6.8 kmh 30.37 in1028.4 mb 0.00 in0.0 mm 0.00 in0.0 mm 0.00 in0.0 mm
11:05 AM 50.7°F10.4°C 43.4°F6.3°C 76% 2.7 mph NW4.3 kmh NW 4.2 mph6.8 kmh 30.37 in1028.4 mb 0.00 in0.0 mm 0.00 in0.0 mm 0.00 in0.0 mm
11:06 AM 50.7°F10.4°C 43.4°F6.3°C 76% 3.2 mph WNW5.1 kmh WNW 4.2 mph6.8 kmh 30.37 in1028.4 mb 0.00 in0.0 mm 0.00 in0.0 mm 0.00 in0.0 mm
11:07 AM 50.9°F10.5°C 43.6°F6.4°C 76% 2.2 mph NW3.5 kmh NW 4.2 mph6.8 kmh 30.37 in1028.4 mb 0.00 in0.0 mm 0.00 in0.0 mm 0.00 in0.0 mm
11:08 AM 50.9°F10.5°C 44.3°F6.8°C 78% 3.7 mph WNW6.0 kmh WNW 4.2 mph6.8 kmh 30.37 in1028.4 mb 0.00 in0.0 mm 0.00 in0.0 mm 0.00 in0.0 mm
11:09 AM 51.1°F10.6°C 44.5°F6.9°C 78% 8.3 mph W13.4 kmh W 8.3 mph13.4 kmh 30.37 in1028.4 mb 0.00 in0.0 mm 0.00 in0.0 mm 0.00 in0.0 mm
11:10 AM 51.1°F10.6°C 44.1°F6.7°C 77% 3.2 mph NNE5.1 kmh NNE 8.3 mph13.4 kmh 30.37 in1028.4 mb 0.00 in0.0 mm 0.00 in0.0 mm 0.00 in0.0 mm
11:11 AM 50.9°F10.5°C 43.6°F6.4°C 76% 3.7 mph NNE6.0 kmh NNE 8.3 mph13.4 kmh 30.37 in1028.4 mb 0.00 in0.0 mm 0.00 in0.0 mm 0.00 in0.0 mm
11:12 AM 50.5°F10.3°C 43.3°F6.3°C 76% 1.7 mph WNW2.7 kmh WNW 8.3 mph13.4 kmh 30.37 in1028.4 mb 0.00 in0.0 mm 0.00 in0.0 mm 0.00 in0.0 mm
11:13 AM 50.4°F10.2°C 43.4°F6.3°C 77% 4.7 mph NW7.6 kmh NW 8.3 mph13.4 kmh 30.37 in1028.4 mb 0.00 in0.0 mm 0.00 in0.0 mm 0.00 in0.0 mm
11:14 AM 50.4°F10.2°C 43.4°F6.3°C 77% 3.7 mph NW6.0 kmh NW 8.3 mph13.4 kmh 30.37 in1028.4 mb 0.00 in0.0 mm 0.00 in0.0 mm 0.00 in0.0 mm
11:15 AM 50.4°F10.2°C 43.8°F6.6°C 78% 1.7 mph N2.7 kmh N 8.3 mph13.4 kmh 30.37 in1028.4 mb 0.00 in0.0 mm 0.00 in0.0 mm 0.00 in0.0 mm
11:16 AM 50.5°F10.3°C 43.9°F6.6°C 78% 2.7 mph NNW4.3 kmh NNW 8.3 mph13.4 kmh 30.36 in1028.1 mb 0.00 in0.0 mm 0.00 in0.0 mm 0.00 in0.0 mm
11:17 AM 50.5°F10.3°C 43.9°F6.6°C 78% 2.2 mph NNW3.5 kmh NNW 8.3 mph13.4 kmh 30.36 in1028.1 mb 0.00 in0.0 mm 0.00 in0.0 mm 0.00 in0.0 mm
11:18 AM 50.4°F10.2°C 42.7°F5.9°C 75% 1.1 mph N1.8 kmh N 8.3 mph13.4 kmh 30.36 in1028.1 mb 0.00 in0.0 mm 0.00 in0.0 mm 0.00 in0.0 mm
11:19 AM 50.0°F10.0°C 42.4°F5.8°C 75% Calm Calm 8.3 mph13.4 kmh 30.36 in1028.1 mb 0.00 in0.0 mm 0.00 in0.0 mm 0.00 in0.0 mm
11:20 AM 50.2°F10.1°C 42.2°F5.7°C 74% 1.1 mph N1.8 kmh N 4.7 mph7.6 kmh 30.36 in1028.1 mb 0.00 in0.0 mm 0.00 in0.0 mm 0.00 in0.0 mm
11:21 AM 51.1°F10.6°C 43.1°F6.2°C 74% 1.7 mph N2.7 kmh N 4.7 mph7.6 kmh 30.36 in1028.1 mb 0.00 in0.0 mm 0.00 in0.0 mm 0.00 in0.0 mm
11:22 AM 51.4°F10.8°C 43.4°F6.3°C 74% 1.1 mph NNW1.8 kmh NNW 4.7 mph7.6 kmh 30.36 in1028.1 mb 0.00 in0.0 mm 0.00 in0.0 mm 0.00 in0.0 mm
11:23 AM 52.0°F11.1°C 43.6°F6.4°C 73% 2.2 mph NNE3.5 kmh NNE 4.7 mph7.6 kmh 30.36 in1028.1 mb 0.00 in0.0 mm 0.00 in0.0 mm 0.00 in0.0 mm
11:24 AM 52.0°F11.1°C 43.2°F6.2°C 72% 1.1 mph WNW1.8 kmh WNW 3.7 mph6.0 kmh 30.36 in1028.1 mb 0.00 in0.0 mm 0.00 in0.0 mm 0.00 in0.0 mm
11:25 AM 52.3°F11.3°C 43.9°F6.6°C 73% 3.7 mph WNW6.0 kmh WNW 3.7 mph6.0 kmh 30.36 in1028.1 mb 0.00 in0.0 mm 0.00 in0.0 mm 0.00 in0.0 mm
11:26 AM 52.3°F11.3°C 43.9°F6.6°C 73% 5.3 mph NW8.5 kmh NW 6.8 mph10.9 kmh 30.36 in1028.1 mb 0.00 in0.0 mm 0.00 in0.0 mm 0.00 in0.0 mm
11:27 AM 52.3°F11.3°C 43.9°F6.6°C 73% 2.2 mph N3.5 kmh N 6.8 mph10.9 kmh 30.36 in1028.1 mb 0.00 in0.0 mm 0.00 in0.0 mm 0.00 in0.0 mm
11:28 AM 51.8°F11.0°C 43.8°F6.6°C 74% 4.2 mph NW6.8 kmh NW 6.8 mph10.9 kmh 30.35 in1027.8 mb 0.00 in0.0 mm 0.00 in0.0 mm 0.00 in0.0 mm
11:29 AM 51.3°F10.7°C 43.3°F6.3°C 74% 2.7 mph NW4.3 kmh NW 6.8 mph10.9 kmh 30.35 in1027.8 mb 0.00 in0.0 mm 0.00 in0.0 mm 0.00 in0.0 mm
11:30 AM 50.7°F10.4°C 43.4°F6.3°C 76% 4.2 mph NNW6.8 kmh NNW 6.8 mph10.9 kmh 30.35 in1027.8 mb 0.00 in0.0 mm 0.00 in0.0 mm 0.00 in0.0 mm
11:31 AM 50.4°F10.2°C 43.4°F6.3°C 77% 2.7 mph NNW4.3 kmh NNW 6.8 mph10.9 kmh 30.35 in1027.8 mb 0.00 in0.0 mm 0.00 in0.0 mm 0.00 in0.0 mm
11:32 AM 50.4°F10.2°C 43.4°F6.3°C 77% 1.7 mph NW2.7 kmh NW 6.8 mph10.9 kmh 30.35 in1027.8 mb 0.00 in0.0 mm 0.00 in0.0 mm 0.00 in0.0 mm
11:33 AM 50.5°F10.3°C 42.9°F6.1°C 75% 1.7 mph NNW2.7 kmh NNW 6.8 mph10.9 kmh 30.35 in1027.8 mb 0.00 in0.0 mm 0.00 in0.0 mm 0.00 in0.0 mm
11:34 AM 50.7°F10.4°C 42.7°F5.9°C 74% 2.2 mph NNW3.5 kmh NNW 6.8 mph10.9 kmh 30.35 in1027.8 mb 0.00 in0.0 mm 0.00 in0.0 mm 0.00 in0.0 mm
11:35 AM 51.3°F10.7°C 42.5°F5.8°C 72% 2.2 mph NNW3.5 kmh NNW 6.8 mph10.9 kmh 30.35 in1027.8 mb 0.00 in0.0 mm 0.00 in0.0 mm 0.00 in0.0 mm
11:36 AM 51.4°F10.8°C 42.7°F5.9°C 72% 2.2 mph E3.5 kmh E 5.8 mph9.3 kmh 30.35 in1027.8 mb 0.00 in0.0 mm 0.00 in0.0 mm 0.00 in0.0 mm
11:37 AM 51.6°F10.9°C 42.5°F5.8°C 71% 3.2 mph NNW5.1 kmh NNW 5.8 mph9.3 kmh 30.35 in1027.8 mb 0.00 in0.0 mm 0.00 in0.0 mm 0.00 in0.0 mm
11:38 AM 51.6°F10.9°C 42.5°F5.8°C 71% 1.1 mph NNW1.8 kmh NNW 5.8 mph9.3 kmh 30.35 in1027.8 mb 0.00 in0.0 mm 0.00 in0.0 mm 0.00 in0.0 mm
11:39 AM 52.0°F11.1°C 42.9°F6.1°C 71% 1.1 mph NE1.8 kmh NE 5.8 mph9.3 kmh 30.35 in1027.8 mb 0.00 in0.0 mm 0.00 in0.0 mm 0.00 in0.0 mm
11:40 AM 52.3°F11.3°C 43.6°F6.4°C 72% 4.2 mph NNW6.8 kmh NNW 4.7 mph7.6 kmh 30.35 in1027.8 mb 0.00 in0.0 mm 0.00 in0.0 mm 0.00 in0.0 mm
11:41 AM 52.5°F11.4°C 44.1°F6.7°C 73% 3.2 mph NW5.1 kmh NW 4.2 mph6.8 kmh 30.35 in1027.8 mb 0.00 in0.0 mm 0.00 in0.0 mm 0.00 in0.0 mm
11:42 AM 52.5°F11.4°C 43.4°F6.3°C 71% 3.2 mph NNW5.1 kmh NNW 4.2 mph6.8 kmh 30.35 in1027.8 mb 0.00 in0.0 mm 0.00 in0.0 mm 0.00 in0.0 mm
11:43 AM 52.5°F11.4°C 43.8°F6.6°C 72% 2.7 mph NW4.3 kmh NW 4.2 mph6.8 kmh 30.35 in1027.8 mb 0.00 in0.0 mm 0.00 in0.0 mm 0.00 in0.0 mm
11:44 AM 52.3°F11.3°C 43.9°F6.6°C 73% 3.7 mph NW6.0 kmh NW 4.2 mph6.8 kmh 30.35 in1027.8 mb 0.00 in0.0 mm 0.00 in0.0 mm 0.00 in0.0 mm
11:45 AM 52.3°F11.3°C 44.3°F6.8°C 74% 2.7 mph WNW4.3 kmh WNW 4.2 mph6.8 kmh 30.35 in1027.8 mb 0.00 in0.0 mm 0.00 in0.0 mm 0.00 in0.0 mm
11:46 AM 52.3°F11.3°C 45.0°F7.2°C 76% 3.7 mph WNW6.0 kmh WNW 4.2 mph6.8 kmh 30.35 in1027.8 mb 0.00 in0.0 mm 0.00 in0.0 mm 0.00 in0.0 mm
11:47 AM 52.2°F11.2°C 44.5°F6.9°C 75% 1.7 mph NE2.7 kmh NE 4.2 mph6.8 kmh 30.35 in1027.8 mb 0.00 in0.0 mm 0.00 in0.0 mm 0.00 in0.0 mm
11:48 AM 52.2°F11.2°C 44.1°F6.7°C 74% 2.2 mph ENE3.5 kmh ENE 4.2 mph6.8 kmh 30.35 in1027.8 mb 0.00 in0.0 mm 0.00 in0.0 mm 0.00 in0.0 mm
11:49 AM 52.2°F11.2°C 43.4°F6.3°C 72% 1.1 mph WNW1.8 kmh WNW 4.2 mph6.8 kmh 30.35 in1027.8 mb 0.00 in0.0 mm 0.00 in0.0 mm 0.00 in0.0 mm
11:50 AM 52.2°F11.2°C 43.4°F6.3°C 72% 1.7 mph NNW2.7 kmh NNW 4.2 mph6.8 kmh 30.35 in1027.8 mb 0.00 in0.0 mm 0.00 in0.0 mm 0.00 in0.0 mm
11:51 AM 52.2°F11.2°C 43.0°F6.1°C 71% 1.1 mph NW1.8 kmh NW 4.2 mph6.8 kmh 30.34 in1027.4 mb 0.00 in0.0 mm 0.00 in0.0 mm 0.00 in0.0 mm
11:52 AM 52.2°F11.2°C 43.0°F6.1°C 71% 2.2 mph NW3.5 kmh NW 4.2 mph6.8 kmh 30.34 in1027.4 mb 0.00 in0.0 mm 0.00 in0.0 mm 0.00 in0.0 mm
11:53 AM 52.3°F11.3°C 42.8°F6.0°C 70% 1.1 mph W1.8 kmh W 4.2 mph6.8 kmh 30.34 in1027.4 mb 0.00 in0.0 mm 0.00 in0.0 mm 0.00 in0.0 mm
11:54 AM 52.5°F11.4°C 43.4°F6.3°C 71% 3.2 mph WNW5.1 kmh WNW 4.2 mph6.8 kmh 30.34 in1027.4 mb 0.00 in0.0 mm 0.00 in0.0 mm 0.00 in0.0 mm
11:55 AM 53.1°F11.7°C 44.3°F6.8°C 72% 3.2 mph NW5.1 kmh NW 4.2 mph6.8 kmh 30.34 in1027.4 mb 0.00 in0.0 mm 0.00 in0.0 mm 0.00 in0.0 mm
11:56 AM 53.2°F11.8°C 44.8°F7.1°C 73% 5.3 mph NW8.5 kmh NW 5.3 mph8.5 kmh 30.34 in1027.4 mb 0.00 in0.0 mm 0.00 in0.0 mm 0.00 in0.0 mm
11:57 AM 53.2°F11.8°C 45.2°F7.3°C 74% 5.3 mph NW8.5 kmh NW 5.8 mph9.3 kmh 30.34 in1027.4 mb 0.00 in0.0 mm 0.00 in0.0 mm 0.00 in0.0 mm
11:58 AM 52.9°F11.6°C 44.5°F6.9°C 73% 5.3 mph NW8.5 kmh NW 6.3 mph10.1 kmh 30.34 in1027.4 mb 0.00 in0.0 mm 0.00 in0.0 mm 0.00 in0.0 mm
11:59 AM 52.3°F11.3°C 44.3°F6.8°C 74% 4.2 mph WNW6.8 kmh WNW 6.3 mph10.1 kmh 30.34 in1027.4 mb 0.00 in0.0 mm 0.00 in0.0 mm 0.00 in0.0 mm
12:00 PM 52.0°F11.1°C 44.0°F6.7°C 74% 5.3 mph NW8.5 kmh NW 6.3 mph10.1 kmh 30.34 in1027.4 mb 0.00 in0.0 mm 0.00 in0.0 mm 0.00 in0.0 mm
12:01 PM 51.8°F11.0°C 43.4°F6.3°C 73% 3.2 mph WNW5.1 kmh WNW 6.3 mph10.1 kmh 30.34 in1027.4 mb 0.00 in0.0 mm 0.00 in0.0 mm 0.00 in0.0 mm
12:02 PM 51.6°F10.9°C 43.6°F6.4°C 74% 3.2 mph W5.1 kmh W 6.3 mph10.1 kmh 30.34 in1027.4 mb 0.00 in0.0 mm 0.00 in0.0 mm 0.00 in0.0 mm
12:03 PM 51.6°F10.9°C 44.3°F6.8°C 76% 3.2 mph W5.1 kmh W 6.3 mph10.1 kmh 30.34 in1027.4 mb 0.00 in0.0 mm 0.00 in0.0 mm 0.00 in0.0 mm
12:04 PM 51.8°F11.0°C 44.5°F6.9°C 76% 4.2 mph W6.8 kmh W 6.3 mph10.1 kmh 30.34 in1027.4 mb 0.00 in0.0 mm 0.00 in0.0 mm 0.00 in0.0 mm
12:05 PM 52.0°F11.1°C 44.7°F7.1°C 76% 4.2 mph W6.8 kmh W 6.3 mph10.1 kmh 30.34 in1027.4 mb 0.00 in0.0 mm 0.00 in0.0 mm 0.00 in0.0 mm
12:06 PM 52.3°F11.3°C 44.7°F7.1°C 75% 5.3 mph NW8.5 kmh NW 6.3 mph10.1 kmh 30.34 in1027.4 mb 0.00 in0.0 mm 0.00 in0.0 mm 0.00 in0.0 mm
12:07 PM 52.3°F11.3°C 44.3°F6.8°C 74% 2.7 mph NNW4.3 kmh NNW 8.3 mph13.4 kmh 30.34 in1027.4 mb 0.00 in0.0 mm 0.00 in0.0 mm 0.00 in0.0 mm
12:08 PM 52.3°F11.3°C 44.7°F7.1°C 75% 2.7 mph NW4.3 kmh NW 8.3 mph13.4 kmh 30.34 in1027.4 mb 0.00 in0.0 mm 0.00 in0.0 mm 0.00 in0.0 mm
12:09 PM 52.5°F11.4°C 44.8°F7.1°C 75% 5.8 mph NW9.3 kmh NW 8.3 mph13.4 kmh 30.34 in1027.4 mb 0.00 in0.0 mm 0.00 in0.0 mm 0.00 in0.0 mm
12:10 PM 52.5°F11.4°C 44.5°F6.9°C 74% 3.7 mph WNW6.0 kmh WNW 8.3 mph13.4 kmh 30.34 in1027.4 mb 0.00 in0.0 mm 0.00 in0.0 mm 0.00 in0.0 mm
12:11 PM 52.5°F11.4°C 44.1°F6.7°C 73% 4.7 mph WNW7.6 kmh WNW 8.3 mph13.4 kmh 30.34 in1027.4 mb 0.00 in0.0 mm 0.00 in0.0 mm 0.00 in0.0 mm
12:12 PM 52.3°F11.3°C 43.9°F6.6°C 73% 4.2 mph NW6.8 kmh NW 8.3 mph13.4 kmh 30.34 in1027.4 mb 0.00 in0.0 mm 0.00 in0.0 mm 0.00 in0.0 mm
12:13 PM 52.2°F11.2°C 43.4°F6.3°C 72% 2.7 mph NW4.3 kmh NW 8.3 mph13.4 kmh 30.34 in1027.4 mb 0.00 in0.0 mm 0.00 in0.0 mm 0.00 in0.0 mm
12:14 PM 52.2°F11.2°C 44.1°F6.7°C 74% 5.8 mph WNW9.3 kmh WNW 8.3 mph13.4 kmh 30.34 in1027.4 mb 0.00 in0.0 mm 0.00 in0.0 mm 0.00 in0.0 mm
12:15 PM 52.3°F11.3°C 43.6°F6.4°C 72% 5.8 mph WNW9.3 kmh WNW 8.3 mph13.4 kmh 30.34 in1027.4 mb 0.00 in0.0 mm 0.00 in0.0 mm 0.00 in0.0 mm
12:16 PM 52.3°F11.3°C 44.3°F6.8°C 74% 4.7 mph W7.6 kmh W 8.3 mph13.4 kmh 30.34 in1027.4 mb 0.00 in0.0 mm 0.00 in0.0 mm 0.00 in0.0 mm
12:17 PM 52.3°F11.3°C 45.0°F7.2°C 76% 5.8 mph W9.3 kmh W 6.8 mph10.9 kmh 30.34 in1027.4 mb 0.00 in0.0 mm 0.00 in0.0 mm 0.00 in0.0 mm
12:18 PM 52.0°F11.1°C 44.7°F7.1°C 76% 6.8 mph W10.9 kmh W 7.3 mph11.7 kmh 30.34 in1027.4 mb 0.00 in0.0 mm 0.00 in0.0 mm 0.00 in0.0 mm
12:19 PM 52.0°F11.1°C 44.7°F7.1°C 76% 5.8 mph W9.3 kmh W 7.8 mph12.6 kmh 30.34 in1027.4 mb 0.00 in0.0 mm 0.00 in0.0 mm 0.00 in0.0 mm
12:20 PM 51.8°F11.0°C 44.5°F6.9°C 76% 6.8 mph WNW10.9 kmh WNW 7.8 mph12.6 kmh 30.34 in1027.4 mb 0.00 in0.0 mm 0.00 in0.0 mm 0.00 in0.0 mm
12:21 PM 51.8°F11.0°C 44.8°F7.1°C 77% 6.8 mph WNW10.9 kmh WNW 7.8 mph12.6 kmh 30.34 in1027.4 mb 0.00 in0.0 mm 0.00 in0.0 mm 0.00 in0.0 mm
12:22 PM 51.6°F10.9°C 44.6°F7.0°C 77% 4.7 mph W7.6 kmh W 7.8 mph12.6 kmh 30.34 in1027.4 mb 0.00 in0.0 mm 0.00 in0.0 mm 0.00 in0.0 mm
12:23 PM 51.6°F10.9°C 44.3°F6.8°C 76% 6.8 mph W10.9 kmh W 7.8 mph12.6 kmh 30.34 in1027.4 mb 0.00 in0.0 mm 0.00 in0.0 mm 0.00 in0.0 mm
12:24 PM 51.6°F10.9°C 44.3°F6.8°C 76% 5.8 mph W9.3 kmh W 7.8 mph12.6 kmh 30.34 in1027.4 mb 0.00 in0.0 mm 0.00 in0.0 mm 0.00 in0.0 mm
12:25 PM 51.6°F10.9°C 45.0°F7.2°C 78% 4.7 mph W7.6 kmh W 7.8 mph12.6 kmh 30.34 in1027.4 mb 0.00 in0.0 mm 0.00 in0.0 mm 0.00 in0.0 mm
12:26 PM 51.6°F10.9°C 45.0°F7.2°C 78% 5.8 mph W9.3 kmh W 7.8 mph12.6 kmh 30.34 in1027.4 mb 0.00 in0.0 mm 0.00 in0.0 mm 0.00 in0.0 mm
12:27 PM 51.6°F10.9°C 44.6°F7.0°C 77% 4.2 mph WNW6.8 kmh WNW 7.8 mph12.6 kmh 30.34 in1027.4 mb 0.00 in0.0 mm 0.00 in0.0 mm 0.00 in0.0 mm
12:28 PM 51.6°F10.9°C 45.0°F7.2°C 78% 5.8 mph W9.3 kmh W 7.8 mph12.6 kmh 30.33 in1027.1 mb 0.00 in0.0 mm 0.00 in0.0 mm 0.00 in0.0 mm
12:29 PM 51.6°F10.9°C 44.6°F7.0°C 77% 4.7 mph W7.6 kmh W 7.3 mph11.7 kmh 30.33 in1027.1 mb 0.00 in0.0 mm 0.00 in0.0 mm 0.00 in0.0 mm
12:30 PM 51.6°F10.9°C 44.6°F7.0°C 77% 5.3 mph W8.5 kmh W 7.3 mph11.7 kmh 30.33 in1027.1 mb 0.00 in0.0 mm 0.00 in0.0 mm 0.00 in0.0 mm
12:31 PM 51.8°F11.0°C 44.5°F6.9°C 76% 2.7 mph W4.3 kmh W 7.3 mph11.7 kmh 30.33 in1027.1 mb 0.00 in0.0 mm 0.00 in0.0 mm 0.00 in0.0 mm
12:32 PM 51.8°F11.0°C 44.5°F6.9°C 76% 4.7 mph W7.6 kmh W 7.3 mph11.7 kmh 30.33 in1027.1 mb 0.00 in0.0 mm 0.00 in0.0 mm 0.00 in0.0 mm
12:33 PM 51.8°F11.0°C 44.5°F6.9°C 76% 4.7 mph W7.6 kmh W 6.8 mph10.9 kmh 30.33 in1027.1 mb 0.00 in0.0 mm 0.00 in0.0 mm 0.00 in0.0 mm
12:34 PM 52.0°F11.1°C 45.3°F7.4°C 78% 3.7 mph W6.0 kmh W 6.8 mph10.9 kmh 30.33 in1027.1 mb 0.00 in0.0 mm 0.00 in0.0 mm 0.00 in0.0 mm
12:35 PM 52.0°F11.1°C 45.7°F7.6°C 79% 4.2 mph W6.8 kmh W 6.8 mph10.9 kmh 30.33 in1027.1 mb 0.00 in0.0 mm 0.00 in0.0 mm 0.00 in0.0 mm
12:36 PM 51.8°F11.0°C 44.8°F7.1°C 77% 4.7 mph W7.6 kmh W 6.8 mph10.9 kmh 30.33 in1027.1 mb 0.00 in0.0 mm 0.00 in0.0 mm 0.00 in0.0 mm
12:37 PM 51.8°F11.0°C 44.8°F7.1°C 77% 5.3 mph WNW8.5 kmh WNW 6.8 mph10.9 kmh 30.33 in1027.1 mb 0.00 in0.0 mm 0.00 in0.0 mm 0.00 in0.0 mm
12:38 PM 51.8°F11.0°C 45.5°F7.5°C 79% 4.2 mph W6.8 kmh W 6.8 mph10.9 kmh 30.33 in1027.1 mb 0.00 in0.0 mm 0.00 in0.0 mm 0.00 in0.0 mm
12:39 PM 51.8°F11.0°C 45.5°F7.5°C 79% 4.7 mph W7.6 kmh W 6.8 mph10.9 kmh 30.33 in1027.1 mb 0.00 in0.0 mm 0.00 in0.0 mm 0.00 in0.0 mm
12:40 PM 51.8°F11.0°C 44.8°F7.1°C 77% 5.8 mph W9.3 kmh W 6.8 mph10.9 kmh 30.33 in1027.1 mb 0.00 in0.0 mm 0.00 in0.0 mm 0.00 in0.0 mm
12:41 PM 51.8°F11.0°C 44.8°F7.1°C 77% 4.7 mph W7.6 kmh W 6.3 mph10.1 kmh 30.33 in1027.1 mb 0.00 in0.0 mm 0.00 in0.0 mm 0.00 in0.0 mm
12:42 PM 51.8°F11.0°C 44.8°F7.1°C 77% 6.3 mph W10.1 kmh W 6.3 mph10.1 kmh 30.33 in1027.1 mb 0.00 in0.0 mm 0.00 in0.0 mm 0.00 in0.0 mm
12:43 PM 51.8°F11.0°C 44.5°F6.9°C 76% 4.7 mph W7.6 kmh W 6.3 mph10.1 kmh 30.33 in1027.1 mb 0.00 in0.0 mm 0.00 in0.0 mm 0.00 in0.0 mm
12:44 PM 51.6°F10.9°C 44.3°F6.8°C 76% 4.2 mph W6.8 kmh W 6.3 mph10.1 kmh 30.33 in1027.1 mb 0.00 in0.0 mm 0.00 in0.0 mm 0.00 in0.0 mm
12:45 PM 51.6°F10.9°C 44.3°F6.8°C 76% 4.2 mph W6.8 kmh W 6.3 mph10.1 kmh 30.33 in1027.1 mb 0.00 in0.0 mm 0.00 in0.0 mm 0.00 in0.0 mm
12:46 PM 51.6°F10.9°C 44.6°F7.0°C 77% 3.7 mph W6.0 kmh W 6.3 mph10.1 kmh 30.33 in1027.1 mb 0.00 in0.0 mm 0.00 in0.0 mm 0.00 in0.0 mm
12:47 PM 51.6°F10.9°C 44.0°F6.7°C 75% 2.7 mph W4.3 kmh W 6.3 mph10.1 kmh 30.33 in1027.1 mb 0.00 in0.0 mm 0.00 in0.0 mm 0.00 in0.0 mm
12:48 PM 51.4°F10.8°C 44.1°F6.7°C 76% 3.2 mph W5.1 kmh W 6.3 mph10.1 kmh 30.33 in1027.1 mb 0.00 in0.0 mm 0.00 in0.0 mm 0.00 in0.0 mm
12:49 PM 51.6°F10.9°C 44.3°F6.8°C 76% 4.2 mph W6.8 kmh W 6.3 mph10.1 kmh 30.33 in1027.1 mb 0.00 in0.0 mm 0.00 in0.0 mm 0.00 in0.0 mm
12:50 PM 51.8°F11.0°C 44.1°F6.7°C 75% 5.3 mph W8.5 kmh W 6.3 mph10.1 kmh 30.33 in1027.1 mb 0.00 in0.0 mm 0.00 in0.0 mm 0.00 in0.0 mm
12:51 PM 51.6°F10.9°C 44.6°F7.0°C 77% 4.2 mph W6.8 kmh W 6.3 mph10.1 kmh 30.33 in1027.1 mb 0.00 in0.0 mm 0.00 in0.0 mm 0.00 in0.0 mm
12:52 PM 51.8°F11.0°C 44.8°F7.1°C 77% 3.7 mph W6.0 kmh W 6.3 mph10.1 kmh 30.33 in1027.1 mb 0.00 in0.0 mm 0.00 in0.0 mm 0.00 in0.0 mm
12:53 PM 51.8°F11.0°C 44.8°F7.1°C 77% 3.7 mph W6.0 kmh W 5.3 mph8.5 kmh 30.33 in1027.1 mb 0.00 in0.0 mm 0.00 in0.0 mm 0.00 in0.0 mm
12:54 PM 51.8°F11.0°C 44.8°F7.1°C 77% 3.7 mph WSW6.0 kmh WSW 5.3 mph8.5 kmh 30.33 in1027.1 mb 0.00 in0.0 mm 0.00 in0.0 mm 0.00 in0.0 mm
12:55 PM 52.0°F11.1°C 44.7°F7.1°C 76% 5.3 mph W8.5 kmh W 5.3 mph8.5 kmh 30.33 in1027.1 mb 0.00 in0.0 mm 0.00 in0.0 mm 0.00 in0.0 mm
12:56 PM 52.3°F11.3°C 44.7°F7.1°C 75% 4.7 mph W7.6 kmh W 5.8 mph9.3 kmh 30.33 in1027.1 mb 0.00 in0.0 mm 0.00 in0.0 mm 0.00 in0.0 mm
12:57 PM 52.3°F11.3°C 45.3°F7.4°C 77% 4.2 mph W6.8 kmh W 5.8 mph9.3 kmh 30.33 in1027.1 mb 0.00 in0.0 mm 0.00 in0.0 mm 0.00 in0.0 mm
12:58 PM 52.0°F11.1°C 44.7°F7.1°C 76% 4.2 mph W6.8 kmh W 5.8 mph9.3 kmh 30.33 in1027.1 mb 0.00 in0.0 mm 0.00 in0.0 mm 0.00 in0.0 mm
12:59 PM 52.0°F11.1°C 44.3°F6.8°C 75% 3.7 mph W6.0 kmh W 5.8 mph9.3 kmh 30.33 in1027.1 mb 0.00 in0.0 mm 0.00 in0.0 mm 0.00 in0.0 mm
01:00 PM 52.0°F11.1°C 44.3°F6.8°C 75% 4.7 mph W7.6 kmh W 5.8 mph9.3 kmh 30.33 in1027.1 mb 0.00 in0.0 mm 0.00 in0.0 mm 0.00 in0.0 mm
01:01 PM 51.8°F11.0°C 44.5°F6.9°C 76% 3.7 mph W6.0 kmh W 5.8 mph9.3 kmh 30.33 in1027.1 mb 0.00 in0.0 mm 0.00 in0.0 mm 0.00 in0.0 mm
01:02 PM 51.6°F10.9°C 44.3°F6.8°C 76% 5.3 mph W8.5 kmh W 5.8 mph9.3 kmh 30.33 in1027.1 mb 0.00 in0.0 mm 0.00 in0.0 mm 0.00 in0.0 mm
01:03 PM 51.8°F11.0°C 44.8°F7.1°C 77% 4.2 mph W6.8 kmh W 5.8 mph9.3 kmh 30.32 in1026.8 mb 0.00 in0.0 mm 0.00 in0.0 mm 0.00 in0.0 mm
01:04 PM 51.6°F10.9°C 44.6°F7.0°C 77% 4.2 mph WNW6.8 kmh WNW 5.8 mph9.3 kmh 30.32 in1026.8 mb 0.00 in0.0 mm 0.00 in0.0 mm 0.00 in0.0 mm
01:05 PM 51.6°F10.9°C 44.3°F6.8°C 76% 4.7 mph W7.6 kmh W 5.8 mph9.3 kmh 30.32 in1026.8 mb 0.00 in0.0 mm 0.00 in0.0 mm 0.00 in0.0 mm
01:06 PM 52.0°F11.1°C 45.0°F7.2°C 77% 5.3 mph WNW8.5 kmh WNW 5.8 mph9.3 kmh 30.32 in1026.8 mb 0.00 in0.0 mm 0.00 in0.0 mm 0.00 in0.0 mm
01:07 PM 52.0°F11.1°C 45.0°F7.2°C 77% 4.7 mph W7.6 kmh W 5.8 mph9.3 kmh 30.32 in1026.8 mb 0.00 in0.0 mm 0.00 in0.0 mm 0.00 in0.0 mm
01:08 PM 51.6°F10.9°C 44.0°F6.7°C 75% 4.2 mph W6.8 kmh W 5.8 mph9.3 kmh 30.32 in1026.8 mb 0.00 in0.0 mm 0.00 in0.0 mm 0.00 in0.0 mm
01:09 PM 51.4°F10.8°C 44.1°F6.7°C 76% 5.3 mph W8.5 kmh W 5.3 mph8.5 kmh 30.32 in1026.8 mb 0.00 in0.0 mm 0.00 in0.0 mm 0.00 in0.0 mm
01:10 PM 51.4°F10.8°C 44.1°F6.7°C 76% 4.2 mph WNW6.8 kmh WNW 5.3 mph8.5 kmh 30.32 in1026.8 mb 0.00 in0.0 mm 0.00 in0.0 mm 0.00 in0.0 mm
01:11 PM 51.4°F10.8°C 44.1°F6.7°C 76% 3.7 mph WNW6.0 kmh WNW 5.3 mph8.5 kmh 30.32 in1026.8 mb 0.00 in0.0 mm 0.00 in0.0 mm 0.00 in0.0 mm
01:12 PM 51.4°F10.8°C 44.1°F6.7°C 76% 4.7 mph WNW7.6 kmh WNW 5.3 mph8.5 kmh 30.32 in1026.8 mb 0.00 in0.0 mm 0.00 in0.0 mm 0.00 in0.0 mm
01:13 PM 51.4°F10.8°C 44.5°F6.9°C 77% 3.2 mph WNW5.1 kmh WNW 5.3 mph8.5 kmh 30.32 in1026.8 mb 0.00 in0.0 mm 0.00 in0.0 mm 0.00 in0.0 mm
01:14 PM 51.4°F10.8°C 44.5°F6.9°C 77% 3.2 mph W5.1 kmh W 5.3 mph8.5 kmh 30.32 in1026.8 mb 0.00 in0.0 mm 0.00 in0.0 mm 0.00 in0.0 mm
01:15 PM 51.3°F10.7°C 43.6°F6.4°C 75% 3.7 mph WNW6.0 kmh WNW 5.3 mph8.5 kmh 30.32 in1026.8 mb 0.00 in0.0 mm 0.00 in0.0 mm 0.00 in0.0 mm
01:16 PM 51.4°F10.8°C 43.8°F6.6°C 75% 3.7 mph W6.0 kmh W 5.3 mph8.5 kmh 30.32 in1026.8 mb 0.00 in0.0 mm 0.00 in0.0 mm 0.00 in0.0 mm
01:17 PM 51.6°F10.9°C 44.3°F6.8°C 76% 3.2 mph WNW5.1 kmh WNW 5.3 mph8.5 kmh 30.32 in1026.8 mb 0.00 in0.0 mm 0.00 in0.0 mm 0.00 in0.0 mm
01:18 PM 51.3°F10.7°C 43.6°F6.4°C 75% 3.2 mph WNW5.1 kmh WNW 5.3 mph8.5 kmh 30.32 in1026.8 mb 0.00 in0.0 mm 0.00 in0.0 mm 0.00 in0.0 mm
01:19 PM 51.3°F10.7°C 44.0°F6.7°C 76% 3.7 mph W6.0 kmh W 4.7 mph7.6 kmh 30.32 in1026.8 mb 0.00 in0.0 mm 0.00 in0.0 mm 0.00 in0.0 mm
01:20 PM 51.3°F10.7°C 43.6°F6.4°C 75% 3.2 mph W5.1 kmh W 4.7 mph7.6 kmh 30.32 in1026.8 mb 0.00 in0.0 mm 0.00 in0.0 mm 0.00 in0.0 mm
01:21 PM 51.4°F10.8°C 44.1°F6.7°C 76% 4.7 mph W7.6 kmh W 4.7 mph7.6 kmh 30.32 in1026.8 mb 0.00 in0.0 mm 0.00 in0.0 mm 0.00 in0.0 mm
01:22 PM 51.4°F10.8°C 44.1°F6.7°C 76% 4.2 mph W6.8 kmh W 4.7 mph7.6 kmh 30.32 in1026.8 mb 0.00 in0.0 mm 0.00 in0.0 mm 0.00 in0.0 mm
01:23 PM 51.6°F10.9°C 44.3°F6.8°C 76% 4.7 mph WNW7.6 kmh WNW 4.7 mph7.6 kmh 30.32 in1026.8 mb 0.00 in0.0 mm 0.00 in0.0 mm 0.00 in0.0 mm
01:24 PM 51.6°F10.9°C 44.0°F6.7°C 75% 4.2 mph WNW6.8 kmh WNW 4.7 mph7.6 kmh 30.32 in1026.8 mb 0.00 in0.0 mm 0.00 in0.0 mm 0.00 in0.0 mm
01:25 PM 51.6°F10.9°C 44.3°F6.8°C 76% 3.7 mph W6.0 kmh W 4.7 mph7.6 kmh 30.32 in1026.8 mb 0.00 in0.0 mm 0.00 in0.0 mm 0.00 in0.0 mm
01:26 PM 51.6°F10.9°C 44.3°F6.8°C 76% 4.2 mph W6.8 kmh W 5.3 mph8.5 kmh 30.32 in1026.8 mb 0.00 in0.0 mm 0.00 in0.0 mm 0.00 in0.0 mm
01:27 PM 51.6°F10.9°C 44.6°F7.0°C 77% 4.2 mph W6.8 kmh W 5.3 mph8.5 kmh 30.31 in1026.4 mb 0.00 in0.0 mm 0.00 in0.0 mm 0.00 in0.0 mm
01:28 PM 51.6°F10.9°C 44.6°F7.0°C 77% 4.7 mph W7.6 kmh W 5.3 mph8.5 kmh 30.31 in1026.4 mb 0.00 in0.0 mm 0.00 in0.0 mm 0.00 in0.0 mm
01:29 PM 51.8°F11.0°C 45.5°F7.5°C 79% 3.7 mph W6.0 kmh W 5.3 mph8.5 kmh 30.31 in1026.4 mb 0.00 in0.0 mm 0.00 in0.0 mm 0.00 in0.0 mm
01:30 PM 52.0°F11.1°C 45.3°F7.4°C 78% 4.7 mph W7.6 kmh W 5.3 mph8.5 kmh 30.31 in1026.4 mb 0.00 in0.0 mm 0.00 in0.0 mm 0.00 in0.0 mm
01:31 PM 52.0°F11.1°C 45.0°F7.2°C 77% 4.7 mph W7.6 kmh W 5.3 mph8.5 kmh 30.31 in1026.4 mb 0.00 in0.0 mm 0.00 in0.0 mm 0.00 in0.0 mm
01:32 PM 52.0°F11.1°C 45.0°F7.2°C 77% 4.7 mph W7.6 kmh W 5.3 mph8.5 kmh 30.31 in1026.4 mb 0.00 in0.0 mm 0.00 in0.0 mm 0.00 in0.0 mm
01:33 PM 52.0°F11.1°C 44.7°F7.1°C 76% 3.7 mph W6.0 kmh W 5.3 mph8.5 kmh 30.31 in1026.4 mb 0.00 in0.0 mm 0.00 in0.0 mm 0.00 in0.0 mm
01:34 PM 52.0°F11.1°C 44.7°F7.1°C 76% 5.8 mph W9.3 kmh W 5.8 mph9.3 kmh 30.31 in1026.4 mb 0.00 in0.0 mm 0.00 in0.0 mm 0.00 in0.0 mm
01:35 PM 52.2°F11.2°C 44.8°F7.1°C 76% 5.8 mph W9.3 kmh W 6.3 mph10.1 kmh 30.31 in1026.4 mb 0.00 in0.0 mm 0.00 in0.0 mm 0.00 in0.0 mm
01:36 PM 52.2°F11.2°C 44.8°F7.1°C 76% 4.2 mph W6.8 kmh W 6.3 mph10.1 kmh 30.31 in1026.4 mb 0.00 in0.0 mm 0.00 in0.0 mm 0.00 in0.0 mm
01:37 PM 52.2°F11.2°C 44.8°F7.1°C 76% 6.3 mph WNW10.1 kmh WNW 6.3 mph10.1 kmh 30.31 in1026.4 mb 0.00 in0.0 mm 0.00 in0.0 mm 0.00 in0.0 mm
01:38 PM 52.2°F11.2°C 44.8°F7.1°C 76% 4.2 mph W6.8 kmh W 6.3 mph10.1 kmh 30.31 in1026.4 mb 0.00 in0.0 mm 0.00 in0.0 mm 0.00 in0.0 mm
01:39 PM 52.3°F11.3°C 45.3°F7.4°C 77% 5.3 mph W8.5 kmh W 6.3 mph10.1 kmh 30.31 in1026.4 mb 0.00 in0.0 mm 0.00 in0.0 mm 0.00 in0.0 mm
01:40 PM 52.2°F11.2°C 44.5°F6.9°C 75% 4.2 mph W6.8 kmh W 6.3 mph10.1 kmh 30.32 in1026.8 mb 0.00 in0.0 mm 0.00 in0.0 mm 0.00 in0.0 mm
01:41 PM 52.2°F11.2°C 44.5°F6.9°C 75% 4.2 mph W6.8 kmh W 6.3 mph10.1 kmh 30.32 in1026.8 mb 0.00 in0.0 mm 0.00 in0.0 mm 0.00 in0.0 mm
01:42 PM 52.2°F11.2°C 45.2°F7.3°C 77% 5.3 mph W8.5 kmh W 6.3 mph10.1 kmh 30.32 in1026.8 mb 0.00 in0.0 mm 0.00 in0.0 mm 0.00 in0.0 mm
01:43 PM 52.2°F11.2°C 44.8°F7.1°C 76% 4.7 mph W7.6 kmh W 6.3 mph10.1 kmh 30.32 in1026.8 mb 0.00 in0.0 mm 0.00 in0.0 mm 0.00 in0.0 mm
01:44 PM 52.2°F11.2°C 44.1°F6.7°C 74% 4.2 mph W6.8 kmh W 6.3 mph10.1 kmh 30.32 in1026.8 mb 0.00 in0.0 mm 0.00 in0.0 mm 0.00 in0.0 mm
01:45 PM 52.2°F11.2°C 44.5°F6.9°C 75% 4.2 mph W6.8 kmh W 6.3 mph10.1 kmh 30.32 in1026.8 mb 0.00 in0.0 mm 0.00 in0.0 mm 0.00 in0.0 mm
01:46 PM 52.2°F11.2°C 44.5°F6.9°C 75% 4.2 mph W6.8 kmh W 6.3 mph10.1 kmh 30.32 in1026.8 mb 0.00 in0.0 mm 0.00 in0.0 mm 0.00 in0.0 mm
01:47 PM 52.2°F11.2°C 44.1°F6.7°C 74% 4.2 mph W6.8 kmh W 5.8 mph9.3 kmh 30.32 in1026.8 mb 0.00 in0.0 mm 0.00 in0.0 mm 0.00 in0.0 mm
01:48 PM 52.3°F11.3°C 45.0°F7.2°C 76% 4.7 mph W7.6 kmh W 5.8 mph9.3 kmh 30.32 in1026.8 mb 0.00 in0.0 mm 0.00 in0.0 mm 0.00 in0.0 mm
01:49 PM 52.3°F11.3°C 45.0°F7.2°C 76% 4.7 mph W7.6 kmh W 5.8 mph9.3 kmh 30.32 in1026.8 mb 0.00 in0.0 mm 0.00 in0.0 mm 0.00 in0.0 mm
01:50 PM 52.3°F11.3°C 45.0°F7.2°C 76% 5.3 mph W8.5 kmh W 5.3 mph8.5 kmh 30.32 in1026.8 mb 0.00 in0.0 mm 0.00 in0.0 mm 0.00 in0.0 mm
01:51 PM 52.3°F11.3°C 45.0°F7.2°C 76% 3.7 mph W6.0 kmh W 5.3 mph8.5 kmh 30.32 in1026.8 mb 0.00 in0.0 mm 0.00 in0.0 mm 0.00 in0.0 mm
01:52 PM 52.3°F11.3°C 45.0°F7.2°C 76% 3.7 mph WNW6.0 kmh WNW 5.3 mph8.5 kmh 30.32 in1026.8 mb 0.00 in0.0 mm 0.00 in0.0 mm 0.00 in0.0 mm
01:53 PM 52.3°F11.3°C 44.7°F7.1°C 75% 5.3 mph W8.5 kmh W 5.3 mph8.5 kmh 30.32 in1026.8 mb 0.00 in0.0 mm 0.00 in0.0 mm 0.00 in0.0 mm
01:54 PM 52.3°F11.3°C 45.0°F7.2°C 76% 4.2 mph W6.8 kmh W 5.3 mph8.5 kmh 30.32 in1026.8 mb 0.00 in0.0 mm 0.00 in0.0 mm 0.00 in0.0 mm
01:55 PM 52.2°F11.2°C 44.5°F6.9°C 75% 4.2 mph W6.8 kmh W 5.3 mph8.5 kmh 30.32 in1026.8 mb 0.00 in0.0 mm 0.00 in0.0 mm 0.00 in0.0 mm
01:56 PM 52.2°F11.2°C 44.5°F6.9°C 75% 4.2 mph W6.8 kmh W 5.3 mph8.5 kmh 30.32 in1026.8 mb 0.00 in0.0 mm 0.00 in0.0 mm 0.00 in0.0 mm
01:57 PM 52.2°F11.2°C 44.5°F6.9°C 75% 3.2 mph W5.1 kmh W 5.3 mph8.5 kmh 30.32 in1026.8 mb 0.00 in0.0 mm 0.00 in0.0 mm 0.00 in0.0 mm
01:58 PM 52.0°F11.1°C 44.3°F6.8°C 75% 3.7 mph WNW6.0 kmh WNW 5.3 mph8.5 kmh 30.32 in1026.8 mb 0.00 in0.0 mm 0.00 in0.0 mm 0.00 in0.0 mm
01:59 PM 52.0°F11.1°C 44.3°F6.8°C 75% 4.7 mph W7.6 kmh W 5.3 mph8.5 kmh 30.32 in1026.8 mb 0.00 in0.0 mm 0.00 in0.0 mm 0.00 in0.0 mm
02:00 PM 52.0°F11.1°C 45.0°F7.2°C 77% 3.7 mph W6.0 kmh W 5.3 mph8.5 kmh 30.32 in1026.8 mb 0.00 in0.0 mm 0.00 in0.0 mm 0.00 in0.0 mm
02:01 PM 52.0°F11.1°C 45.0°F7.2°C 77% 5.3 mph WNW8.5 kmh WNW 5.8 mph9.3 kmh 30.32 in1026.8 mb 0.00 in0.0 mm 0.00 in0.0 mm 0.00 in0.0 mm
02:02 PM 51.8°F11.0°C 44.5°F6.9°C 76% 2.7 mph W4.3 kmh W 5.8 mph9.3 kmh 30.32 in1026.8 mb 0.00 in0.0 mm 0.00 in0.0 mm 0.00 in0.0 mm
02:03 PM 52.0°F11.1°C 45.0°F7.2°C 77% 3.2 mph W5.1 kmh W 5.8 mph9.3 kmh 30.31 in1026.4 mb 0.00 in0.0 mm 0.00 in0.0 mm 0.00 in0.0 mm
02:04 PM 52.0°F11.1°C 44.3°F6.8°C 75% 3.7 mph W6.0 kmh W 5.8 mph9.3 kmh 30.31 in1026.4 mb 0.00 in0.0 mm 0.00 in0.0 mm 0.00 in0.0 mm
02:05 PM 52.0°F11.1°C 44.3°F6.8°C 75% 2.7 mph WNW4.3 kmh WNW 5.8 mph9.3 kmh 30.31 in1026.4 mb 0.00 in0.0 mm 0.00 in0.0 mm 0.00 in0.0 mm
02:06 PM 51.8°F11.0°C 44.1°F6.7°C 75% 3.2 mph WNW5.1 kmh WNW 5.8 mph9.3 kmh 30.31 in1026.4 mb 0.00 in0.0 mm 0.00 in0.0 mm 0.00 in0.0 mm
02:07 PM 51.8°F11.0°C 44.1°F6.7°C 75% 2.7 mph W4.3 kmh W 5.8 mph9.3 kmh 30.31 in1026.4 mb 0.00 in0.0 mm 0.00 in0.0 mm 0.00 in0.0 mm
02:08 PM 51.8°F11.0°C 43.8°F6.6°C 74% 4.2 mph W6.8 kmh W 5.8 mph9.3 kmh 30.31 in1026.4 mb 0.00 in0.0 mm 0.00 in0.0 mm 0.00 in0.0 mm
02:09 PM 51.8°F11.0°C 44.1°F6.7°C 75% 4.2 mph WNW6.8 kmh WNW 5.8 mph9.3 kmh 30.31 in1026.4 mb 0.00 in0.0 mm 0.00 in0.0 mm 0.00 in0.0 mm
02:10 PM 51.6°F10.9°C 43.6°F6.4°C 74% 3.7 mph WNW6.0 kmh WNW 5.8 mph9.3 kmh 30.31 in1026.4 mb 0.00 in0.0 mm 0.00 in0.0 mm 0.00 in0.0 mm
02:11 PM 51.8°F11.0°C 44.5°F6.9°C 76% 3.2 mph W5.1 kmh W 4.7 mph7.6 kmh 30.31 in1026.4 mb 0.00 in0.0 mm 0.00 in0.0 mm 0.00 in0.0 mm
02:12 PM 51.8°F11.0°C 44.8°F7.1°C 77% 3.2 mph WNW5.1 kmh WNW 4.7 mph7.6 kmh 30.31 in1026.4 mb 0.00 in0.0 mm 0.00 in0.0 mm 0.00 in0.0 mm
02:13 PM 51.8°F11.0°C 44.8°F7.1°C 77% 4.7 mph WNW7.6 kmh WNW 4.7 mph7.6 kmh 30.31 in1026.4 mb 0.00 in0.0 mm 0.00 in0.0 mm 0.00 in0.0 mm
02:14 PM 52.0°F11.1°C 45.0°F7.2°C 77% 4.2 mph W6.8 kmh W 4.7 mph7.6 kmh 30.31 in1026.4 mb 0.00 in0.0 mm 0.00 in0.0 mm 0.00 in0.0 mm
02:15 PM 52.0°F11.1°C 44.7°F7.1°C 76% 6.3 mph WNW10.1 kmh WNW 6.3 mph10.1 kmh 30.31 in1026.4 mb 0.00 in0.0 mm 0.00 in0.0 mm 0.00 in0.0 mm
02:16 PM 52.0°F11.1°C 44.3°F6.8°C 75% 4.7 mph W7.6 kmh W 6.3 mph10.1 kmh 30.31 in1026.4 mb 0.00 in0.0 mm 0.00 in0.0 mm 0.00 in0.0 mm
02:17 PM 52.3°F11.3°C 45.0°F7.2°C 76% 5.3 mph WNW8.5 kmh WNW 6.3 mph10.1 kmh 30.31 in1026.4 mb 0.00 in0.0 mm 0.00 in0.0 mm 0.00 in0.0 mm
02:18 PM 52.5°F11.4°C 45.2°F7.3°C 76% 3.7 mph W6.0 kmh W 6.3 mph10.1 kmh 30.31 in1026.4 mb 0.00 in0.0 mm 0.00 in0.0 mm 0.00 in0.0 mm
02:19 PM 52.7°F11.5°C 44.6°F7.0°C 74% 4.7 mph W7.6 kmh W 6.3 mph10.1 kmh 30.31 in1026.4 mb 0.00 in0.0 mm 0.00 in0.0 mm 0.00 in0.0 mm
02:20 PM 52.9°F11.6°C 44.8°F7.1°C 74% 5.3 mph W8.5 kmh W 6.3 mph10.1 kmh 30.31 in1026.4 mb 0.00 in0.0 mm 0.00 in0.0 mm 0.00 in0.0 mm
02:21 PM 52.9°F11.6°C 44.5°F6.9°C 73% 4.7 mph W7.6 kmh W 6.3 mph10.1 kmh 30.31 in1026.4 mb 0.00 in0.0 mm 0.00 in0.0 mm 0.00 in0.0 mm
02:22 PM 53.1°F11.7°C 45.3°F7.4°C 75% 3.7 mph W6.0 kmh W 6.3 mph10.1 kmh 30.31 in1026.4 mb 0.00 in0.0 mm 0.00 in0.0 mm 0.00 in0.0 mm
02:23 PM 53.1°F11.7°C 45.3°F7.4°C 75% 3.7 mph WNW6.0 kmh WNW 6.3 mph10.1 kmh 30.31 in1026.4 mb 0.00 in0.0 mm 0.00 in0.0 mm 0.00 in0.0 mm
02:24 PM 53.1°F11.7°C 45.0°F7.2°C 74% 3.2 mph W5.1 kmh W 6.3 mph10.1 kmh 30.31 in1026.4 mb 0.00 in0.0 mm 0.00 in0.0 mm 0.00 in0.0 mm
02:25 PM 53.1°F11.7°C 44.6°F7.0°C 73% 4.7 mph W7.6 kmh W 5.8 mph9.3 kmh 30.31 in1026.4 mb 0.00 in0.0 mm 0.00 in0.0 mm 0.00 in0.0 mm
02:26 PM 53.4°F11.9°C 45.0°F7.2°C 73% 3.7 mph W6.0 kmh W 5.8 mph9.3 kmh 30.31 in1026.4 mb 0.00 in0.0 mm 0.00 in0.0 mm 0.00 in0.0 mm
02:27 PM 53.4°F11.9°C 45.3°F7.4°C 74% 4.2 mph W6.8 kmh W 5.8 mph9.3 kmh 30.31 in1026.4 mb 0.00 in0.0 mm 0.00 in0.0 mm 0.00 in0.0 mm
02:28 PM 53.6°F12.0°C 45.5°F7.5°C 74% 4.7 mph W7.6 kmh W 5.8 mph9.3 kmh 30.31 in1026.4 mb 0.00 in0.0 mm 0.00 in0.0 mm 0.00 in0.0 mm
02:29 PM 53.6°F12.0°C 45.5°F7.5°C 74% 5.8 mph WNW9.3 kmh WNW 5.8 mph9.3 kmh 30.31 in1026.4 mb 0.00 in0.0 mm 0.00 in0.0 mm 0.00 in0.0 mm
02:30 PM 53.6°F12.0°C 45.5°F7.5°C 74% 4.2 mph WNW6.8 kmh WNW 5.8 mph9.3 kmh 30.31 in1026.4 mb 0.00 in0.0 mm 0.00 in0.0 mm 0.00 in0.0 mm
02:31 PM 53.6°F12.0°C 45.2°F7.3°C 73% 4.7 mph W7.6 kmh W 5.8 mph9.3 kmh 30.31 in1026.4 mb 0.00 in0.0 mm 0.00 in0.0 mm 0.00 in0.0 mm
02:32 PM 53.2°F11.8°C 44.4°F6.9°C 72% 3.7 mph WNW6.0 kmh WNW 5.8 mph9.3 kmh 30.31 in1026.4 mb 0.00 in0.0 mm 0.00 in0.0 mm 0.00 in0.0 mm
02:33 PM 53.2°F11.8°C 44.4°F6.9°C 72% 4.2 mph W6.8 kmh W 5.8 mph9.3 kmh 30.31 in1026.4 mb 0.00 in0.0 mm 0.00 in0.0 mm 0.00 in0.0 mm
02:34 PM 53.2°F11.8°C 44.8°F7.1°C 73% 4.7 mph W7.6 kmh W 5.8 mph9.3 kmh 30.31 in1026.4 mb 0.00 in0.0 mm 0.00 in0.0 mm 0.00 in0.0 mm
02:35 PM 53.2°F11.8°C 44.8°F7.1°C 73% 5.3 mph W8.5 kmh W 5.8 mph9.3 kmh 30.31 in1026.4 mb 0.00 in0.0 mm 0.00 in0.0 mm 0.00 in0.0 mm
02:36 PM 53.1°F11.7°C 44.6°F7.0°C 73% 4.7 mph W7.6 kmh W 5.8 mph9.3 kmh 30.31 in1026.4 mb 0.00 in0.0 mm 0.00 in0.0 mm 0.00 in0.0 mm
02:37 PM 53.1°F11.7°C 45.0°F7.2°C 74% 4.2 mph W6.8 kmh W 5.8 mph9.3 kmh 30.31 in1026.4 mb 0.00 in0.0 mm 0.00 in0.0 mm 0.00 in0.0 mm
02:38 PM 53.1°F11.7°C 44.6°F7.0°C 73% 3.7 mph W6.0 kmh W 5.8 mph9.3 kmh 30.31 in1026.4 mb 0.00 in0.0 mm 0.00 in0.0 mm 0.00 in0.0 mm
02:39 PM 53.1°F11.7°C 45.0°F7.2°C 74% 3.7 mph W6.0 kmh W 5.8 mph9.3 kmh 30.31 in1026.4 mb 0.00 in0.0 mm 0.00 in0.0 mm 0.00 in0.0 mm
02:40 PM 53.1°F11.7°C 45.0°F7.2°C 74% 5.8 mph W9.3 kmh W 5.8 mph9.3 kmh 30.31 in1026.4 mb 0.00 in0.0 mm 0.00 in0.0 mm 0.00 in0.0 mm
02:41 PM 52.9°F11.6°C 44.8°F7.1°C 74% 4.2 mph W6.8 kmh W 5.8 mph9.3 kmh 30.31 in1026.4 mb 0.00 in0.0 mm 0.00 in0.0 mm 0.00 in0.0 mm
02:42 PM 52.7°F11.5°C 43.9°F6.6°C 72% 4.2 mph W6.8 kmh W 5.8 mph9.3 kmh 30.31 in1026.4 mb 0.00 in0.0 mm 0.00 in0.0 mm 0.00 in0.0 mm
02:43 PM 52.7°F11.5°C 44.3°F6.8°C 73% 3.7 mph W6.0 kmh W 5.8 mph9.3 kmh 30.31 in1026.4 mb 0.00 in0.0 mm 0.00 in0.0 mm 0.00 in0.0 mm
02:44 PM 52.7°F11.5°C 44.3°F6.8°C 73% 5.3 mph W8.5 kmh W 5.8 mph9.3 kmh 30.31 in1026.4 mb 0.00 in0.0 mm 0.00 in0.0 mm 0.00 in0.0 mm
02:45 PM 52.5°F11.4°C 44.1°F6.7°C 73% 4.7 mph WNW7.6 kmh WNW 5.8 mph9.3 kmh 30.31 in1026.4 mb 0.00 in0.0 mm 0.00 in0.0 mm 0.00 in0.0 mm
02:46 PM 52.5°F11.4°C 44.5°F6.9°C 74% 5.3 mph W8.5 kmh W 5.8 mph9.3 kmh 30.31 in1026.4 mb 0.00 in0.0 mm 0.00 in0.0 mm 0.00 in0.0 mm
02:47 PM 52.5°F11.4°C 44.5°F6.9°C 74% 5.3 mph WNW8.5 kmh WNW 5.8 mph9.3 kmh 30.31 in1026.4 mb 0.00 in0.0 mm 0.00 in0.0 mm 0.00 in0.0 mm
02:48 PM 52.5°F11.4°C 44.5°F6.9°C 74% 4.7 mph WNW7.6 kmh WNW 5.8 mph9.3 kmh 30.31 in1026.4 mb 0.00 in0.0 mm 0.00 in0.0 mm 0.00 in0.0 mm
02:49 PM 52.5°F11.4°C 44.1°F6.7°C 73% 4.2 mph WNW6.8 kmh WNW 5.8 mph9.3 kmh 30.31 in1026.4 mb 0.00 in0.0 mm 0.00 in0.0 mm 0.00 in0.0 mm
02:50 PM 52.5°F11.4°C 44.1°F6.7°C 73% 2.7 mph W4.3 kmh W 5.8 mph9.3 kmh 30.31 in1026.4 mb 0.00 in0.0 mm 0.00 in0.0 mm 0.00 in0.0 mm
02:51 PM 52.9°F11.6°C 44.8°F7.1°C 74% 3.7 mph W6.0 kmh W 5.8 mph9.3 kmh 30.31 in1026.4 mb 0.00 in0.0 mm 0.00 in0.0 mm 0.00 in0.0 mm
02:52 PM 53.2°F11.8°C 45.5°F7.5°C 75% 4.2 mph W6.8 kmh W 5.8 mph9.3 kmh 30.31 in1026.4 mb 0.00 in0.0 mm 0.00 in0.0 mm 0.00 in0.0 mm
02:53 PM 53.4°F11.9°C 45.3°F7.4°C 74% 4.7 mph WNW7.6 kmh WNW 5.8 mph9.3 kmh 30.31 in1026.4 mb 0.00 in0.0 mm 0.00 in0.0 mm 0.00 in0.0 mm
02:54 PM 53.6°F12.0°C 45.2°F7.3°C 73% 4.2 mph WNW6.8 kmh WNW 5.8 mph9.3 kmh 30.31 in1026.4 mb 0.00 in0.0 mm 0.00 in0.0 mm 0.00 in0.0 mm
02:55 PM 53.6°F12.0°C 45.2°F7.3°C 73% 3.7 mph W6.0 kmh W 5.8 mph9.3 kmh 30.31 in1026.4 mb 0.00 in0.0 mm 0.00 in0.0 mm 0.00 in0.0 mm
02:56 PM 53.6°F12.0°C 45.2°F7.3°C 73% 4.2 mph WNW6.8 kmh WNW 5.8 mph9.3 kmh 30.31 in1026.4 mb 0.00 in0.0 mm 0.00 in0.0 mm 0.00 in0.0 mm
02:57 PM 53.6°F12.0°C 45.2°F7.3°C 73% 4.2 mph WNW6.8 kmh WNW 5.8 mph9.3 kmh 30.31 in1026.4 mb 0.00 in0.0 mm 0.00 in0.0 mm 0.00 in0.0 mm
02:58 PM 53.6°F12.0°C 45.2°F7.3°C 73% 3.7 mph WNW6.0 kmh WNW 5.3 mph8.5 kmh 30.31 in1026.4 mb 0.00 in0.0 mm 0.00 in0.0 mm 0.00 in0.0 mm
02:59 PM 53.6°F12.0°C 44.8°F7.1°C 72% 3.7 mph W6.0 kmh W 5.3 mph8.5 kmh 30.31 in1026.4 mb 0.00 in0.0 mm 0.00 in0.0 mm 0.00 in0.0 mm
03:00 PM 53.6°F12.0°C 44.8°F7.1°C 72% 3.7 mph W6.0 kmh W 5.3 mph8.5 kmh 30.31 in1026.4 mb 0.00 in0.0 mm 0.00 in0.0 mm 0.00 in0.0 mm
03:01 PM 53.6°F12.0°C 44.4°F6.9°C 71% 3.7 mph W6.0 kmh W 5.3 mph8.5 kmh 30.31 in1026.4 mb 0.00 in0.0 mm 0.00 in0.0 mm 0.00 in0.0 mm
03:02 PM 53.6°F12.0°C 44.8°F7.1°C 72% 3.7 mph W6.0 kmh W 5.3 mph8.5 kmh 30.31 in1026.4 mb 0.00 in0.0 mm 0.00 in0.0 mm 0.00 in0.0 mm
03:03 PM 53.4°F11.9°C 44.6°F7.0°C 72% 5.8 mph WNW9.3 kmh WNW 5.8 mph9.3 kmh 30.31 in1026.4 mb 0.00 in0.0 mm 0.00 in0.0 mm 0.00 in0.0 mm
03:04 PM 53.4°F11.9°C 45.0°F7.2°C 73% 5.3 mph NW8.5 kmh NW 5.8 mph9.3 kmh 30.31 in1026.4 mb 0.00 in0.0 mm 0.00 in0.0 mm 0.00 in0.0 mm
03:05 PM 53.2°F11.8°C 44.4°F6.9°C 72% 4.7 mph NW7.6 kmh NW 5.8 mph9.3 kmh 30.31 in1026.4 mb 0.00 in0.0 mm 0.00 in0.0 mm 0.00 in0.0 mm
03:06 PM 53.2°F11.8°C 44.8°F7.1°C 73% 5.8 mph WNW9.3 kmh WNW 5.8 mph9.3 kmh 30.31 in1026.4 mb 0.00 in0.0 mm 0.00 in0.0 mm 0.00 in0.0 mm
03:07 PM 52.9°F11.6°C 43.7°F6.5°C 71% 3.7 mph WNW6.0 kmh WNW 5.8 mph9.3 kmh 30.31 in1026.4 mb 0.00 in0.0 mm 0.00 in0.0 mm 0.00 in0.0 mm
03:08 PM 52.7°F11.5°C 44.3°F6.8°C 73% 4.2 mph WNW6.8 kmh WNW 5.8 mph9.3 kmh 30.31 in1026.4 mb 0.00 in0.0 mm 0.00 in0.0 mm 0.00 in0.0 mm
03:09 PM 52.9°F11.6°C 44.5°F6.9°C 73% 3.2 mph WNW5.1 kmh WNW 5.8 mph9.3 kmh 30.31 in1026.4 mb 0.00 in0.0 mm 0.00 in0.0 mm 0.00 in0.0 mm
03:10 PM 53.1°F11.7°C 45.0°F7.2°C 74% 6.8 mph WNW10.9 kmh WNW 6.8 mph10.9 kmh 30.31 in1026.4 mb 0.00 in0.0 mm 0.00 in0.0 mm 0.00 in0.0 mm
03:11 PM 53.4°F11.9°C 45.0°F7.2°C 73% 4.2 mph W6.8 kmh W 6.8 mph10.9 kmh 30.31 in1026.4 mb 0.00 in0.0 mm 0.00 in0.0 mm 0.00 in0.0 mm
03:12 PM 53.6°F12.0°C 45.5°F7.5°C 74% 4.7 mph W7.6 kmh W 6.8 mph10.9 kmh 30.31 in1026.4 mb 0.00 in0.0 mm 0.00 in0.0 mm 0.00 in0.0 mm
03:13 PM 53.8°F12.1°C 45.7°F7.6°C 74% 4.2 mph WNW6.8 kmh WNW 6.8 mph10.9 kmh 30.31 in1026.4 mb 0.00 in0.0 mm 0.00 in0.0 mm 0.00 in0.0 mm
03:14 PM 53.8°F12.1°C 45.0°F7.2°C 72% 5.8 mph WNW9.3 kmh WNW 6.8 mph10.9 kmh 30.31 in1026.4 mb 0.00 in0.0 mm 0.00 in0.0 mm 0.00 in0.0 mm
03:15 PM 54.0°F12.2°C 45.1°F7.3°C 72% 4.7 mph NW7.6 kmh NW 6.8 mph10.9 kmh 30.31 in1026.4 mb 0.00 in0.0 mm 0.00 in0.0 mm 0.00 in0.0 mm
03:16 PM 54.0°F12.2°C 45.1°F7.3°C 72% 5.3 mph WNW8.5 kmh WNW 6.8 mph10.9 kmh 30.31 in1026.4 mb 0.00 in0.0 mm 0.00 in0.0 mm 0.00 in0.0 mm
03:17 PM 54.0°F12.2°C 45.1°F7.3°C 72% 5.8 mph W9.3 kmh W 6.8 mph10.9 kmh 30.31 in1026.4 mb 0.00 in0.0 mm 0.00 in0.0 mm 0.00 in0.0 mm
03:18 PM 53.8°F12.1°C 45.3°F7.4°C 73% 4.7 mph WNW7.6 kmh WNW 6.8 mph10.9 kmh 30.31 in1026.4 mb 0.00 in0.0 mm 0.00 in0.0 mm 0.00 in0.0 mm
03:19 PM 53.8°F12.1°C 45.0°F7.2°C 72% 6.8 mph WNW10.9 kmh WNW 6.8 mph10.9 kmh 30.31 in1026.4 mb 0.00 in0.0 mm 0.00 in0.0 mm 0.00 in0.0 mm
03:20 PM 54.0°F12.2°C 45.9°F7.7°C 74% 5.3 mph W8.5 kmh W 6.8 mph10.9 kmh 30.31 in1026.4 mb 0.00 in0.0 mm 0.00 in0.0 mm 0.00 in0.0 mm
03:21 PM 54.0°F12.2°C 45.5°F7.5°C 73% 6.3 mph W10.1 kmh W 6.8 mph10.9 kmh 30.31 in1026.4 mb 0.00 in0.0 mm 0.00 in0.0 mm 0.00 in0.0 mm
03:22 PM 54.0°F12.2°C 45.1°F7.3°C 72% 4.7 mph W7.6 kmh W 6.8 mph10.9 kmh 30.31 in1026.4 mb 0.00 in0.0 mm 0.00 in0.0 mm 0.00 in0.0 mm
03:23 PM 54.0°F12.2°C 45.1°F7.3°C 72% 5.3 mph WNW8.5 kmh WNW 6.8 mph10.9 kmh 30.31 in1026.4 mb 0.00 in0.0 mm 0.00 in0.0 mm 0.00 in0.0 mm
03:24 PM 54.0°F12.2°C 45.5°F7.5°C 73% 4.7 mph W7.6 kmh W 6.8 mph10.9 kmh 30.31 in1026.4 mb 0.00 in0.0 mm 0.00 in0.0 mm 0.00 in0.0 mm
03:25 PM 54.0°F12.2°C 45.5°F7.5°C 73% 3.7 mph W6.0 kmh W 6.8 mph10.9 kmh 30.31 in1026.4 mb 0.00 in0.0 mm 0.00 in0.0 mm 0.00 in0.0 mm
03:26 PM 54.1°F12.3°C 45.7°F7.6°C 73% 4.2 mph W6.8 kmh W 6.8 mph10.9 kmh 30.31 in1026.4 mb 0.00 in0.0 mm 0.00 in0.0 mm 0.00 in0.0 mm
03:27 PM 54.3°F12.4°C 45.5°F7.5°C 72% 4.2 mph W6.8 kmh W 6.8 mph10.9 kmh 30.31 in1026.4 mb 0.00 in0.0 mm 0.00 in0.0 mm 0.00 in0.0 mm
03:28 PM 54.1°F12.3°C 45.3°F7.4°C 72% 3.7 mph W6.0 kmh W 6.8 mph10.9 kmh 30.31 in1026.4 mb 0.00 in0.0 mm 0.00 in0.0 mm 0.00 in0.0 mm
03:29 PM 54.1°F12.3°C 45.3°F7.4°C 72% 3.7 mph W6.0 kmh W 6.8 mph10.9 kmh 30.31 in1026.4 mb 0.00 in0.0 mm 0.00 in0.0 mm 0.00 in0.0 mm
03:30 PM 54.1°F12.3°C 45.7°F7.6°C 73% 4.7 mph W7.6 kmh W 6.3 mph10.1 kmh 30.31 in1026.4 mb 0.00 in0.0 mm 0.00 in0.0 mm 0.00 in0.0 mm
03:31 PM 54.1°F12.3°C 45.3°F7.4°C 72% 6.8 mph WNW10.9 kmh WNW 6.8 mph10.9 kmh 30.31 in1026.4 mb 0.00 in0.0 mm 0.00 in0.0 mm 0.00 in0.0 mm
03:32 PM 54.1°F12.3°C 45.7°F7.6°C 73% 3.7 mph WNW6.0 kmh WNW 6.8 mph10.9 kmh 30.31 in1026.4 mb 0.00 in0.0 mm 0.00 in0.0 mm 0.00 in0.0 mm
03:33 PM 54.0°F12.2°C 46.2°F7.9°C 75% 5.8 mph WNW9.3 kmh WNW 6.8 mph10.9 kmh 30.31 in1026.4 mb 0.00 in0.0 mm 0.00 in0.0 mm 0.00 in0.0 mm
03:34 PM 53.8°F12.1°C 46.0°F7.8°C 75% 5.3 mph WNW8.5 kmh WNW 6.8 mph10.9 kmh 30.31 in1026.4 mb 0.00 in0.0 mm 0.00 in0.0 mm 0.00 in0.0 mm
03:35 PM 53.8°F12.1°C 45.7°F7.6°C 74% 6.3 mph W10.1 kmh W 6.8 mph10.9 kmh 30.31 in1026.4 mb 0.00 in0.0 mm 0.00 in0.0 mm 0.00 in0.0 mm
03:36 PM 53.6°F12.0°C 45.5°F7.5°C 74% 5.3 mph W8.5 kmh W 6.8 mph10.9 kmh 30.31 in1026.4 mb 0.00 in0.0 mm 0.00 in0.0 mm 0.00 in0.0 mm
03:37 PM 53.4°F11.9°C 45.0°F7.2°C 73% 4.7 mph WNW7.6 kmh WNW 6.8 mph10.9 kmh 30.31 in1026.4 mb 0.00 in0.0 mm 0.00 in0.0 mm 0.00 in0.0 mm
03:38 PM 53.2°F11.8°C 45.2°F7.3°C 74% 4.2 mph W6.8 kmh W 6.8 mph10.9 kmh 30.31 in1026.4 mb 0.00 in0.0 mm 0.00 in0.0 mm 0.00 in0.0 mm
03:39 PM 53.2°F11.8°C 44.8°F7.1°C 73% 5.8 mph W9.3 kmh W 6.8 mph10.9 kmh 30.31 in1026.4 mb 0.00 in0.0 mm 0.00 in0.0 mm 0.00 in0.0 mm
03:40 PM 53.1°F11.7°C 45.0°F7.2°C 74% 6.3 mph WNW10.1 kmh WNW 6.8 mph10.9 kmh 30.31 in1026.4 mb 0.00 in0.0 mm 0.00 in0.0 mm 0.00 in0.0 mm
03:41 PM 52.9°F11.6°C 44.5°F6.9°C 73% 5.3 mph W8.5 kmh W 6.8 mph10.9 kmh 30.31 in1026.4 mb 0.00 in0.0 mm 0.00 in0.0 mm 0.00 in0.0 mm
03:42 PM 52.9°F11.6°C 45.2°F7.3°C 75% 4.2 mph WNW6.8 kmh WNW 6.8 mph10.9 kmh 30.31 in1026.4 mb 0.00 in0.0 mm 0.00 in0.0 mm 0.00 in0.0 mm
03:43 PM 53.1°F11.7°C 45.3°F7.4°C 75% 4.7 mph W7.6 kmh W 6.8 mph10.9 kmh 30.31 in1026.4 mb 0.00 in0.0 mm 0.00 in0.0 mm 0.00 in0.0 mm
03:44 PM 53.1°F11.7°C 45.0°F7.2°C 74% 4.7 mph W7.6 kmh W 6.8 mph10.9 kmh 30.31 in1026.4 mb 0.00 in0.0 mm 0.00 in0.0 mm 0.00 in0.0 mm
03:45 PM 53.1°F11.7°C 45.3°F7.4°C 75% 4.2 mph W6.8 kmh W 6.8 mph10.9 kmh 30.31 in1026.4 mb 0.00 in0.0 mm 0.00 in0.0 mm 0.00 in0.0 mm
03:46 PM 53.2°F11.8°C 45.9°F7.7°C 76% 5.3 mph W8.5 kmh W 6.8 mph10.9 kmh 30.31 in1026.4 mb 0.00 in0.0 mm 0.00 in0.0 mm 0.00 in0.0 mm
03:47 PM 53.2°F11.8°C 45.5°F7.5°C 75% 4.2 mph W6.8 kmh W 6.8 mph10.9 kmh 30.31 in1026.4 mb 0.00 in0.0 mm 0.00 in0.0 mm 0.00 in0.0 mm
03:48 PM 53.1°F11.7°C 45.0°F7.2°C 74% 4.7 mph W7.6 kmh W 6.8 mph10.9 kmh 30.31 in1026.4 mb 0.00 in0.0 mm 0.00 in0.0 mm 0.00 in0.0 mm
03:49 PM 53.1°F11.7°C 45.3°F7.4°C 75% 4.2 mph W6.8 kmh W 6.8 mph10.9 kmh 30.31 in1026.4 mb 0.00 in0.0 mm 0.00 in0.0 mm 0.00 in0.0 mm
03:50 PM 53.1°F11.7°C 45.0°F7.2°C 74% 4.7 mph W7.6 kmh W 6.3 mph10.1 kmh 30.31 in1026.4 mb 0.00 in0.0 mm 0.00 in0.0 mm 0.00 in0.0 mm
03:51 PM 53.1°F11.7°C 45.0°F7.2°C 74% 4.2 mph W6.8 kmh W 5.8 mph9.3 kmh 30.31 in1026.4 mb 0.00 in0.0 mm 0.00 in0.0 mm 0.00 in0.0 mm
03:52 PM 53.2°F11.8°C 45.5°F7.5°C 75% 3.7 mph W6.0 kmh W 5.8 mph9.3 kmh 30.31 in1026.4 mb 0.00 in0.0 mm 0.00 in0.0 mm 0.00 in0.0 mm
03:53 PM 53.2°F11.8°C 45.5°F7.5°C 75% 5.8 mph W9.3 kmh W 5.8 mph9.3 kmh 30.31 in1026.4 mb 0.00 in0.0 mm 0.00 in0.0 mm 0.00 in0.0 mm
03:54 PM 53.2°F11.8°C 45.5°F7.5°C 75% 3.7 mph WNW6.0 kmh WNW 5.8 mph9.3 kmh 30.31 in1026.4 mb 0.00 in0.0 mm 0.00 in0.0 mm 0.00 in0.0 mm
03:55 PM 53.2°F11.8°C 45.2°F7.3°C 74% 4.7 mph W7.6 kmh W 5.8 mph9.3 kmh 30.31 in1026.4 mb 0.00 in0.0 mm 0.00 in0.0 mm 0.00 in0.0 mm
03:56 PM 53.2°F11.8°C 45.5°F7.5°C 75% 3.7 mph W6.0 kmh W 5.8 mph9.3 kmh 30.31 in1026.4 mb 0.00 in0.0 mm 0.00 in0.0 mm 0.00 in0.0 mm
03:57 PM 53.2°F11.8°C 45.2°F7.3°C 74% 5.3 mph W8.5 kmh W 5.8 mph9.3 kmh 30.31 in1026.4 mb 0.00 in0.0 mm 0.00 in0.0 mm 0.00 in0.0 mm
03:58 PM 53.2°F11.8°C 45.2°F7.3°C 74% 4.7 mph W7.6 kmh W 5.8 mph9.3 kmh 30.31 in1026.4 mb 0.00 in0.0 mm 0.00 in0.0 mm 0.00 in0.0 mm
03:59 PM 53.2°F11.8°C 45.5°F7.5°C 75% 4.7 mph WNW7.6 kmh WNW 5.8 mph9.3 kmh 30.31 in1026.4 mb 0.00 in0.0 mm 0.00 in0.0 mm 0.00 in0.0 mm
04:00 PM 53.2°F11.8°C 45.2°F7.3°C 74% 4.7 mph W7.6 kmh W 5.8 mph9.3 kmh 30.31 in1026.4 mb 0.00 in0.0 mm 0.00 in0.0 mm 0.00 in0.0 mm
04:01 PM 53.2°F11.8°C 45.9°F7.7°C 76% 4.7 mph W7.6 kmh W 5.8 mph9.3 kmh 30.31 in1026.4 mb 0.00 in0.0 mm 0.00 in0.0 mm 0.00 in0.0 mm
04:02 PM 53.2°F11.8°C 45.5°F7.5°C 75% 5.8 mph W9.3 kmh W 5.8 mph9.3 kmh 30.31 in1026.4 mb 0.00 in0.0 mm 0.00 in0.0 mm 0.00 in0.0 mm
04:03 PM 53.1°F11.7°C 44.6°F7.0°C 73% 5.3 mph W8.5 kmh W 5.8 mph9.3 kmh 30.31 in1026.4 mb 0.00 in0.0 mm 0.00 in0.0 mm 0.00 in0.0 mm
04:04 PM 53.1°F11.7°C 44.6°F7.0°C 73% 4.2 mph W6.8 kmh W 5.8 mph9.3 kmh 30.31 in1026.4 mb 0.00 in0.0 mm 0.00 in0.0 mm 0.00 in0.0 mm
04:05 PM 53.2°F11.8°C 45.9°F7.7°C 76% 3.2 mph W5.1 kmh W 5.8 mph9.3 kmh 30.31 in1026.4 mb 0.00 in0.0 mm 0.00 in0.0 mm 0.00 in0.0 mm
04:06 PM 53.1°F11.7°C 44.6°F7.0°C 73% 4.2 mph W6.8 kmh W 5.8 mph9.3 kmh 30.31 in1026.4 mb 0.00 in0.0 mm 0.00 in0.0 mm 0.00 in0.0 mm
04:07 PM 53.1°F11.7°C 45.0°F7.2°C 74% 3.2 mph W5.1 kmh W 5.8 mph9.3 kmh 30.31 in1026.4 mb 0.00 in0.0 mm 0.00 in0.0 mm 0.00 in0.0 mm
04:08 PM 53.1°F11.7°C 45.0°F7.2°C 74% 3.7 mph W6.0 kmh W 5.8 mph9.3 kmh 30.31 in1026.4 mb 0.00 in0.0 mm 0.00 in0.0 mm 0.00 in0.0 mm
04:09 PM 53.1°F11.7°C 45.0°F7.2°C 74% 3.7 mph W6.0 kmh W 5.8 mph9.3 kmh 30.31 in1026.4 mb 0.00 in0.0 mm 0.00 in0.0 mm 0.00 in0.0 mm
04:10 PM 53.1°F11.7°C 45.0°F7.2°C 74% 2.7 mph W4.3 kmh W 5.8 mph9.3 kmh 30.31 in1026.4 mb 0.00 in0.0 mm 0.00 in0.0 mm 0.00 in0.0 mm
04:11 PM 53.1°F11.7°C 45.0°F7.2°C 74% 2.2 mph W3.5 kmh W 5.8 mph9.3 kmh 30.31 in1026.4 mb 0.00 in0.0 mm 0.00 in0.0 mm 0.00 in0.0 mm
04:12 PM 53.2°F11.8°C 44.4°F6.9°C 72% 2.7 mph W4.3 kmh W 5.8 mph9.3 kmh 30.31 in1026.4 mb 0.00 in0.0 mm 0.00 in0.0 mm 0.00 in0.0 mm
04:13 PM 53.2°F11.8°C 45.2°F7.3°C 74% 3.2 mph W5.1 kmh W 5.3 mph8.5 kmh 30.31 in1026.4 mb 0.00 in0.0 mm 0.00 in0.0 mm 0.00 in0.0 mm
04:14 PM 53.2°F11.8°C 44.8°F7.1°C 73% 4.7 mph WNW7.6 kmh WNW 4.7 mph7.6 kmh 30.31 in1026.4 mb 0.00 in0.0 mm 0.00 in0.0 mm 0.00 in0.0 mm
04:15 PM 53.2°F11.8°C 44.4°F6.9°C 72% 5.3 mph WNW8.5 kmh WNW 5.3 mph8.5 kmh 30.31 in1026.4 mb 0.00 in0.0 mm 0.00 in0.0 mm 0.00 in0.0 mm
04:16 PM 53.4°F11.9°C 44.6°F7.0°C 72% 3.7 mph WNW6.0 kmh WNW 5.8 mph9.3 kmh 30.31 in1026.4 mb 0.00 in0.0 mm 0.00 in0.0 mm 0.00 in0.0 mm
04:17 PM 53.4°F11.9°C 43.9°F6.6°C 70% 3.2 mph WNW5.1 kmh WNW 5.8 mph9.3 kmh 30.31 in1026.4 mb 0.00 in0.0 mm 0.00 in0.0 mm 0.00 in0.0 mm
04:18 PM 53.4°F11.9°C 43.5°F6.4°C 69% 4.7 mph W7.6 kmh W 5.8 mph9.3 kmh 30.31 in1026.4 mb 0.00 in0.0 mm 0.00 in0.0 mm 0.00 in0.0 mm
04:19 PM 53.4°F11.9°C 43.9°F6.6°C 70% 4.7 mph WNW7.6 kmh WNW 5.8 mph9.3 kmh 30.31 in1026.4 mb 0.00 in0.0 mm 0.00 in0.0 mm 0.00 in0.0 mm
04:20 PM 53.4°F11.9°C 43.5°F6.4°C 69% 4.7 mph W7.6 kmh W 5.8 mph9.3 kmh 30.31 in1026.4 mb 0.00 in0.0 mm 0.00 in0.0 mm 0.00 in0.0 mm
04:21 PM 53.4°F11.9°C 43.5°F6.4°C 69% 5.3 mph WNW8.5 kmh WNW 5.8 mph9.3 kmh 30.31 in1026.4 mb 0.00 in0.0 mm 0.00 in0.0 mm 0.00 in0.0 mm
04:22 PM 53.4°F11.9°C 42.7°F5.9°C 67% 4.2 mph WNW6.8 kmh WNW 5.8 mph9.3 kmh 30.31 in1026.4 mb 0.00 in0.0 mm 0.00 in0.0 mm 0.00 in0.0 mm
04:23 PM 53.4°F11.9°C 43.9°F6.6°C 70% 3.2 mph WNW5.1 kmh WNW 5.8 mph9.3 kmh 30.31 in1026.4 mb 0.00 in0.0 mm 0.00 in0.0 mm 0.00 in0.0 mm
04:24 PM 53.4°F11.9°C 43.1°F6.2°C 68% 4.2 mph NW6.8 kmh NW 5.8 mph9.3 kmh 30.31 in1026.4 mb 0.00 in0.0 mm 0.00 in0.0 mm 0.00 in0.0 mm
04:25 PM 53.6°F12.0°C 44.1°F6.7°C 70% 5.3 mph WNW8.5 kmh WNW 5.8 mph9.3 kmh 30.31 in1026.4 mb 0.00 in0.0 mm 0.00 in0.0 mm 0.00 in0.0 mm
04:26 PM 53.6°F12.0°C 44.1°F6.7°C 70% 5.8 mph WNW9.3 kmh WNW 5.8 mph9.3 kmh 30.31 in1026.4 mb 0.00 in0.0 mm 0.00 in0.0 mm 0.00 in0.0 mm
04:27 PM 53.6°F12.0°C 44.8°F7.1°C 72% 5.8 mph NW9.3 kmh NW 5.8 mph9.3 kmh 30.31 in1026.4 mb 0.00 in0.0 mm 0.00 in0.0 mm 0.00 in0.0 mm
04:28 PM 53.6°F12.0°C 44.4°F6.9°C 71% 5.3 mph NW8.5 kmh NW 5.8 mph9.3 kmh 30.31 in1026.4 mb 0.00 in0.0 mm 0.00 in0.0 mm 0.00 in0.0 mm
04:29 PM 53.6°F12.0°C 44.4°F6.9°C 71% 5.8 mph NW9.3 kmh NW 5.8 mph9.3 kmh 30.31 in1026.4 mb 0.00 in0.0 mm 0.00 in0.0 mm 0.00 in0.0 mm
04:30 PM 53.6°F12.0°C 45.2°F7.3°C 73% 6.8 mph W10.9 kmh W 6.8 mph10.9 kmh 30.31 in1026.4 mb 0.00 in0.0 mm 0.00 in0.0 mm 0.00 in0.0 mm
04:31 PM 53.4°F11.9°C 46.4°F8.0°C 77% 4.2 mph W6.8 kmh W 6.8 mph10.9 kmh 30.31 in1026.4 mb 0.00 in0.0 mm 0.00 in0.0 mm 0.00 in0.0 mm
04:32 PM 53.1°F11.7°C 46.0°F7.8°C 77% 4.7 mph W7.6 kmh W 6.8 mph10.9 kmh 30.31 in1026.4 mb 0.00 in0.0 mm 0.00 in0.0 mm 0.00 in0.0 mm
04:33 PM 52.9°F11.6°C 46.2°F7.9°C 78% 6.3 mph W10.1 kmh W 6.8 mph10.9 kmh 30.31 in1026.4 mb 0.00 in0.0 mm 0.00 in0.0 mm 0.00 in0.0 mm
04:34 PM 52.5°F11.4°C 45.5°F7.5°C 77% 5.8 mph W9.3 kmh W 6.8 mph10.9 kmh 30.31 in1026.4 mb 0.00 in0.0 mm 0.00 in0.0 mm 0.00 in0.0 mm
04:35 PM 52.3°F11.3°C 45.7°F7.6°C 78% 4.7 mph W7.6 kmh W 6.8 mph10.9 kmh 30.31 in1026.4 mb 0.00 in0.0 mm 0.00 in0.0 mm 0.00 in0.0 mm
04:36 PM 52.3°F11.3°C 46.0°F7.8°C 79% 4.7 mph W7.6 kmh W 6.8 mph10.9 kmh 30.31 in1026.4 mb 0.00 in0.0 mm 0.00 in0.0 mm 0.00 in0.0 mm
04:37 PM 52.3°F11.3°C 46.0°F7.8°C 79% 4.7 mph W7.6 kmh W 6.8 mph10.9 kmh 30.31 in1026.4 mb 0.00 in0.0 mm 0.00 in0.0 mm 0.00 in0.0 mm
04:38 PM 52.3°F11.3°C 46.4°F8.0°C 80% 5.3 mph W8.5 kmh W 6.8 mph10.9 kmh 30.31 in1026.4 mb 0.00 in0.0 mm 0.00 in0.0 mm 0.00 in0.0 mm
04:39 PM 52.0°F11.1°C 45.7°F7.6°C 79% 5.8 mph W9.3 kmh W 6.8 mph10.9 kmh 30.31 in1026.4 mb 0.00 in0.0 mm 0.00 in0.0 mm 0.00 in0.0 mm
04:40 PM 51.8°F11.0°C 45.2°F7.3°C 78% 5.3 mph W8.5 kmh W 6.8 mph10.9 kmh 30.31 in1026.4 mb 0.00 in0.0 mm 0.00 in0.0 mm 0.00 in0.0 mm
04:41 PM 51.8°F11.0°C 45.8°F7.7°C 80% 5.3 mph W8.5 kmh W 6.3 mph10.1 kmh 30.31 in1026.4 mb 0.00 in0.0 mm 0.00 in0.0 mm 0.00 in0.0 mm
04:42 PM 51.8°F11.0°C 45.8°F7.7°C 80% 4.7 mph W7.6 kmh W 6.3 mph10.1 kmh 30.31 in1026.4 mb 0.00 in0.0 mm 0.00 in0.0 mm 0.00 in0.0 mm
04:43 PM 51.8°F11.0°C 45.8°F7.7°C 80% 4.2 mph W6.8 kmh W 6.3 mph10.1 kmh 30.31 in1026.4 mb 0.00 in0.0 mm 0.00 in0.0 mm 0.00 in0.0 mm
04:44 PM 51.8°F11.0°C 46.2°F7.9°C 81% 5.3 mph W8.5 kmh W 5.8 mph9.3 kmh 30.31 in1026.4 mb 0.00 in0.0 mm 0.00 in0.0 mm 0.00 in0.0 mm
04:45 PM 51.6°F10.9°C 46.0°F7.8°C 81% 4.7 mph W7.6 kmh W 5.8 mph9.3 kmh 30.31 in1026.4 mb 0.00 in0.0 mm 0.00 in0.0 mm 0.00 in0.0 mm
04:46 PM 51.6°F10.9°C 46.0°F7.8°C 81% 5.8 mph W9.3 kmh W 5.8 mph9.3 kmh 30.31 in1026.4 mb 0.00 in0.0 mm 0.00 in0.0 mm 0.00 in0.0 mm
04:47 PM 51.4°F10.8°C 46.1°F7.8°C 82% 5.8 mph W9.3 kmh W 5.8 mph9.3 kmh 30.31 in1026.4 mb 0.00 in0.0 mm 0.00 in0.0 mm 0.00 in0.0 mm
04:48 PM 51.4°F10.8°C 46.1°F7.8°C 82% 5.8 mph W9.3 kmh W 6.3 mph10.1 kmh 30.31 in1026.4 mb 0.00 in0.0 mm 0.00 in0.0 mm 0.00 in0.0 mm
04:49 PM 51.3°F10.7°C 46.0°F7.8°C 82% 6.3 mph W10.1 kmh W 6.3 mph10.1 kmh 30.31 in1026.4 mb 0.00 in0.0 mm 0.00 in0.0 mm 0.00 in0.0 mm
04:50 PM 51.3°F10.7°C 46.0°F7.8°C 82% 4.7 mph W7.6 kmh W 6.3 mph10.1 kmh 30.31 in1026.4 mb 0.00 in0.0 mm 0.00 in0.0 mm 0.00 in0.0 mm
04:51 PM 51.3°F10.7°C 46.0°F7.8°C 82% 5.8 mph W9.3 kmh W 6.3 mph10.1 kmh 30.32 in1026.8 mb 0.00 in0.0 mm 0.00 in0.0 mm 0.00 in0.0 mm
04:52 PM 51.3°F10.7°C 46.0°F7.8°C 82% 5.8 mph W9.3 kmh W 6.3 mph10.1 kmh 30.32 in1026.8 mb 0.00 in0.0 mm 0.00 in0.0 mm 0.00 in0.0 mm
04:53 PM 51.3°F10.7°C 46.3°F7.9°C 83% 5.3 mph W8.5 kmh W 6.3 mph10.1 kmh 30.32 in1026.8 mb 0.00 in0.0 mm 0.00 in0.0 mm 0.00 in0.0 mm
04:54 PM 51.3°F10.7°C 46.0°F7.8°C 82% 4.7 mph W7.6 kmh W 6.3 mph10.1 kmh 30.32 in1026.8 mb 0.00 in0.0 mm 0.00 in0.0 mm 0.00 in0.0 mm
04:55 PM 51.3°F10.7°C 46.0°F7.8°C 82% 5.3 mph W8.5 kmh W 6.3 mph10.1 kmh 30.32 in1026.8 mb 0.00 in0.0 mm 0.00 in0.0 mm 0.00 in0.0 mm
04:56 PM 51.1°F10.6°C 45.5°F7.5°C 81% 5.3 mph W8.5 kmh W 6.3 mph10.1 kmh 30.32 in1026.8 mb 0.00 in0.0 mm 0.00 in0.0 mm 0.00 in0.0 mm
04:57 PM 51.1°F10.6°C 45.5°F7.5°C 81% 5.3 mph W8.5 kmh W 6.3 mph10.1 kmh 30.32 in1026.8 mb 0.00 in0.0 mm 0.00 in0.0 mm 0.00 in0.0 mm
04:58 PM 50.9°F10.5°C 45.3°F7.4°C 81% 4.7 mph W7.6 kmh W 6.3 mph10.1 kmh 30.32 in1026.8 mb 0.00 in0.0 mm 0.00 in0.0 mm 0.00 in0.0 mm
04:59 PM 50.9°F10.5°C 45.6°F7.6°C 82% 2.7 mph W4.3 kmh W 6.3 mph10.1 kmh 30.32 in1026.8 mb 0.00 in0.0 mm 0.00 in0.0 mm 0.00 in0.0 mm
05:00 PM 50.9°F10.5°C 45.9°F7.7°C 83% 2.7 mph WNW4.3 kmh WNW 6.3 mph10.1 kmh 30.32 in1026.8 mb 0.00 in0.0 mm 0.00 in0.0 mm 0.00 in0.0 mm
05:01 PM 50.9°F10.5°C 45.6°F7.6°C 82% 4.7 mph W7.6 kmh W 6.3 mph10.1 kmh 30.32 in1026.8 mb 0.00 in0.0 mm 0.00 in0.0 mm 0.00 in0.0 mm
05:02 PM 50.9°F10.5°C 45.6°F7.6°C 82% 4.2 mph W6.8 kmh W 5.8 mph9.3 kmh 30.32 in1026.8 mb 0.00 in0.0 mm 0.00 in0.0 mm 0.00 in0.0 mm
05:03 PM 50.9°F10.5°C 45.6°F7.6°C 82% 4.7 mph W7.6 kmh W 5.8 mph9.3 kmh 30.32 in1026.8 mb 0.00 in0.0 mm 0.00 in0.0 mm 0.00 in0.0 mm
05:04 PM 50.9°F10.5°C 45.6°F7.6°C 82% 5.3 mph W8.5 kmh W 5.8 mph9.3 kmh 30.32 in1026.8 mb 0.00 in0.0 mm 0.00 in0.0 mm 0.00 in0.0 mm
05:05 PM 50.9°F10.5°C 45.6°F7.6°C 82% 5.8 mph W9.3 kmh W 5.8 mph9.3 kmh 30.32 in1026.8 mb 0.00 in0.0 mm 0.00 in0.0 mm 0.00 in0.0 mm
05:06 PM 50.7°F10.4°C 45.4°F7.4°C 82% 5.8 mph W9.3 kmh W 6.3 mph10.1 kmh 30.32 in1026.8 mb 0.00 in0.0 mm 0.00 in0.0 mm 0.00 in0.0 mm
05:07 PM 50.7°F10.4°C 45.4°F7.4°C 82% 5.8 mph W9.3 kmh W 6.3 mph10.1 kmh 30.32 in1026.8 mb 0.00 in0.0 mm 0.00 in0.0 mm 0.00 in0.0 mm
05:08 PM 50.7°F10.4°C 45.4°F7.4°C 82% 5.8 mph W9.3 kmh W 6.3 mph10.1 kmh 30.32 in1026.8 mb 0.00 in0.0 mm 0.00 in0.0 mm 0.00 in0.0 mm
05:09 PM 50.9°F10.5°C 45.9°F7.7°C 83% 5.3 mph W8.5 kmh W 6.3 mph10.1 kmh 30.32 in1026.8 mb 0.00 in0.0 mm 0.00 in0.0 mm 0.00 in0.0 mm
05:10 PM 50.9°F10.5°C 45.6°F7.6°C 82% 4.7 mph WSW7.6 kmh WSW 6.3 mph10.1 kmh 30.32 in1026.8 mb 0.00 in0.0 mm 0.00 in0.0 mm 0.00 in0.0 mm
05:11 PM 50.9°F10.5°C 45.9°F7.7°C 83% 4.7 mph W7.6 kmh W 6.3 mph10.1 kmh 30.32 in1026.8 mb 0.00 in0.0 mm 0.00 in0.0 mm 0.00 in0.0 mm
05:12 PM 50.9°F10.5°C 45.9°F7.7°C 83% 3.7 mph W6.0 kmh W 6.3 mph10.1 kmh 30.32 in1026.8 mb 0.00 in0.0 mm 0.00 in0.0 mm 0.00 in0.0 mm
05:13 PM 50.9°F10.5°C 46.2°F7.9°C 84% 5.3 mph W8.5 kmh W 6.3 mph10.1 kmh 30.32 in1026.8 mb 0.00 in0.0 mm 0.00 in0.0 mm 0.00 in0.0 mm
05:14 PM 50.9°F10.5°C 46.2°F7.9°C 84% 3.7 mph W6.0 kmh W 6.3 mph10.1 kmh 30.32 in1026.8 mb 0.00 in0.0 mm 0.00 in0.0 mm 0.00 in0.0 mm
05:15 PM 50.7°F10.4°C 45.7°F7.6°C 83% 4.2 mph W6.8 kmh W 6.3 mph10.1 kmh 30.32 in1026.8 mb 0.00 in0.0 mm 0.00 in0.0 mm 0.00 in0.0 mm
05:16 PM 50.7°F10.4°C 46.1°F7.8°C 84% 4.2 mph W6.8 kmh W 6.3 mph10.1 kmh 30.32 in1026.8 mb 0.00 in0.0 mm 0.00 in0.0 mm 0.00 in0.0 mm
05:17 PM 50.7°F10.4°C 45.7°F7.6°C 83% 4.2 mph W6.8 kmh W 6.3 mph10.1 kmh 30.32 in1026.8 mb 0.00 in0.0 mm 0.00 in0.0 mm 0.00 in0.0 mm
05:18 PM 50.7°F10.4°C 45.7°F7.6°C 83% 4.7 mph W7.6 kmh W 5.8 mph9.3 kmh 30.32 in1026.8 mb 0.00 in0.0 mm 0.00 in0.0 mm 0.00 in0.0 mm
05:19 PM 50.7°F10.4°C 45.7°F7.6°C 83% 4.7 mph W7.6 kmh W 5.8 mph9.3 kmh 30.32 in1026.8 mb 0.00 in0.0 mm 0.00 in0.0 mm 0.00 in0.0 mm
05:20 PM 50.7°F10.4°C 45.7°F7.6°C 83% 5.3 mph W8.5 kmh W 5.3 mph8.5 kmh 30.32 in1026.8 mb 0.00 in0.0 mm 0.00 in0.0 mm 0.00 in0.0 mm
05:21 PM 50.7°F10.4°C 45.7°F7.6°C 83% 4.2 mph W6.8 kmh W 5.3 mph8.5 kmh 30.32 in1026.8 mb 0.00 in0.0 mm 0.00 in0.0 mm 0.00 in0.0 mm
05:22 PM 50.7°F10.4°C 45.7°F7.6°C 83% 4.2 mph W6.8 kmh W 5.3 mph8.5 kmh 30.32 in1026.8 mb 0.00 in0.0 mm 0.00 in0.0 mm 0.00 in0.0 mm
05:23 PM 50.7°F10.4°C 45.7°F7.6°C 83% 5.8 mph W9.3 kmh W 5.8 mph9.3 kmh 30.32 in1026.8 mb 0.00 in0.0 mm 0.00 in0.0 mm 0.00 in0.0 mm
05:24 PM 50.7°F10.4°C 45.7°F7.6°C 83% 5.3 mph WSW8.5 kmh WSW 5.8 mph9.3 kmh 30.32 in1026.8 mb 0.00 in0.0 mm 0.00 in0.0 mm 0.00 in0.0 mm
05:25 PM 50.7°F10.4°C 45.7°F7.6°C 83% 5.8 mph W9.3 kmh W 5.8 mph9.3 kmh 30.32 in1026.8 mb 0.00 in0.0 mm 0.00 in0.0 mm 0.00 in0.0 mm
05:26 PM 50.7°F10.4°C 46.1°F7.8°C 84% 5.3 mph W8.5 kmh W 5.8 mph9.3 kmh 30.32 in1026.8 mb 0.00 in0.0 mm 0.00 in0.0 mm 0.00 in0.0 mm
05:27 PM 50.7°F10.4°C 45.7°F7.6°C 83% 5.8 mph W9.3 kmh W 5.8 mph9.3 kmh 30.32 in1026.8 mb 0.00 in0.0 mm 0.00 in0.0 mm 0.00 in0.0 mm
05:28 PM 50.7°F10.4°C 45.7°F7.6°C 83% 5.8 mph W9.3 kmh W 5.8 mph9.3 kmh 30.33 in1027.1 mb 0.00 in0.0 mm 0.00 in0.0 mm 0.00 in0.0 mm
05:29 PM 50.7°F10.4°C 45.7°F7.6°C 83% 5.3 mph W8.5 kmh W 5.8 mph9.3 kmh 30.33 in1027.1 mb 0.00 in0.0 mm 0.00 in0.0 mm 0.00 in0.0 mm
05:30 PM 50.7°F10.4°C 45.7°F7.6°C 83% 4.7 mph W7.6 kmh W 5.8 mph9.3 kmh 30.33 in1027.1 mb 0.00 in0.0 mm 0.00 in0.0 mm 0.00 in0.0 mm
05:31 PM 50.7°F10.4°C 45.7°F7.6°C 83% 4.2 mph W6.8 kmh W 5.8 mph9.3 kmh 30.33 in1027.1 mb 0.00 in0.0 mm 0.00 in0.0 mm 0.00 in0.0 mm
05:32 PM 50.9°F10.5°C 46.2°F7.9°C 84% 4.2 mph W6.8 kmh W 5.8 mph9.3 kmh 30.33 in1027.1 mb 0.00 in0.0 mm 0.00 in0.0 mm 0.00 in0.0 mm
05:33 PM 50.7°F10.4°C 45.7°F7.6°C 83% 5.3 mph W8.5 kmh W 5.8 mph9.3 kmh 30.33 in1027.1 mb 0.00 in0.0 mm 0.00 in0.0 mm 0.00 in0.0 mm
05:34 PM 50.7°F10.4°C 45.7°F7.6°C 83% 4.7 mph W7.6 kmh W 5.8 mph9.3 kmh 30.33 in1027.1 mb 0.00 in0.0 mm 0.00 in0.0 mm 0.00 in0.0 mm
05:35 PM 50.7°F10.4°C 45.7°F7.6°C 83% 4.7 mph W7.6 kmh W 5.8 mph9.3 kmh 30.33 in1027.1 mb 0.00 in0.0 mm 0.00 in0.0 mm 0.00 in0.0 mm
05:36 PM 50.7°F10.4°C 45.4°F7.4°C 82% 5.8 mph W9.3 kmh W 5.8 mph9.3 kmh 30.33 in1027.1 mb 0.00 in0.0 mm 0.00 in0.0 mm 0.00 in0.0 mm
05:37 PM 50.7°F10.4°C 45.7°F7.6°C 83% 4.2 mph W6.8 kmh W 5.8 mph9.3 kmh 30.33 in1027.1 mb 0.00 in0.0 mm 0.00 in0.0 mm 0.00 in0.0 mm
05:38 PM 50.9°F10.5°C 45.9°F7.7°C 83% 4.2 mph W6.8 kmh W 5.8 mph9.3 kmh 30.33 in1027.1 mb 0.00 in0.0 mm 0.00 in0.0 mm 0.00 in0.0 mm
05:39 PM 50.9°F10.5°C 45.9°F7.7°C 83% 5.8 mph W9.3 kmh W 5.8 mph9.3 kmh 30.33 in1027.1 mb 0.00 in0.0 mm 0.00 in0.0 mm 0.00 in0.0 mm
05:40 PM 50.9°F10.5°C 45.9°F7.7°C 83% 4.7 mph W7.6 kmh W 5.8 mph9.3 kmh 30.33 in1027.1 mb 0.00 in0.0 mm 0.00 in0.0 mm 0.00 in0.0 mm
05:41 PM 50.9°F10.5°C 45.6°F7.6°C 82% 4.2 mph W6.8 kmh W 5.8 mph9.3 kmh 30.33 in1027.1 mb 0.00 in0.0 mm 0.00 in0.0 mm 0.00 in0.0 mm
05:42 PM 50.9°F10.5°C 45.9°F7.7°C 83% 5.3 mph W8.5 kmh W 5.8 mph9.3 kmh 30.33 in1027.1 mb 0.00 in0.0 mm 0.00 in0.0 mm 0.00 in0.0 mm
05:43 PM 50.9°F10.5°C 45.6°F7.6°C 82% 4.7 mph W7.6 kmh W 5.8 mph9.3 kmh 30.33 in1027.1 mb 0.00 in0.0 mm 0.00 in0.0 mm 0.00 in0.0 mm
05:44 PM 50.9°F10.5°C 45.6°F7.6°C 82% 4.7 mph W7.6 kmh W 5.8 mph9.3 kmh 30.33 in1027.1 mb 0.00 in0.0 mm 0.00 in0.0 mm 0.00 in0.0 mm
05:45 PM 50.9°F10.5°C 45.9°F7.7°C 83% 4.7 mph W7.6 kmh W 5.8 mph9.3 kmh 30.33 in1027.1 mb 0.00 in0.0 mm 0.00 in0.0 mm 0.00 in0.0 mm
05:46 PM 50.9°F10.5°C 45.9°F7.7°C 83% 5.3 mph W8.5 kmh W 5.8 mph9.3 kmh 30.33 in1027.1 mb 0.00 in0.0 mm 0.00 in0.0 mm 0.00 in0.0 mm
05:47 PM 50.9°F10.5°C 45.6°F7.6°C 82% 4.7 mph W7.6 kmh W 5.8 mph9.3 kmh 30.33 in1027.1 mb 0.00 in0.0 mm 0.00 in0.0 mm 0.00 in0.0 mm
05:48 PM 50.9°F10.5°C 45.6°F7.6°C 82% 4.7 mph W7.6 kmh W 5.8 mph9.3 kmh 30.33 in1027.1 mb 0.00 in0.0 mm 0.00 in0.0 mm 0.00 in0.0 mm
05:49 PM 50.9°F10.5°C 45.9°F7.7°C 83% 4.2 mph WNW6.8 kmh WNW 5.8 mph9.3 kmh 30.33 in1027.1 mb 0.00 in0.0 mm 0.00 in0.0 mm 0.00 in0.0 mm
05:50 PM 50.9°F10.5°C 45.6°F7.6°C 82% 5.3 mph WNW8.5 kmh WNW 5.8 mph9.3 kmh 30.33 in1027.1 mb 0.00 in0.0 mm 0.00 in0.0 mm 0.00 in0.0 mm
05:51 PM 50.9°F10.5°C 45.3°F7.4°C 81% 4.7 mph W7.6 kmh W 5.8 mph9.3 kmh 30.33 in1027.1 mb 0.00 in0.0 mm 0.00 in0.0 mm 0.00 in0.0 mm
05:52 PM 50.9°F10.5°C 45.6°F7.6°C 82% 4.2 mph W6.8 kmh W 5.8 mph9.3 kmh 30.33 in1027.1 mb 0.00 in0.0 mm 0.00 in0.0 mm 0.00 in0.0 mm
05:53 PM 50.9°F10.5°C 45.9°F7.7°C 83% 4.7 mph W7.6 kmh W 5.8 mph9.3 kmh 30.33 in1027.1 mb 0.00 in0.0 mm 0.00 in0.0 mm 0.00 in0.0 mm
05:54 PM 50.9°F10.5°C 45.6°F7.6°C 82% 4.7 mph W7.6 kmh W 5.8 mph9.3 kmh 30.33 in1027.1 mb 0.00 in0.0 mm 0.00 in0.0 mm 0.00 in0.0 mm
05:55 PM 51.1°F10.6°C 46.1°F7.8°C 83% 4.7 mph W7.6 kmh W 5.8 mph9.3 kmh 30.33 in1027.1 mb 0.00 in0.0 mm 0.00 in0.0 mm 0.00 in0.0 mm
05:56 PM 51.1°F10.6°C 46.1°F7.8°C 83% 5.8 mph W9.3 kmh W 5.8 mph9.3 kmh 30.33 in1027.1 mb 0.00 in0.0 mm 0.00 in0.0 mm 0.00 in0.0 mm
05:57 PM 51.1°F10.6°C 46.1°F7.8°C 83% 4.7 mph W7.6 kmh W 6.3 mph10.1 kmh 30.33 in1027.1 mb 0.00 in0.0 mm 0.00 in0.0 mm 0.00 in0.0 mm
05:58 PM 51.1°F10.6°C 45.8°F7.7°C 82% 5.3 mph WNW8.5 kmh WNW 6.3 mph10.1 kmh 30.33 in1027.1 mb 0.00 in0.0 mm 0.00 in0.0 mm 0.00 in0.0 mm
05:59 PM 50.9°F10.5°C 45.3°F7.4°C 81% 4.7 mph W7.6 kmh W 6.3 mph10.1 kmh 30.33 in1027.1 mb 0.00 in0.0 mm 0.00 in0.0 mm 0.00 in0.0 mm
06:00 PM 50.9°F10.5°C 45.3°F7.4°C 81% 3.7 mph WNW6.0 kmh WNW 6.3 mph10.1 kmh 30.33 in1027.1 mb 0.00 in0.0 mm 0.00 in0.0 mm 0.00 in0.0 mm
06:01 PM 50.9°F10.5°C 45.3°F7.4°C 81% 3.7 mph W6.0 kmh W 6.3 mph10.1 kmh 30.33 in1027.1 mb 0.00 in0.0 mm 0.00 in0.0 mm 0.00 in0.0 mm
06:02 PM 50.9°F10.5°C 45.3°F7.4°C 81% 3.7 mph W6.0 kmh W 6.3 mph10.1 kmh 30.33 in1027.1 mb 0.00 in0.0 mm 0.00 in0.0 mm 0.00 in0.0 mm
06:03 PM 50.9°F10.5°C 45.3°F7.4°C 81% 3.7 mph W6.0 kmh W 6.3 mph10.1 kmh 30.33 in1027.1 mb 0.00 in0.0 mm 0.00 in0.0 mm 0.00 in0.0 mm
06:04 PM 50.9°F10.5°C 45.3°F7.4°C 81% 3.2 mph WNW5.1 kmh WNW 6.3 mph10.1 kmh 30.33 in1027.1 mb 0.00 in0.0 mm 0.00 in0.0 mm 0.00 in0.0 mm
06:05 PM 50.9°F10.5°C 45.3°F7.4°C 81% 3.2 mph W5.1 kmh W 6.3 mph10.1 kmh 30.33 in1027.1 mb 0.00 in0.0 mm 0.00 in0.0 mm 0.00 in0.0 mm
06:06 PM 50.9°F10.5°C 45.3°F7.4°C 81% 4.2 mph W6.8 kmh W 6.3 mph10.1 kmh 30.33 in1027.1 mb 0.00 in0.0 mm 0.00 in0.0 mm 0.00 in0.0 mm
06:07 PM 50.9°F10.5°C 45.3°F7.4°C 81% 3.7 mph W6.0 kmh W 5.8 mph9.3 kmh 30.33 in1027.1 mb 0.00 in0.0 mm 0.00 in0.0 mm 0.00 in0.0 mm
06:08 PM 50.9°F10.5°C 45.3°F7.4°C 81% 3.7 mph W6.0 kmh W 5.3 mph8.5 kmh 30.33 in1027.1 mb 0.00 in0.0 mm 0.00 in0.0 mm 0.00 in0.0 mm
06:09 PM 50.9°F10.5°C 45.3°F7.4°C 81% 3.7 mph W6.0 kmh W 4.7 mph7.6 kmh 30.33 in1027.1 mb 0.00 in0.0 mm 0.00 in0.0 mm 0.00 in0.0 mm
06:10 PM 50.9°F10.5°C 45.3°F7.4°C 81% 3.7 mph W6.0 kmh W 4.7 mph7.6 kmh 30.33 in1027.1 mb 0.00 in0.0 mm 0.00 in0.0 mm 0.00 in0.0 mm
06:11 PM 50.9°F10.5°C 45.3°F7.4°C 81% 4.2 mph W6.8 kmh W 4.7 mph7.6 kmh 30.33 in1027.1 mb 0.00 in0.0 mm 0.00 in0.0 mm 0.00 in0.0 mm
06:12 PM 50.9°F10.5°C 45.3°F7.4°C 81% 4.2 mph WSW6.8 kmh WSW 4.7 mph7.6 kmh 30.33 in1027.1 mb 0.00 in0.0 mm 0.00 in0.0 mm 0.00 in0.0 mm
06:13 PM 50.9°F10.5°C 45.6°F7.6°C 82% 3.7 mph W6.0 kmh W 4.7 mph7.6 kmh 30.33 in1027.1 mb 0.00 in0.0 mm 0.00 in0.0 mm 0.00 in0.0 mm
06:14 PM 50.9°F10.5°C 45.6°F7.6°C 82% 3.2 mph W5.1 kmh W 4.7 mph7.6 kmh 30.33 in1027.1 mb 0.00 in0.0 mm 0.00 in0.0 mm 0.00 in0.0 mm
06:15 PM 50.9°F10.5°C 45.6°F7.6°C 82% 3.7 mph W6.0 kmh W 4.7 mph7.6 kmh 30.33 in1027.1 mb 0.00 in0.0 mm 0.00 in0.0 mm 0.00 in0.0 mm
06:16 PM 50.9°F10.5°C 45.3°F7.4°C 81% 2.7 mph W4.3 kmh W 4.7 mph7.6 kmh 30.33 in1027.1 mb 0.00 in0.0 mm 0.00 in0.0 mm 0.00 in0.0 mm
06:17 PM 50.9°F10.5°C 45.6°F7.6°C 82% 4.2 mph W6.8 kmh W 4.7 mph7.6 kmh 30.33 in1027.1 mb 0.00 in0.0 mm 0.00 in0.0 mm 0.00 in0.0 mm
06:18 PM 50.9°F10.5°C 45.3°F7.4°C 81% 4.7 mph W7.6 kmh W 4.7 mph7.6 kmh 30.33 in1027.1 mb 0.00 in0.0 mm 0.00 in0.0 mm 0.00 in0.0 mm
06:19 PM 50.9°F10.5°C 45.3°F7.4°C 81% 3.7 mph W6.0 kmh W 4.7 mph7.6 kmh 30.33 in1027.1 mb 0.00 in0.0 mm 0.00 in0.0 mm 0.00 in0.0 mm
06:20 PM 50.9°F10.5°C 45.3°F7.4°C 81% 4.2 mph W6.8 kmh W 4.7 mph7.6 kmh 30.33 in1027.1 mb 0.00 in0.0 mm 0.00 in0.0 mm 0.00 in0.0 mm
06:21 PM 50.9°F10.5°C 45.3°F7.4°C 81% 4.2 mph W6.8 kmh W 4.7 mph7.6 kmh 30.33 in1027.1 mb 0.00 in0.0 mm 0.00 in0.0 mm 0.00 in0.0 mm
06:22 PM 50.9°F10.5°C 45.3°F7.4°C 81% 3.2 mph W5.1 kmh W 4.7 mph7.6 kmh 30.33 in1027.1 mb 0.00 in0.0 mm 0.00 in0.0 mm 0.00 in0.0 mm
06:23 PM 51.1°F10.6°C 45.8°F7.7°C 82% 4.2 mph W6.8 kmh W 4.7 mph7.6 kmh 30.33 in1027.1 mb 0.00 in0.0 mm 0.00 in0.0 mm 0.00 in0.0 mm
06:24 PM 51.1°F10.6°C 45.8°F7.7°C 82% 4.2 mph W6.8 kmh W 4.7 mph7.6 kmh 30.33 in1027.1 mb 0.00 in0.0 mm 0.00 in0.0 mm 0.00 in0.0 mm
06:25 PM 51.1°F10.6°C 45.8°F7.7°C 82% 3.2 mph W5.1 kmh W 4.7 mph7.6 kmh 30.33 in1027.1 mb 0.00 in0.0 mm 0.00 in0.0 mm 0.00 in0.0 mm
06:26 PM 51.1°F10.6°C 45.1°F7.3°C 80% 3.7 mph W6.0 kmh W 4.7 mph7.6 kmh 30.33 in1027.1 mb 0.00 in0.0 mm 0.00 in0.0 mm 0.00 in0.0 mm
06:27 PM 51.1°F10.6°C 45.5°F7.5°C 81% 3.2 mph WNW5.1 kmh WNW 4.7 mph7.6 kmh 30.33 in1027.1 mb 0.00 in0.0 mm 0.00 in0.0 mm 0.00 in0.0 mm
06:28 PM 51.1°F10.6°C 45.5°F7.5°C 81% 4.2 mph W6.8 kmh W 4.7 mph7.6 kmh 30.34 in1027.4 mb 0.00 in0.0 mm 0.00 in0.0 mm 0.00 in0.0 mm
06:29 PM 51.1°F10.6°C 45.5°F7.5°C 81% 4.2 mph W6.8 kmh W 4.7 mph7.6 kmh 30.34 in1027.4 mb 0.00 in0.0 mm 0.00 in0.0 mm 0.00 in0.0 mm
06:30 PM 51.1°F10.6°C 45.1°F7.3°C 80% 3.7 mph W6.0 kmh W 4.7 mph7.6 kmh 30.34 in1027.4 mb 0.00 in0.0 mm 0.00 in0.0 mm 0.00 in0.0 mm
06:31 PM 51.1°F10.6°C 45.5°F7.5°C 81% 4.7 mph W7.6 kmh W 5.3 mph8.5 kmh 30.34 in1027.4 mb 0.00 in0.0 mm 0.00 in0.0 mm 0.00 in0.0 mm
06:32 PM 51.1°F10.6°C 45.1°F7.3°C 80% 5.3 mph W8.5 kmh W 5.8 mph9.3 kmh 30.34 in1027.4 mb 0.00 in0.0 mm 0.00 in0.0 mm 0.00 in0.0 mm
06:33 PM 51.1°F10.6°C 45.5°F7.5°C 81% 4.7 mph W7.6 kmh W 5.8 mph9.3 kmh 30.34 in1027.4 mb 0.00 in0.0 mm 0.00 in0.0 mm 0.00 in0.0 mm
06:34 PM 51.3°F10.7°C 46.3°F7.9°C 83% 4.7 mph W7.6 kmh W 5.8 mph9.3 kmh 30.34 in1027.4 mb 0.00 in0.0 mm 0.00 in0.0 mm 0.00 in0.0 mm
06:35 PM 51.3°F10.7°C 46.3°F7.9°C 83% 4.7 mph W7.6 kmh W 5.8 mph9.3 kmh 30.34 in1027.4 mb 0.00 in0.0 mm 0.00 in0.0 mm 0.00 in0.0 mm
06:36 PM 51.1°F10.6°C 45.5°F7.5°C 81% 5.3 mph W8.5 kmh W 5.8 mph9.3 kmh 30.34 in1027.4 mb 0.00 in0.0 mm 0.00 in0.0 mm 0.00 in0.0 mm
06:37 PM 51.1°F10.6°C 45.5°F7.5°C 81% 4.7 mph W7.6 kmh W 5.8 mph9.3 kmh 30.34 in1027.4 mb 0.00 in0.0 mm 0.00 in0.0 mm 0.00 in0.0 mm
06:38 PM 51.1°F10.6°C 45.5°F7.5°C 81% 4.2 mph W6.8 kmh W 5.8 mph9.3 kmh 30.34 in1027.4 mb 0.00 in0.0 mm 0.00 in0.0 mm 0.00 in0.0 mm
06:39 PM 51.1°F10.6°C 45.8°F7.7°C 82% 3.2 mph W5.1 kmh W 5.8 mph9.3 kmh 30.34 in1027.4 mb 0.00 in0.0 mm 0.00 in0.0 mm 0.00 in0.0 mm
06:40 PM 51.1°F10.6°C 45.5°F7.5°C 81% 4.2 mph W6.8 kmh W 5.8 mph9.3 kmh 30.34 in1027.4 mb 0.00 in0.0 mm 0.00 in0.0 mm 0.00 in0.0 mm
06:41 PM 50.9°F10.5°C 45.3°F7.4°C 81% 3.7 mph W6.0 kmh W 5.8 mph9.3 kmh 30.34 in1027.4 mb 0.00 in0.0 mm 0.00 in0.0 mm 0.00 in0.0 mm
06:42 PM 50.9°F10.5°C 45.6°F7.6°C 82% 3.7 mph WSW6.0 kmh WSW 5.3 mph8.5 kmh 30.34 in1027.4 mb 0.00 in0.0 mm 0.00 in0.0 mm 0.00 in0.0 mm
06:43 PM 50.9°F10.5°C 45.6°F7.6°C 82% 3.2 mph WSW5.1 kmh WSW 5.3 mph8.5 kmh 30.34 in1027.4 mb 0.00 in0.0 mm 0.00 in0.0 mm 0.00 in0.0 mm
06:44 PM 50.9°F10.5°C 45.6°F7.6°C 82% 3.2 mph WSW5.1 kmh WSW 5.3 mph8.5 kmh 30.34 in1027.4 mb 0.00 in0.0 mm 0.00 in0.0 mm 0.00 in0.0 mm
06:45 PM 50.7°F10.4°C 45.1°F7.3°C 81% 3.7 mph W6.0 kmh W 5.3 mph8.5 kmh 30.34 in1027.4 mb 0.00 in0.0 mm 0.00 in0.0 mm 0.00 in0.0 mm
06:46 PM 50.7°F10.4°C 45.4°F7.4°C 82% 2.7 mph W4.3 kmh W 5.3 mph8.5 kmh 30.34 in1027.4 mb 0.00 in0.0 mm 0.00 in0.0 mm 0.00 in0.0 mm
06:47 PM 50.7°F10.4°C 45.4°F7.4°C 82% 2.7 mph W4.3 kmh W 4.7 mph7.6 kmh 30.34 in1027.4 mb 0.00 in0.0 mm 0.00 in0.0 mm 0.00 in0.0 mm
06:48 PM 50.7°F10.4°C 45.4°F7.4°C 82% 3.7 mph WSW6.0 kmh WSW 4.7 mph7.6 kmh 30.34 in1027.4 mb 0.00 in0.0 mm 0.00 in0.0 mm 0.00 in0.0 mm
06:49 PM 50.5°F10.3°C 45.3°F7.4°C 82% 3.2 mph W5.1 kmh W 4.7 mph7.6 kmh 30.34 in1027.4 mb 0.00 in0.0 mm 0.00 in0.0 mm 0.00 in0.0 mm
06:50 PM 50.5°F10.3°C 45.3°F7.4°C 82% 3.2 mph W5.1 kmh W 4.2 mph6.8 kmh 30.34 in1027.4 mb 0.00 in0.0 mm 0.00 in0.0 mm 0.00 in0.0 mm
06:51 PM 50.5°F10.3°C 44.9°F7.2°C 81% 3.2 mph W5.1 kmh W 4.2 mph6.8 kmh 30.34 in1027.4 mb 0.00 in0.0 mm 0.00 in0.0 mm 0.00 in0.0 mm
06:52 PM 50.5°F10.3°C 44.9°F7.2°C 81% 2.7 mph W4.3 kmh W 4.2 mph6.8 kmh 30.34 in1027.4 mb 0.00 in0.0 mm 0.00 in0.0 mm 0.00 in0.0 mm
06:53 PM 50.5°F10.3°C 45.3°F7.4°C 82% 3.7 mph W6.0 kmh W 4.2 mph6.8 kmh 30.34 in1027.4 mb 0.00 in0.0 mm 0.00 in0.0 mm 0.00 in0.0 mm
06:54 PM 50.5°F10.3°C 44.9°F7.2°C 81% 3.7 mph W6.0 kmh W 3.7 mph6.0 kmh 30.34 in1027.4 mb 0.00 in0.0 mm 0.00 in0.0 mm 0.00 in0.0 mm
06:55 PM 50.5°F10.3°C 44.9°F7.2°C 81% 3.7 mph W6.0 kmh W 3.7 mph6.0 kmh 30.34 in1027.4 mb 0.00 in0.0 mm 0.00 in0.0 mm 0.00 in0.0 mm
06:56 PM 50.5°F10.3°C 44.9°F7.2°C 81% 3.2 mph W5.1 kmh W 3.7 mph6.0 kmh 30.34 in1027.4 mb 0.00 in0.0 mm 0.00 in0.0 mm 0.00 in0.0 mm
06:57 PM 50.5°F10.3°C 45.3°F7.4°C 82% 3.7 mph W6.0 kmh W 3.7 mph6.0 kmh 30.34 in1027.4 mb 0.00 in0.0 mm 0.00 in0.0 mm 0.00 in0.0 mm
06:58 PM 50.5°F10.3°C 44.9°F7.2°C 81% 3.7 mph W6.0 kmh W 4.2 mph6.8 kmh 30.34 in1027.4 mb 0.00 in0.0 mm 0.00 in0.0 mm 0.00 in0.0 mm
06:59 PM 50.5°F10.3°C 44.9°F7.2°C 81% 3.7 mph W6.0 kmh W 4.2 mph6.8 kmh 30.34 in1027.4 mb 0.00 in0.0 mm 0.00 in0.0 mm 0.00 in0.0 mm
07:00 PM 50.5°F10.3°C 45.3°F7.4°C 82% 3.7 mph W6.0 kmh W 4.2 mph6.8 kmh 30.34 in1027.4 mb 0.00 in0.0 mm 0.00 in0.0 mm 0.00 in0.0 mm
07:01 PM 50.5°F10.3°C 44.9°F7.2°C 81% 3.7 mph W6.0 kmh W 4.2 mph6.8 kmh 30.34 in1027.4 mb 0.00 in0.0 mm 0.00 in0.0 mm 0.00 in0.0 mm
07:02 PM 50.5°F10.3°C 44.9°F7.2°C 81% 4.2 mph W6.8 kmh W 4.7 mph7.6 kmh 30.34 in1027.4 mb 0.00 in0.0 mm 0.00 in0.0 mm 0.00 in0.0 mm
07:03 PM 50.5°F10.3°C 44.9°F7.2°C 81% 4.2 mph W6.8 kmh W 4.7 mph7.6 kmh 30.36 in1028.1 mb 0.00 in0.0 mm 0.00 in0.0 mm 0.00 in0.0 mm
07:04 PM 50.7°F10.4°C 45.4°F7.4°C 82% 4.7 mph W7.6 kmh W 5.3 mph8.5 kmh 30.36 in1028.1 mb 0.00 in0.0 mm 0.00 in0.0 mm 0.00 in0.0 mm
07:05 PM 50.7°F10.4°C 45.1°F7.3°C 81% 4.7 mph W7.6 kmh W 5.3 mph8.5 kmh 30.36 in1028.1 mb 0.00 in0.0 mm 0.00 in0.0 mm 0.00 in0.0 mm
07:06 PM 50.7°F10.4°C 45.1°F7.3°C 81% 3.7 mph W6.0 kmh W 5.3 mph8.5 kmh 30.36 in1028.1 mb 0.00 in0.0 mm 0.00 in0.0 mm 0.00 in0.0 mm
07:07 PM 50.7°F10.4°C 45.1°F7.3°C 81% 4.2 mph W6.8 kmh W 5.3 mph8.5 kmh 30.36 in1028.1 mb 0.00 in0.0 mm 0.00 in0.0 mm 0.00 in0.0 mm
07:08 PM 50.7°F10.4°C 45.1°F7.3°C 81% 3.7 mph W6.0 kmh W 5.3 mph8.5 kmh 30.36 in1028.1 mb 0.00 in0.0 mm 0.00 in0.0 mm 0.00 in0.0 mm
07:09 PM 50.7°F10.4°C 44.8°F7.1°C 80% 3.7 mph WSW6.0 kmh WSW 5.3 mph8.5 kmh 30.36 in1028.1 mb 0.00 in0.0 mm 0.00 in0.0 mm 0.00 in0.0 mm
07:10 PM 50.7°F10.4°C 44.8°F7.1°C 80% 3.7 mph WSW6.0 kmh WSW 5.3 mph8.5 kmh 30.36 in1028.1 mb 0.00 in0.0 mm 0.00 in0.0 mm 0.00 in0.0 mm
07:11 PM 50.7°F10.4°C 44.8°F7.1°C 80% 3.2 mph W5.1 kmh W 5.3 mph8.5 kmh 30.36 in1028.1 mb 0.00 in0.0 mm 0.00 in0.0 mm 0.00 in0.0 mm
07:12 PM 50.7°F10.4°C 44.4°F6.9°C 79% 3.7 mph W6.0 kmh W 5.3 mph8.5 kmh 30.36 in1028.1 mb 0.00 in0.0 mm 0.00 in0.0 mm 0.00 in0.0 mm
07:13 PM 50.7°F10.4°C 44.8°F7.1°C 80% 3.2 mph WSW5.1 kmh WSW 5.3 mph8.5 kmh 30.36 in1028.1 mb 0.00 in0.0 mm 0.00 in0.0 mm 0.00 in0.0 mm
07:14 PM 50.7°F10.4°C 44.8°F7.1°C 80% 3.2 mph W5.1 kmh W 5.3 mph8.5 kmh 30.36 in1028.1 mb 0.00 in0.0 mm 0.00 in0.0 mm 0.00 in0.0 mm
07:15 PM 50.7°F10.4°C 45.1°F7.3°C 81% 2.7 mph W4.3 kmh W 4.7 mph7.6 kmh 30.35 in1027.8 mb 0.00 in0.0 mm 0.00 in0.0 mm 0.00 in0.0 mm
07:16 PM 50.7°F10.4°C 44.8°F7.1°C 80% 3.7 mph W6.0 kmh W 4.7 mph7.6 kmh 30.35 in1027.8 mb 0.00 in0.0 mm 0.00 in0.0 mm 0.00 in0.0 mm
07:17 PM 50.7°F10.4°C 45.1°F7.3°C 81% 2.7 mph W4.3 kmh W 4.7 mph7.6 kmh 30.35 in1027.8 mb 0.00 in0.0 mm 0.00 in0.0 mm 0.00 in0.0 mm
07:18 PM 50.7°F10.4°C 44.4°F6.9°C 79% 3.2 mph W5.1 kmh W 4.7 mph7.6 kmh 30.35 in1027.8 mb 0.00 in0.0 mm 0.00 in0.0 mm 0.00 in0.0 mm
07:19 PM 50.7°F10.4°C 44.4°F6.9°C 79% 3.2 mph W5.1 kmh W 4.2 mph6.8 kmh 30.35 in1027.8 mb 0.00 in0.0 mm 0.00 in0.0 mm 0.00 in0.0 mm
07:20 PM 50.7°F10.4°C 44.4°F6.9°C 79% 3.2 mph W5.1 kmh W 4.2 mph6.8 kmh 30.35 in1027.8 mb 0.00 in0.0 mm 0.00 in0.0 mm 0.00 in0.0 mm
07:21 PM 50.7°F10.4°C 44.4°F6.9°C 79% 2.7 mph W4.3 kmh W 4.2 mph6.8 kmh 30.35 in1027.8 mb 0.00 in0.0 mm 0.00 in0.0 mm 0.00 in0.0 mm
07:22 PM 50.7°F10.4°C 44.8°F7.1°C 80% 3.7 mph W6.0 kmh W 4.2 mph6.8 kmh 30.35 in1027.8 mb 0.00 in0.0 mm 0.00 in0.0 mm 0.00 in0.0 mm
07:23 PM 50.7°F10.4°C 44.4°F6.9°C 79% 2.7 mph W4.3 kmh W 4.2 mph6.8 kmh 30.35 in1027.8 mb 0.00 in0.0 mm 0.00 in0.0 mm 0.00 in0.0 mm
07:24 PM 50.7°F10.4°C 44.4°F6.9°C 79% 3.2 mph W5.1 kmh W 4.2 mph6.8 kmh 30.35 in1027.8 mb 0.00 in0.0 mm 0.00 in0.0 mm 0.00 in0.0 mm
07:25 PM 50.7°F10.4°C 44.8°F7.1°C 80% 2.7 mph W4.3 kmh W 4.2 mph6.8 kmh 30.35 in1027.8 mb 0.00 in0.0 mm 0.00 in0.0 mm 0.00 in0.0 mm
07:26 PM 50.7°F10.4°C 44.8°F7.1°C 80% 3.7 mph W6.0 kmh W 4.2 mph6.8 kmh 30.35 in1027.8 mb 0.00 in0.0 mm 0.00 in0.0 mm 0.00 in0.0 mm
07:27 PM 50.7°F10.4°C 44.4°F6.9°C 79% 2.7 mph WNW4.3 kmh WNW 4.2 mph6.8 kmh 30.35 in1027.8 mb 0.00 in0.0 mm 0.00 in0.0 mm 0.00 in0.0 mm
07:28 PM 50.7°F10.4°C 44.4°F6.9°C 79% 3.2 mph W5.1 kmh W 4.2 mph6.8 kmh 30.35 in1027.8 mb 0.00 in0.0 mm 0.00 in0.0 mm 0.00 in0.0 mm
07:29 PM 50.7°F10.4°C 44.4°F6.9°C 79% 4.2 mph W6.8 kmh W 4.2 mph6.8 kmh 30.35 in1027.8 mb 0.00 in0.0 mm 0.00 in0.0 mm 0.00 in0.0 mm
07:30 PM 50.7°F10.4°C 44.1°F6.7°C 78% 3.2 mph W5.1 kmh W 4.2 mph6.8 kmh 30.35 in1027.8 mb 0.00 in0.0 mm 0.00 in0.0 mm 0.00 in0.0 mm
07:31 PM 50.9°F10.5°C 44.6°F7.0°C 79% 2.7 mph W4.3 kmh W 4.2 mph6.8 kmh 30.35 in1027.8 mb 0.00 in0.0 mm 0.00 in0.0 mm 0.00 in0.0 mm
07:32 PM 50.9°F10.5°C 45.0°F7.2°C 80% 3.2 mph W5.1 kmh W 4.2 mph6.8 kmh 30.35 in1027.8 mb 0.00 in0.0 mm 0.00 in0.0 mm 0.00 in0.0 mm
07:33 PM 50.9°F10.5°C 44.3°F6.8°C 78% 3.2 mph W5.1 kmh W 4.2 mph6.8 kmh 30.35 in1027.8 mb 0.00 in0.0 mm 0.00 in0.0 mm 0.00 in0.0 mm
07:34 PM 50.9°F10.5°C 44.0°F6.7°C 77% 3.7 mph WNW6.0 kmh WNW 4.2 mph6.8 kmh 30.35 in1027.8 mb 0.00 in0.0 mm 0.00 in0.0 mm 0.00 in0.0 mm
07:35 PM 50.9°F10.5°C 44.0°F6.7°C 77% 3.7 mph W6.0 kmh W 4.2 mph6.8 kmh 30.35 in1027.8 mb 0.00 in0.0 mm 0.00 in0.0 mm 0.00 in0.0 mm
07:36 PM 50.9°F10.5°C 43.6°F6.4°C 76% 3.2 mph W5.1 kmh W 4.2 mph6.8 kmh 30.35 in1027.8 mb 0.00 in0.0 mm 0.00 in0.0 mm 0.00 in0.0 mm
07:37 PM 51.1°F10.6°C 43.8°F6.6°C 76% 3.2 mph WNW5.1 kmh WNW 4.2 mph6.8 kmh 30.35 in1027.8 mb 0.00 in0.0 mm 0.00 in0.0 mm 0.00 in0.0 mm
07:38 PM 51.1°F10.6°C 44.1°F6.7°C 77% 2.7 mph W4.3 kmh W 4.2 mph6.8 kmh 30.35 in1027.8 mb 0.00 in0.0 mm 0.00 in0.0 mm 0.00 in0.0 mm
07:39 PM 51.1°F10.6°C 44.5°F6.9°C 78% 3.7 mph WNW6.0 kmh WNW 4.2 mph6.8 kmh